Provisional Data: Ninemile Run near Walton, PA


Please select a monitoring station.
Please select start date.
Please select start date.

Toggle Unit: C/F Toggle Unit: C/F
Sample Time Temperature (C) Temperature (F) Specific Conductivity (mS/cm) pH   Turbidity (NTU+) DO (mg/L)
8/9/2021 12:00:00 AM 15.8 60.44 0.058 6.71 2.43 8.77
8/9/2021 12:15:00 AM 15.74 60.332 0.057 6.72 2.46 8.79
8/9/2021 12:30:00 AM 15.67 60.206 0.057 6.72 2.73 8.8
8/9/2021 12:45:00 AM 15.61 60.098 0.057 6.72 2.68 8.82
8/9/2021 1:00:00 AM 15.55 59.99 0.057 6.71 2.56 8.83
8/9/2021 1:15:00 AM 15.49 59.882 0.057 6.71 2.72 8.84
8/9/2021 1:30:00 AM 15.44 59.792 0.057 6.7 3 8.85
8/9/2021 1:45:00 AM 15.38 59.684 0.057 6.7 2.97 8.86
8/9/2021 2:00:00 AM 15.33 59.594 0.057 6.71 2.56 8.88
8/9/2021 2:15:00 AM 15.28 59.504 0.057 6.71 2.53 8.89
8/9/2021 2:30:00 AM 15.22 59.396 0.057 6.7 2.4 8.9
8/9/2021 2:45:00 AM 15.17 59.306 0.057 6.69 2.58 8.92
8/9/2021 3:00:00 AM 15.12 59.216 0.057 6.69 2.56 8.92
8/9/2021 3:15:00 AM 15.07 59.126 0.057 6.7 2.51 8.94
8/9/2021 3:30:00 AM 15.03 59.054 0.057 6.7 2.57 8.95
8/9/2021 3:45:00 AM 14.99 58.982 0.057 6.7 2.42 8.95
8/9/2021 4:00:00 AM 14.97 58.946 0.057 6.7 3.11 8.96
8/9/2021 4:15:00 AM 14.94 58.892 0.057 6.7 2.82 8.97
8/9/2021 4:30:00 AM 14.91 58.838 0.057 6.7 2.65 8.97
8/9/2021 4:45:00 AM 14.89 58.802 0.057 6.69 2.61 8.98
8/9/2021 5:00:00 AM 14.85 58.73 0.057 6.69 2.55 8.99
8/9/2021 5:15:00 AM 14.82 58.676 0.057 6.69 2.54 9.01
8/9/2021 5:30:00 AM 14.8 58.64 0.057 6.69 2.42 9.01
8/9/2021 5:45:00 AM 14.76 58.568 0.057 6.69 2.37 9.02
8/9/2021 6:00:00 AM 14.73 58.514 0.057 6.69 2.62 9.03
8/9/2021 6:15:00 AM 14.71 58.478 0.057 6.7 2.78 9.04
8/9/2021 6:30:00 AM 14.67 58.406 0.057 6.7 2.88 9.05
8/9/2021 6:45:00 AM 14.64 58.352 0.057 6.7 2.54 9.07
8/9/2021 7:00:00 AM 14.62 58.316 0.057 6.71 2.75 9.11
8/9/2021 7:15:00 AM 14.6 58.28 0.057 6.71 2.78 9.15
8/9/2021 7:30:00 AM 14.59 58.262 0.057 6.73 2.48 9.2
8/9/2021 7:45:00 AM 14.59 58.262 0.057 6.75 2.35 9.25
8/9/2021 8:00:00 AM 14.6 58.28 0.057 6.77 2.44 9.32
8/9/2021 8:15:00 AM 14.62 58.316 0.057 6.8 2.27 9.4
8/9/2021 8:30:00 AM 14.64 58.352 0.056 6.83 2.55 9.44
8/9/2021 8:45:00 AM 14.66 58.388 0.056 6.84 2.35 9.48
8/9/2021 9:00:00 AM 14.71 58.478 0.056 6.87 2.27 9.54
8/9/2021 9:15:00 AM 14.76 58.568 0.056 6.9 2.57 9.6
8/9/2021 9:30:00 AM 14.82 58.676 0.056 6.92 2.37 9.62
8/9/2021 9:45:00 AM 14.98 58.964 0.056 6.97 2.46 9.69
8/9/2021 10:00:00 AM 15.24 59.432 0.055 7.04 2.44 9.75
8/9/2021 10:15:00 AM 15.53 59.954 0.055 7.09 2.43 9.74
8/9/2021 10:30:00 AM 15.76 60.368 0.055 7.11 2.46 9.72
8/9/2021 10:45:00 AM 16.02 60.836 0.055 7.13 2.22 9.67
8/9/2021 11:00:00 AM 16.26 61.268 0.055 7.15 2.4 9.65
8/9/2021 11:15:00 AM 16.49 61.682 0.055 7.17 2.23 9.62
8/9/2021 11:30:00 AM 16.57 61.826 0.055 7.15 2.33 9.55
8/9/2021 11:45:00 AM 16.59 61.862 0.055 7.13 2.45 9.49
8/9/2021 12:00:00 PM 16.66 61.988 0.055 7.14 3.16 9.48
8/9/2021 12:15:00 PM 16.66 61.988 0.055 7.11 2.4 9.44
8/9/2021 12:30:00 PM 16.86 62.348 0.055 7.16 2.55 9.49
8/9/2021 12:45:00 PM 17.1 62.78 0.055 7.21 2.41 9.5
8/9/2021 1:00:00 PM 17.33 63.194 0.055 7.23 2.52 9.47
8/9/2021 1:15:00 PM 17.58 63.644 0.055 7.26 2.26 9.43
8/9/2021 1:30:00 PM 17.75 63.95 0.055 7.25 2.42 9.37
8/9/2021 1:45:00 PM 17.86 64.148 0.054 7.25 2.48 9.32
8/9/2021 2:00:00 PM 18.07 64.526 0.054 7.26 2.34 9.31
8/9/2021 2:15:00 PM 18.3 64.94 0.054 7.28 2.21 9.27
8/9/2021 2:30:00 PM 18.46 65.228 0.054 7.27 2.55 9.21
8/9/2021 2:45:00 PM 18.57 65.426 0.054 7.27 2.87 9.19
8/9/2021 3:00:00 PM 18.72 65.696 0.054 7.25 2.1 9.11
8/9/2021 3:15:00 PM 18.87 65.966 0.054 7.24 2.32 9.04
8/9/2021 3:30:00 PM 19.01 66.218 0.054 7.24 2.51 9.03
8/9/2021 3:45:00 PM 19.23 66.614 0.054 7.28 2.37 9.03
8/9/2021 4:00:00 PM 19.32 66.776 0.054 7.25 2.45 8.96
8/9/2021 4:15:00 PM 19.32 66.776 0.054 7.21 2.43 8.9
8/9/2021 4:30:00 PM 19.32 66.776 0.054 7.2 2.24 8.9
8/9/2021 4:45:00 PM 19.34 66.812 0.054 7.21 2.42 8.88
8/9/2021 5:00:00 PM 19.37 66.866 0.054 7.21 2.45 8.88
8/9/2021 5:15:00 PM 19.38 66.884 0.054 7.2 2.3 8.85
8/9/2021 5:30:00 PM 19.39 66.902 0.054 7.17 2.21 8.8
8/9/2021 5:45:00 PM 19.35 66.83 0.054 7.15 2.21 8.77
8/9/2021 6:00:00 PM 19.29 66.722 0.055 7.12 2.2 8.73
8/9/2021 6:15:00 PM 19.19 66.542 0.055 7.08 2.5 8.71
8/9/2021 6:30:00 PM 19.08 66.344 0.055 7.05 2.24 8.67
8/9/2021 6:45:00 PM 18.95 66.11 0.055 7.02 2.46 8.64
8/9/2021 7:00:00 PM 18.81 65.858 0.055 6.98 2.38 8.61
8/9/2021 7:15:00 PM 18.65 65.57 0.055 6.95 2.44 8.58
8/9/2021 7:30:00 PM 18.5 65.3 0.056 6.92 2.5 8.55
8/9/2021 7:45:00 PM 18.36 65.048 0.056 6.89 2.4 8.53
8/9/2021 8:00:00 PM 18.22 64.796 0.056 6.87 2.55 8.5
8/9/2021 8:15:00 PM 18.09 64.562 0.056 6.84 2.39 8.47
8/9/2021 8:30:00 PM 17.96 64.328 0.056 6.81 2.26 8.45
8/9/2021 8:45:00 PM 17.84 64.112 0.057 6.8 2.58 8.44
8/9/2021 9:00:00 PM 17.73 63.914 0.057 6.79 3.99 8.42
8/9/2021 9:15:00 PM 17.61 63.698 0.057 6.77 2.64 8.44
8/9/2021 9:30:00 PM 17.5 63.5 0.057 6.76 2.25 8.44
8/9/2021 9:45:00 PM 17.39 63.302 0.057 6.76 2.47 8.46
8/9/2021 10:00:00 PM 17.29 63.122 0.057 6.75 2.31 8.47
8/9/2021 10:15:00 PM 17.19 62.942 0.057 6.75 2.08 8.49
8/9/2021 10:30:00 PM 17.09 62.762 0.058 6.74 2.1 8.51
8/9/2021 10:45:00 PM 17 62.6 0.058 6.74 2.16 8.52
8/9/2021 11:00:00 PM 16.91 62.438 0.058 6.73 2.44 8.55
8/9/2021 11:15:00 PM 16.83 62.294 0.058 6.73 2.18 8.56
8/9/2021 11:30:00 PM 16.74 62.132 0.058 6.72 2.34 8.57
8/9/2021 11:45:00 PM 16.66 61.988 0.058 6.72 2.46 8.59
8/10/2021 12:00:00 AM 16.58 61.844 0.058 6.72 2.22 8.6
8/10/2021 12:15:00 AM 16.5 61.7 0.058 6.72 2.13 8.62
8/10/2021 12:30:00 AM 16.43 61.574 0.058 6.72 2.36 8.64
8/10/2021 12:45:00 AM 16.36 61.448 0.058 6.72 2.21 8.65
8/10/2021 1:00:00 AM 16.29 61.322 0.058 6.71 3.28 8.67
8/10/2021 1:15:00 AM 16.22 61.196 0.058 6.71 2.05 8.68
8/10/2021 1:30:00 AM 16.16 61.088 0.058 6.71 2.23 8.7
8/10/2021 1:45:00 AM 16.1 60.98 0.058 6.71 2.22 8.71
8/10/2021 2:00:00 AM 16.05 60.89 0.058 6.71 2.4 8.72
8/10/2021 2:15:00 AM 15.99 60.782 0.058 6.7 3.1 8.73
8/10/2021 2:30:00 AM 15.94 60.692 0.058 6.71 3.64 8.74
8/10/2021 2:45:00 AM 15.88 60.584 0.058 6.7 2.65 8.75
8/10/2021 3:00:00 AM 15.83 60.494 0.058 6.7 2.57 8.76
8/10/2021 3:15:00 AM 15.77 60.386 0.058 6.7 2.38 8.77
8/10/2021 3:30:00 AM 15.72 60.296 0.058 6.7 2.12 8.78
8/10/2021 3:45:00 AM 15.68 60.224 0.058 6.7 2.23 8.8
8/10/2021 4:00:00 AM 15.64 60.152 0.058 6.7 2.14 8.8
8/10/2021 4:15:00 AM 15.59 60.062 0.058 6.71 2.21 8.82
8/10/2021 4:30:00 AM 15.55 59.99 0.058 6.7 2.27 8.83
8/10/2021 4:45:00 AM 15.51 59.918 0.058 6.7 2.25 8.84
8/10/2021 5:00:00 AM 15.48 59.864 0.058 6.71 2.27 8.84
8/10/2021 5:15:00 AM 15.45 59.81 0.058 6.7 2.25 8.85
8/10/2021 5:30:00 AM 15.42 59.756 0.058 6.7 2.83 8.86
8/10/2021 5:45:00 AM 15.38 59.684 0.058 6.7 3.02 8.86
8/10/2021 6:00:00 AM 15.35 59.63 0.058 6.7 3.15 8.87
8/10/2021 6:15:00 AM 15.32 59.576 0.058 6.7 2.42 8.87
8/10/2021 6:30:00 AM 15.29 59.522 0.058 6.7 2.25 8.89
8/10/2021 6:45:00 AM 15.26 59.468 0.058 6.7 2.7 8.91
8/10/2021 7:00:00 AM 15.23 59.414 0.058 6.71 2.34 8.95
8/10/2021 7:15:00 AM 15.19 59.342 0.058 6.71 2.25 8.99
8/10/2021 7:30:00 AM 15.19 59.342 0.057 6.73 2.35 9.07
8/10/2021 7:45:00 AM 15.2 59.36 0.057 6.76 2.37 9.17
8/10/2021 8:00:00 AM 15.23 59.414 0.057 6.78 2.37 9.23
8/10/2021 8:15:00 AM 15.26 59.468 0.057 6.81 2.43 9.26
8/10/2021 8:30:00 AM 15.31 59.558 0.057 6.83 2.36 9.31
8/10/2021 8:45:00 AM 15.36 59.648 0.057 6.84 2.27 9.34
8/10/2021 9:00:00 AM 15.41 59.738 0.057 6.86 2.15 9.36
8/10/2021 9:15:00 AM 15.47 59.846 0.056 6.91 2.24 9.4
8/10/2021 9:30:00 AM 15.53 59.954 0.056 6.94 2.32 9.42
8/10/2021 9:45:00 AM 15.66 60.188 0.056 7 2.54 9.47
8/10/2021 10:00:00 AM 15.85 60.53 0.056 7.05 2.36 9.53
8/10/2021 10:15:00 AM 16.05 60.89 0.056 7.1 2.21 9.56
8/10/2021 10:30:00 AM 16.35 61.43 0.055 7.15 2.18 9.56
8/10/2021 10:45:00 AM 16.6 61.88 0.055 7.17 2.86 9.54
8/10/2021 11:00:00 AM 16.7 62.06 0.055 7.15 2.1 9.46
8/10/2021 11:15:00 AM 16.77 62.186 0.055 7.15 2.24 9.41
8/10/2021 11:30:00 AM 16.92 62.456 0.055 7.18 2.19 9.43
8/10/2021 11:45:00 AM 17.05 62.69 0.055 7.2 2.33 9.43
8/10/2021 12:00:00 PM 17.15 62.87 0.055 7.2 2.17 9.42
8/10/2021 12:15:00 PM 17.31 63.158 0.055 7.24 2.13 9.41
8/10/2021 12:30:00 PM 17.5 63.5 0.054 7.26 2.14 9.38
8/10/2021 12:45:00 PM 17.73 63.914 0.054 7.29 2.19 9.36
8/10/2021 1:00:00 PM 17.98 64.364 0.054 7.3 2.39 9.32
8/10/2021 1:15:00 PM 18.27 64.886 0.054 7.32 2.44 9.29
8/10/2021 1:30:00 PM 18.3 64.94 0.054 7.24 2.56 9.16
8/10/2021 1:45:00 PM 18.26 64.868 0.054 7.2 2.23 9.1
8/10/2021 2:00:00 PM 18.18 64.724 0.054 7.16 2.21 9.04
8/10/2021 2:15:00 PM 18.09 64.562 0.054 7.12 2.12 8.97
8/10/2021 2:30:00 PM 18 64.4 0.055 7.08 2.38 8.92
8/10/2021 2:45:00 PM 18.09 64.562 0.055 7.14 2.26 9.03
8/10/2021 3:00:00 PM 18.14 64.652 0.054 7.17 2.53 9.08
8/10/2021 3:15:00 PM 18.18 64.724 0.054 7.17 2.23 9.04
8/10/2021 3:30:00 PM 18.22 64.796 0.055 7.19 2.42 9.06
8/10/2021 3:45:00 PM 18.29 64.922 0.054 7.22 2.24 9.08
8/10/2021 4:00:00 PM 18.33 64.994 0.054 7.21 2.35 9.06
8/10/2021 4:15:00 PM 18.35 65.03 0.054 7.2 2.13 9.01
8/10/2021 4:30:00 PM 18.33 64.994 0.055 7.16 2.2 8.97
8/10/2021 4:45:00 PM 18.35 65.03 0.055 7.17 2.62 8.99
8/10/2021 5:00:00 PM 18.31 64.958 0.055 7.14 2.23 8.95
8/10/2021 5:15:00 PM 18.3 64.94 0.055 7.13 2.14 8.89
8/10/2021 5:30:00 PM 18.33 64.994 0.055 7.14 2.17 8.92
8/10/2021 5:45:00 PM 18.38 65.084 0.055 7.16 2.39 8.93
8/10/2021 6:00:00 PM 18.35 65.03 0.055 7.12 2.16 8.87
8/10/2021 6:15:00 PM 18.32 64.976 0.055 7.09 2.23 8.79
8/10/2021 6:30:00 PM 18.29 64.922 0.055 7.06 2.27 8.75
8/10/2021 6:45:00 PM 18.25 64.85 0.055 7.03 2.27 8.7
8/10/2021 7:00:00 PM 18.19 64.742 0.055 7.01 2.23 8.68
8/10/2021 7:15:00 PM 18.15 64.67 0.056 7 2.18 8.67
8/10/2021 7:30:00 PM 18.1 64.58 0.056 6.97 2.24 8.64
8/10/2021 7:45:00 PM 18.04 64.472 0.056 6.95 2.54 8.57
8/10/2021 8:00:00 PM 17.99 64.382 0.056 6.94 2.13 8.53
8/10/2021 8:15:00 PM 17.91 64.238 0.056 6.91 2.32 8.49
8/10/2021 8:30:00 PM 17.84 64.112 0.056 6.89 2.17 8.46
8/10/2021 8:45:00 PM 17.76 63.968 0.057 6.86 2.1 8.43
8/10/2021 9:00:00 PM 17.7 63.86 0.057 6.84 2.33 8.41
8/10/2021 9:15:00 PM 17.64 63.752 0.057 6.82 2.24 8.41
8/10/2021 9:30:00 PM 17.58 63.644 0.057 6.82 3.23 8.41
8/10/2021 9:45:00 PM 17.53 63.554 0.057 6.82 2.27 8.41
8/10/2021 10:00:00 PM 17.48 63.464 0.057 6.8 2.54 8.41
8/10/2021 10:15:00 PM 17.43 63.374 0.057 6.8 2.25 8.43
8/10/2021 10:30:00 PM 17.38 63.284 0.057 6.79 5.73 8.43
8/10/2021 10:45:00 PM 17.33 63.194 0.058 6.78 2.78 8.43
8/10/2021 11:00:00 PM 17.29 63.122 0.058 6.78 2.2 8.44
8/10/2021 11:15:00 PM 17.25 63.05 0.058 6.78 2.25 8.45
8/10/2021 11:30:00 PM 17.2 62.96 0.058 6.8 2.25 8.47
8/10/2021 11:45:00 PM 17.15 62.87 0.058 6.82 2.39 8.47
8/11/2021 12:00:00 AM 17.12 62.816 0.058 6.83 2.26 8.49
8/11/2021 12:15:00 AM 17.08 62.744 0.058 6.84 2.24 8.49
8/11/2021 12:30:00 AM 17.03 62.654 0.058 6.83 2.11 8.5
8/11/2021 12:45:00 AM 17 62.6 0.058 6.82 2.08 8.5
8/11/2021 1:00:00 AM 16.95 62.51 0.058 6.82 2.26 8.51
8/11/2021 1:15:00 AM 16.92 62.456 0.058 6.81 2.35 8.51
8/11/2021 1:30:00 AM 16.88 62.384 0.058 6.8 2.22 8.52
8/11/2021 1:45:00 AM 16.85 62.33 0.058 6.8 2.25 8.52
8/11/2021 2:00:00 AM 16.81 62.258 0.058 6.79 2.42 8.52
8/11/2021 2:15:00 AM 16.78 62.204 0.058 6.79 2.89 8.55
8/11/2021 2:30:00 AM 16.74 62.132 0.058 6.78 2.31 8.55
8/11/2021 2:45:00 AM 16.71 62.078 0.058 6.78 2.52 8.55
8/11/2021 3:00:00 AM 16.69 62.042 0.058 6.78 2.41 8.54
8/11/2021 3:15:00 AM 16.67 62.006 0.058 6.77 2.34 8.56
8/11/2021 3:30:00 AM 16.66 61.988 0.058 6.79 2.31 8.57
8/11/2021 3:45:00 AM 16.65 61.97 0.058 6.8 2.35 8.58
8/11/2021 4:00:00 AM 16.63 61.934 0.058 6.8 2.36 8.58
8/11/2021 4:15:00 AM 16.61 61.898 0.058 6.79 2.2 8.59
8/11/2021 4:30:00 AM 16.59 61.862 0.058 6.79 2.24 8.59
8/11/2021 4:45:00 AM 16.56 61.808 0.058 6.77 2.31 8.58
8/11/2021 5:00:00 AM 16.53 61.754 0.058 6.77 2.62 8.59
8/11/2021 5:15:00 AM 16.49 61.682 0.058 6.75 2.24 8.58
8/11/2021 5:30:00 AM 16.47 61.646 0.058 6.74 2.21 8.61
8/11/2021 5:45:00 AM 16.44 61.592 0.058 6.74 2.52 8.6
8/11/2021 6:00:00 AM 16.42 61.556 0.058 6.73 3.22 8.6
8/11/2021 6:15:00 AM 16.4 61.52 0.058 6.74 2.79 8.6
8/11/2021 6:30:00 AM 16.38 61.484 0.058 6.74 2.48 8.62
8/11/2021 6:45:00 AM 16.37 61.466 0.058 6.74 2.49 8.65
8/11/2021 7:00:00 AM 16.37 61.466 0.058 6.78 2.35 8.68
8/11/2021 7:15:00 AM 16.39 61.502 0.058 6.8 2.52 8.72
8/11/2021 7:30:00 AM 16.4 61.52 0.058 6.83 2.37 8.76
8/11/2021 7:45:00 AM 16.41 61.538 0.058 6.85 2.25 8.79
8/11/2021 8:00:00 AM 16.43 61.574 0.058 6.86 2.33 8.83
8/11/2021 8:15:00 AM 16.44 61.592 0.058 6.87 2.31 8.86
8/11/2021 8:30:00 AM 16.47 61.646 0.057 6.9 2.14 8.93
8/11/2021 8:45:00 AM 16.53 61.754 0.057 6.94 2.1 9.02
8/11/2021 9:00:00 AM 16.58 61.844 0.057 6.95 2.29 9.04
8/11/2021 9:15:00 AM 16.65 61.97 0.057 6.99 2.18 9.11
8/11/2021 9:30:00 AM 16.75 62.15 0.057 7.02 2.13 9.16
8/11/2021 9:45:00 AM 16.87 62.366 0.056 7.06 2.37 9.21
8/11/2021 10:00:00 AM 17 62.6 0.056 7.09 2.49 9.24
8/11/2021 10:15:00 AM 17.11 62.798 0.056 7.11 2.38 9.23
8/11/2021 10:30:00 AM 17.22 62.996 0.056 7.12 2.33 9.21
8/11/2021 10:45:00 AM 17.26 63.068 0.056 7.11 2.24 9.19
8/11/2021 11:00:00 AM 17.37 63.266 0.056 7.14 2.22 9.18
8/11/2021 11:15:00 AM 17.44 63.392 0.056 7.14 2.08 9.19
8/11/2021 11:30:00 AM 17.52 63.536 0.056 7.17 2.08 9.21
8/11/2021 11:45:00 AM 17.59 63.662 0.055 7.17 2.2 9.2
8/11/2021 12:00:00 PM 17.64 63.752 0.055 7.16 2.22 9.14
8/11/2021 12:15:00 PM 17.67 63.806 0.056 7.14 2.5 9.08
8/11/2021 12:30:00 PM 17.75 63.95 0.055 7.17 2.22 9.12
8/11/2021 12:45:00 PM 17.8 64.04 0.055 7.18 2.51 9.13
8/11/2021 1:00:00 PM 17.86 64.148 0.055 7.19 2.43 9.12
8/11/2021 1:15:00 PM 17.91 64.238 0.055 7.19 2.49 9.11
8/11/2021 1:30:00 PM 18.1 64.58 0.055 7.25 2.52 9.15
8/11/2021 1:45:00 PM 18.29 64.922 0.055 7.28 2.08 9.16
8/11/2021 2:00:00 PM 18.57 65.426 0.055 7.32 2.23 9.15
8/11/2021 2:15:00 PM 18.86 65.948 0.055 7.34 2.79 9.13
8/11/2021 2:30:00 PM 19.17 66.506 0.055 7.36 1.97 9.06
8/11/2021 2:45:00 PM 19.44 66.992 0.055 7.36 2.11 9.02
8/11/2021 3:00:00 PM 19.71 67.478 0.055 7.37 2.11 8.96
8/11/2021 3:15:00 PM 19.94 67.892 0.055 7.36 2.35 8.93
8/11/2021 3:30:00 PM 20.1 68.18 0.055 7.36 2.34 8.89
8/11/2021 3:45:00 PM 20.22 68.396 0.055 7.35 2.28 8.84
8/11/2021 4:00:00 PM 20.35 68.63 0.055 7.36 2.19 8.82
8/11/2021 4:15:00 PM 20.42 68.756 0.055 7.34 2.23 8.77
8/11/2021 4:30:00 PM 20.47 68.846 0.055 7.33 2.25 8.75
8/11/2021 4:45:00 PM 20.51 68.918 0.055 7.33 2.25 8.71
8/11/2021 5:00:00 PM 20.46 68.828 0.055 7.28 2.26 8.66
8/11/2021 5:15:00 PM 20.37 68.666 0.055 7.23 2.13 8.57
8/11/2021 5:30:00 PM 20.24 68.432 0.055 7.19 3.12 8.53
8/11/2021 5:45:00 PM 20.09 68.162 0.055 7.17 2.31 8.53
8/11/2021 6:00:00 PM 19.99 67.982 0.055 7.18 2.36 8.55
8/11/2021 6:15:00 PM 19.86 67.748 0.055 7.15 2.26 8.53
8/11/2021 6:30:00 PM 19.76 67.568 0.055 7.12 2.13 8.5
8/11/2021 6:45:00 PM 19.66 67.388 0.055 7.1 2.35 8.49
8/11/2021 7:00:00 PM 19.57 67.226 0.056 7.08 2.31 8.45
8/11/2021 7:15:00 PM 19.44 66.992 0.056 7.03 2.59 8.38
8/11/2021 7:30:00 PM 19.32 66.776 0.056 6.99 2.17 8.31
8/11/2021 7:45:00 PM 19.2 66.56 0.056 6.96 2.39 8.27
8/11/2021 8:00:00 PM 19.1 66.38 0.056 6.93 2.44 8.24
8/11/2021 8:15:00 PM 19 66.2 0.057 6.92 2.67 8.21
8/11/2021 8:30:00 PM 18.89 66.002 0.057 6.9 2.58 8.2
8/11/2021 8:45:00 PM 18.77 65.786 0.057 6.89 2.32 8.19
8/11/2021 9:00:00 PM 18.66 65.588 0.057 6.88 2.38 8.18
8/11/2021 9:15:00 PM 18.55 65.39 0.057 6.86 2.27 8.2
8/11/2021 9:30:00 PM 18.46 65.228 0.057 6.86 2.44 8.21
8/11/2021 9:45:00 PM 18.36 65.048 0.058 6.85 2.42 8.23
8/11/2021 10:00:00 PM 18.27 64.886 0.057 6.84 2.45 8.24
8/11/2021 10:15:00 PM 18.17 64.706 0.057 6.85 2.45 8.25
8/11/2021 10:30:00 PM 18.07 64.526 0.057 6.84 2.42 8.27
8/11/2021 10:45:00 PM 17.97 64.346 0.057 6.84 2.23 8.29
8/11/2021 11:00:00 PM 17.87 64.166 0.057 6.84 2.48 8.3
8/11/2021 11:15:00 PM 17.77 63.986 0.057 6.84 2.24 8.32
8/11/2021 11:30:00 PM 17.68 63.824 0.057 6.83 2.78 8.34
8/11/2021 11:45:00 PM 17.59 63.662 0.057 6.83 2.93 8.33
8/12/2021 12:00:00 AM 17.51 63.518 0.057 6.83 2.25 8.37
8/12/2021 12:15:00 AM 17.44 63.392 0.057 6.82 2.56 8.39
8/12/2021 12:30:00 AM 17.37 63.266 0.057 6.82 2.25 8.4
8/12/2021 12:45:00 AM 17.32 63.176 0.057 6.82 2.33 8.41
8/12/2021 1:00:00 AM 17.27 63.086 0.057 6.82 2.62 8.42
8/12/2021 1:15:00 AM 17.21 62.978 0.057 6.82 2.77 8.43
8/12/2021 1:30:00 AM 17.15 62.87 0.057 6.81 2.42 8.45
8/12/2021 1:45:00 AM 17.1 62.78 0.057 6.81 2.5 8.46
8/12/2021 2:00:00 AM 17.04 62.672 0.057 6.81 2.36 8.47
8/12/2021 2:15:00 AM 16.98 62.564 0.057 6.81 2.46 8.49
8/12/2021 2:30:00 AM 16.92 62.456 0.057 6.8 2.46 8.5
8/12/2021 2:45:00 AM 16.86 62.348 0.057 6.81 2.36 8.5
8/12/2021 3:00:00 AM 16.8 62.24 0.057 6.8 2.55 8.52
8/12/2021 3:15:00 AM 16.74 62.132 0.057 6.8 4.27 8.51
8/12/2021 3:30:00 AM 16.69 62.042 0.057 6.81 2.43 8.54
8/12/2021 3:45:00 AM 16.63 61.934 0.057 6.8 2.91 8.54
8/12/2021 4:00:00 AM 16.59 61.862 0.057 6.8 2.79 8.56
8/12/2021 4:15:00 AM 16.54 61.772 0.057 6.8 3.04 8.56
8/12/2021 4:30:00 AM 16.51 61.718 0.057 6.8 3.31 8.57
8/12/2021 4:45:00 AM 16.47 61.646 0.057 6.8 2.56 8.58
8/12/2021 5:00:00 AM 16.43 61.574 0.057 6.8 2.6 8.59
8/12/2021 5:15:00 AM 16.39 61.502 0.057 6.8 2.7 8.6
8/12/2021 5:30:00 AM 16.35 61.43 0.057 6.8 2.7 8.61
8/12/2021 5:45:00 AM 16.3 61.34 0.057 6.8 2.89 8.62
8/12/2021 6:00:00 AM 16.26 61.268 0.057 6.8 3.07 8.62
8/12/2021 6:15:00 AM 16.23 61.214 0.057 6.79 3.39 8.64
8/12/2021 6:30:00 AM 16.21 61.178 0.057 6.8 2.99 8.64
8/12/2021 6:45:00 AM 16.2 61.16 0.057 6.8 3.86 8.68
8/12/2021 7:00:00 AM 16.19 61.142 0.057 6.81 3.28 8.71
8/12/2021 7:15:00 AM 16.19 61.142 0.057 6.81 2.82 8.73
8/12/2021 7:30:00 AM 16.19 61.142 0.057 6.83 2.7 8.78
8/12/2021 7:45:00 AM 16.2 61.16 0.057 6.84 3.1 8.82
8/12/2021 8:00:00 AM 16.23 61.214 0.056 6.86 2.52 8.88
8/12/2021 8:15:00 AM 16.27 61.286 0.056 6.9 2.53 8.97
8/12/2021 8:30:00 AM 16.36 61.448 0.056 6.95 2.76 9.03
8/12/2021 8:45:00 AM 16.46 61.628 0.056 7 2.62 9.08
8/12/2021 9:00:00 AM 16.57 61.826 0.056 7.03 2.66 9.12
8/12/2021 9:15:00 AM 16.69 62.042 0.055 7.07 2.63 9.18
8/12/2021 9:30:00 AM 16.83 62.294 0.055 7.1 2.75 9.2
8/12/2021 9:45:00 AM 16.95 62.51 0.055 7.11 3.29 9.19
8/12/2021 10:00:00 AM 17.04 62.672 0.055 7.11 2.27 9.15
8/12/2021 10:15:00 AM 17.13 62.834 0.055 7.13 2.39 9.15
8/12/2021 10:30:00 AM 17.29 63.122 0.055 7.18 2.54 9.2
8/12/2021 10:45:00 AM 17.45 63.41 0.055 7.2 2.51 9.23
8/12/2021 11:00:00 AM 17.51 63.518 0.055 7.14 2.97 9.05
8/12/2021 11:15:00 AM 17.52 63.536 0.054 7.09 2.66 8.96
8/12/2021 11:30:00 AM 17.61 63.698 0.054 7.14 2.62 9.06
8/12/2021 11:45:00 AM 17.75 63.95 0.054 7.18 2.73 9.13
8/12/2021 12:00:00 PM 17.87 64.166 0.054 7.2 2.87 9.13
8/12/2021 12:15:00 PM 18.1 64.58 0.054 7.23 2.74 9.13
8/12/2021 12:30:00 PM 18.18 64.724 0.054 7.22 2.62 9.07
8/12/2021 12:45:00 PM 18.16 64.688 0.054 7.14 2.63 8.89
8/12/2021 1:00:00 PM 18.1 64.58 0.055 7.08 2.89 8.74
8/12/2021 1:15:00 PM 18.01 64.418 0.055 7.03 2.69 8.66
8/12/2021 1:30:00 PM 17.9 64.22 0.055 6.99 2.77 8.61
8/12/2021 1:45:00 PM 17.8 64.04 0.055 6.96 2.71 8.6
8/12/2021 2:00:00 PM 17.73 63.914 0.055 6.95 2.61 8.61
8/12/2021 2:15:00 PM 17.69 63.842 0.055 6.96 2.71 8.65
8/12/2021 2:30:00 PM 17.77 63.986 0.055 7.03 2.53 8.8
8/12/2021 2:45:00 PM 18.06 64.508 0.054 7.14 2.62 8.98
8/12/2021 3:00:00 PM 18.44 65.192 0.054 7.22 2.86 9.03
8/12/2021 3:15:00 PM 18.76 65.768 0.054 7.25 2.95 9.01
8/12/2021 3:30:00 PM 19.09 66.362 0.054 7.26 2.65 8.96
8/12/2021 3:45:00 PM 19.37 66.866 0.054 7.27 2.91 8.9
8/12/2021 4:00:00 PM 19.57 67.226 0.054 7.26 2.81 8.84
8/12/2021 4:15:00 PM 19.68 67.424 0.054 7.25 2.84 8.81
8/12/2021 4:30:00 PM 19.69 67.442 0.054 7.21 2.58 8.74
8/12/2021 4:45:00 PM 19.55 67.19 0.054 7.12 2.83 8.58
8/12/2021 5:00:00 PM 19.41 66.938 0.054 7.08 2.6 8.56
8/12/2021 5:15:00 PM 19.3 66.74 0.054 7.09 2.66 8.64
8/12/2021 5:30:00 PM 19.21 66.578 0.054 7.11 2.71 8.67
8/12/2021 5:45:00 PM 19.12 66.416 0.054 7.09 2.64 8.62
8/12/2021 6:00:00 PM 19.08 66.344 0.054 7.08 2.68 8.59
8/12/2021 6:15:00 PM 19.05 66.29 0.054 7.09 2.55 8.61
8/12/2021 6:30:00 PM 19 66.2 0.055 7.05 2.56 8.53
8/12/2021 6:45:00 PM 18.94 66.092 0.055 7.03 2.66 8.48
8/12/2021 7:00:00 PM 18.86 65.948 0.055 6.99 2.64 8.43
8/12/2021 7:15:00 PM 18.77 65.786 0.056 6.95 2.83 8.36
8/12/2021 7:30:00 PM 18.67 65.606 0.056 6.92 2.54 8.31
8/12/2021 7:45:00 PM 18.58 65.444 0.056 6.89 3.34 8.29
8/12/2021 8:00:00 PM 18.48 65.264 0.056 6.87 2.68 8.28
8/12/2021 8:15:00 PM 18.39 65.102 0.056 6.85 2.78 8.26
8/12/2021 8:30:00 PM 18.31 64.958 0.056 6.83 2.98 8.25
8/12/2021 8:45:00 PM 18.24 64.832 0.056 6.82 3.05 8.26
8/12/2021 9:00:00 PM 18.17 64.706 0.056 6.81 2.58 8.26
8/12/2021 9:15:00 PM 18.11 64.598 0.057 6.8 2.65 8.26
8/12/2021 9:30:00 PM 18.05 64.49 0.057 6.79 2.65 8.27
8/12/2021 9:45:00 PM 17.99 64.382 0.057 6.78 2.75 8.28
8/12/2021 10:00:00 PM 17.92 64.256 0.057 6.77 3.34 8.29
8/12/2021 10:15:00 PM 17.86 64.148 0.057 6.76 2.45 8.3
8/12/2021 10:30:00 PM 17.8 64.04 0.057 6.75 2.73 8.31
8/12/2021 10:45:00 PM 17.74 63.932 0.057 6.75 2.48 8.32
8/12/2021 11:00:00 PM 17.68 63.824 0.057 6.75 2.64 8.33
8/12/2021 11:15:00 PM 17.62 63.716 0.057 6.75 2.67 8.35
8/12/2021 11:30:00 PM 17.56 63.608 0.057 6.75 2.69 8.36
8/12/2021 11:45:00 PM 17.5 63.5 0.057 6.75 2.46 8.37
8/13/2021 12:00:00 AM 17.45 63.41 0.057 6.75 2.43 8.38
8/13/2021 12:15:00 AM 17.39 63.302 0.057 6.76 2.76 8.4
8/13/2021 12:30:00 AM 17.33 63.194 0.057 6.77 2.46 8.41
8/13/2021 12:45:00 AM 17.27 63.086 0.057 6.78 2.43 8.43
8/13/2021 1:00:00 AM 17.22 62.996 0.057 6.8 2.6 8.44
8/13/2021 1:15:00 AM 17.16 62.888 0.057 6.8 2.75 8.46
8/13/2021 1:30:00 AM 17.1 62.78 0.057 6.81 2.83 8.47
8/13/2021 1:45:00 AM 17.05 62.69 0.057 6.81 2.66 8.48
8/13/2021 2:00:00 AM 17 62.6 0.057 6.81 2.7 8.49
8/13/2021 2:15:00 AM 16.96 62.528 0.057 6.81 2.46 8.5
8/13/2021 2:30:00 AM 16.92 62.456 0.057 6.81 2.96 8.51
8/13/2021 2:45:00 AM 16.89 62.402 0.057 6.81 2.76 8.51
8/13/2021 3:00:00 AM 16.85 62.33 0.057 6.81 2.53 8.52
8/13/2021 3:15:00 AM 16.81 62.258 0.057 6.82 2.65 8.53
8/13/2021 3:30:00 AM 16.78 62.204 0.057 6.82 3.85 8.53
8/13/2021 3:45:00 AM 16.75 62.15 0.057 6.82 3.21 8.54
8/13/2021 4:00:00 AM 16.72 62.096 0.057 6.83 3 8.55
8/13/2021 4:15:00 AM 16.69 62.042 0.057 6.84 3.07 8.56
8/13/2021 4:30:00 AM 16.66 61.988 0.057 6.85 2.51 8.56
8/13/2021 4:45:00 AM 16.63 61.934 0.057 6.86 2.81 8.57
8/13/2021 5:00:00 AM 16.6 61.88 0.057 6.87 2.6 8.58
8/13/2021 5:15:00 AM 16.58 61.844 0.057 6.87 2.75 8.57
8/13/2021 5:30:00 AM 16.54 61.772 0.057 6.87 2.77 8.59
8/13/2021 5:45:00 AM 16.51 61.718 0.057 6.88 3.2 8.6
8/13/2021 6:00:00 AM 16.48 61.664 0.057 6.88 3.15 8.61
8/13/2021 6:15:00 AM 16.45 61.61 0.057 6.88 3.01 8.61
8/13/2021 6:30:00 AM 16.41 61.538 0.057 6.88 5.45 8.62
8/13/2021 6:45:00 AM 16.38 61.484 0.057 6.87 4.88 8.63
8/13/2021 7:00:00 AM 16.35 61.43 0.057 6.88 2.99 8.67
8/13/2021 7:15:00 AM 16.33 61.394 0.057 6.9 2.94 8.72
8/13/2021 7:30:00 AM 16.31 61.358 0.057 6.91 3.02 8.75
8/13/2021 7:45:00 AM 16.31 61.358 0.057 6.93 2.84 8.83
8/13/2021 8:00:00 AM 16.32 61.376 0.057 6.95 2.79 8.89
8/13/2021 8:15:00 AM 16.32 61.376 0.057 6.97 2.64 8.95
8/13/2021 8:30:00 AM 16.38 61.484 0.057 7.01 2.62 9.03
8/13/2021 8:45:00 AM 16.44 61.592 0.056 7.04 2.64 9.12
8/13/2021 9:00:00 AM 16.48 61.664 0.056 7.05 2.88 9.12
8/13/2021 9:15:00 AM 16.51 61.718 0.056 7.05 2.57 9.11
8/13/2021 9:30:00 AM 16.55 61.79 0.056 7.06 2.43 9.12
8/13/2021 9:45:00 AM 16.62 61.916 0.056 7.08 2.56 9.18
8/13/2021 10:00:00 AM 16.85 62.33 0.056 7.15 2.74 9.24
8/13/2021 10:15:00 AM 17 62.6 0.056 7.19 2.56 9.28
8/13/2021 10:30:00 AM 17.22 62.996 0.056 7.22 2.59 9.27
8/13/2021 10:45:00 AM 17.47 63.446 0.055 7.23 2.87 9.24
8/13/2021 11:00:00 AM 17.73 63.914 0.055 7.26 2.53 9.21
8/13/2021 11:15:00 AM 17.95 64.31 0.055 7.26 2.6 9.18
8/13/2021 11:30:00 AM 18.12 64.616 0.055 7.28 2.72 9.16
8/13/2021 11:45:00 AM 18.3 64.94 0.055 7.29 2.6 9.15
8/13/2021 12:00:00 PM 18.51 65.318 0.055 7.31 2.58 9.12
8/13/2021 12:15:00 PM 18.73 65.714 0.055 7.33 2.58 9.09
8/13/2021 12:30:00 PM 19.02 66.236 0.055 7.35 2.75 9.06
8/13/2021 12:45:00 PM 19.12 66.416 0.055 7.31 2.49 8.99
8/13/2021 1:00:00 PM 19.23 66.614 0.055 7.32 3.13 8.97
8/13/2021 1:15:00 PM 19.21 66.578 0.055 7.27 2.51 8.91
8/13/2021 1:30:00 PM 19.15 66.47 0.055 7.24 2.68 8.81
8/13/2021 1:45:00 PM 19.06 66.308 0.055 7.22 2.35 8.81
8/13/2021 2:00:00 PM 19.01 66.218 0.055 7.24 2.43 8.85
8/13/2021 2:15:00 PM 19.08 66.344 0.055 7.28 2.4 8.9
8/13/2021 2:30:00 PM 19.21 66.578 0.055 7.32 2.36 8.94
8/13/2021 2:45:00 PM 19.39 66.902 0.055 7.36 2.41 8.92
8/13/2021 3:00:00 PM 19.5 67.1 0.055 7.34 2.28 8.87
8/13/2021 3:15:00 PM 19.46 67.028 0.055 7.24 2.56 8.68
8/13/2021 3:30:00 PM 19.4 66.92 0.055 7.21 2.7 8.62
8/13/2021 3:45:00 PM 19.27 66.686 0.055 7.18 4.44 8.56
8/13/2021 4:00:00 PM 19.17 66.506 0.055 7.14 2.65 8.49
8/13/2021 4:15:00 PM 19.07 66.326 0.055 7.09 2.78 8.43
8/13/2021 4:30:00 PM 19.05 66.29 0.055 7.13 2.51 8.55
8/13/2021 4:45:00 PM 19.15 66.47 0.055 7.2 2.99 8.71
8/13/2021 5:00:00 PM 19.3 66.74 0.055 7.25 2.75 8.74
8/13/2021 5:15:00 PM 19.41 66.938 0.055 7.25 2.67 8.7
8/13/2021 5:30:00 PM 19.45 67.01 0.055 7.22 2.52 8.66
8/13/2021 5:45:00 PM 19.55 67.19 0.055 7.23 2.89 8.64
8/13/2021 6:00:00 PM 19.54 67.172 0.055 7.18 2.83 8.57
8/13/2021 6:15:00 PM 19.5 67.1 0.056 7.15 2.83 8.52
8/13/2021 6:30:00 PM 19.41 66.938 0.056 7.12 2.86 8.48
8/13/2021 6:45:00 PM 19.3 66.74 0.056 7.09 3.26 8.47
8/13/2021 7:00:00 PM 19.16 66.488 0.056 7.05 2.78 8.43
8/13/2021 7:15:00 PM 19 66.2 0.056 7.02 2.68 8.41
8/13/2021 7:30:00 PM 18.85 65.93 0.056 7 2.98 8.39
8/13/2021 7:45:00 PM 18.73 65.714 0.056 6.96 2.79 8.34
8/13/2021 8:00:00 PM 18.62 65.516 0.056 6.93 2.93 8.32
8/13/2021 8:15:00 PM 18.52 65.336 0.057 6.91 3.92 8.29
8/13/2021 8:30:00 PM 18.43 65.174 0.057 6.9 3.21 8.28
8/13/2021 8:45:00 PM 18.33 64.994 0.057 6.88 3.2 8.28
8/13/2021 9:00:00 PM 18.24 64.832 0.057 6.87 3.62 8.29
8/13/2021 9:15:00 PM 18.16 64.688 0.057 6.86 4.66 8.29
8/13/2021 9:30:00 PM 18.09 64.562 0.057 6.86 3 8.3
8/13/2021 9:45:00 PM 18.03 64.454 0.057 6.84 2.81 8.31
8/13/2021 10:00:00 PM 17.98 64.364 0.057 6.83 3.03 8.31
8/13/2021 10:15:00 PM 17.92 64.256 0.057 6.83 2.91 8.32
8/13/2021 10:30:00 PM 17.87 64.166 0.057 6.83 2.92 8.33
8/13/2021 10:45:00 PM 17.82 64.076 0.057 6.82 2.9 8.34
8/13/2021 11:00:00 PM 17.76 63.968 0.057 6.82 3.2 8.34
8/13/2021 11:15:00 PM 17.72 63.896 0.057 6.81 2.93 8.35
8/13/2021 11:30:00 PM 17.66 63.788 0.057 6.81 2.87 8.36
8/13/2021 11:45:00 PM 17.64 63.752 0.057 6.84 3.11 8.37
8/14/2021 12:00:00 AM 17.61 63.698 0.057 6.89 2.86 8.39
8/14/2021 12:15:00 AM 17.57 63.626 0.057 6.9 2.89 8.4
8/14/2021 12:30:00 AM 17.53 63.554 0.057 6.9 2.87 8.4
8/14/2021 12:45:00 AM 17.48 63.464 0.057 6.9 3 8.4
8/14/2021 1:00:00 AM 17.44 63.392 0.057 6.9 3.11 8.41
8/14/2021 1:15:00 AM 17.39 63.302 0.057 6.89 2.8 8.41
8/14/2021 1:30:00 AM 17.35 63.23 0.056 6.89 2.92 8.42
8/14/2021 1:45:00 AM 17.31 63.158 0.056 6.89 5.18 8.42
8/14/2021 2:00:00 AM 17.26 63.068 0.056 6.88 2.79 8.43
8/14/2021 2:15:00 AM 17.22 62.996 0.056 6.88 2.6 8.44
8/14/2021 2:30:00 AM 17.18 62.924 0.056 6.88 2.91 8.45
8/14/2021 2:45:00 AM 17.13 62.834 0.056 6.87 2.95 8.45
8/14/2021 3:00:00 AM 17.09 62.762 0.056 6.87 2.62 8.46
8/14/2021 3:15:00 AM 17.04 62.672 0.056 6.87 3.02 8.48
8/14/2021 3:30:00 AM 16.99 62.582 0.056 6.86 2.63 8.49
8/14/2021 3:45:00 AM 16.95 62.51 0.056 6.86 2.93 8.5
8/14/2021 4:00:00 AM 16.9 62.42 0.056 6.85 3.27 8.51
8/14/2021 4:15:00 AM 16.86 62.348 0.056 6.85 2.98 8.52
8/14/2021 4:30:00 AM 16.81 62.258 0.057 6.85 2.78 8.53
8/14/2021 4:45:00 AM 16.77 62.186 0.057 6.85 2.95 8.54
8/14/2021 5:00:00 AM 16.74 62.132 0.056 6.84 3 8.54
8/14/2021 5:15:00 AM 16.7 62.06 0.057 6.84 4.34 8.55
8/14/2021 5:30:00 AM 16.67 62.006 0.057 6.84 3.4 8.55
8/14/2021 5:45:00 AM 16.64 61.952 0.057 6.84 3.6 8.56
8/14/2021 6:00:00 AM 16.61 61.898 0.057 6.85 3.24 8.57
8/14/2021 6:15:00 AM 16.59 61.862 0.057 6.84 3.12 8.57
8/14/2021 6:30:00 AM 16.56 61.808 0.057 6.84 2.92 8.6
8/14/2021 6:45:00 AM 16.54 61.772 0.057 6.84 3.1 8.62
8/14/2021 7:00:00 AM 16.53 61.754 0.057 6.85 2.97 8.65
8/14/2021 7:15:00 AM 16.53 61.754 0.057 6.87 3.09 8.7
8/14/2021 7:30:00 AM 16.51 61.718 0.057 6.87 3.01 8.69
8/14/2021 7:45:00 AM 16.51 61.718 0.057 6.89 3.01 8.69
8/14/2021 8:00:00 AM 16.5 61.7 0.057 6.92 3.64 8.71
8/14/2021 8:15:00 AM 16.48 61.664 0.057 6.95 3.74 8.75
8/14/2021 8:30:00 AM 16.44 61.592 0.057 6.96 4.11 8.75
8/14/2021 8:45:00 AM 16.42 61.556 0.057 6.98 3.4 8.78
8/14/2021 9:00:00 AM 16.41 61.538 0.057 7.01 3.1 8.85
8/14/2021 9:15:00 AM 16.39 61.502 0.057 7.02 2.68 8.89
8/14/2021 9:30:00 AM 16.38 61.484 0.057 7.03 2.85 8.88
8/14/2021 9:45:00 AM 16.38 61.484 0.057 7.05 2.88 8.94
8/14/2021 10:00:00 AM 16.38 61.484 0.056 7.06 2.94 8.99
8/14/2021 10:15:00 AM 16.43 61.574 0.056 7.1 3.16 9.06
8/14/2021 10:30:00 AM 16.49 61.682 0.056 7.13 2.71 9.16
8/14/2021 10:45:00 AM 16.55 61.79 0.056 7.16 3.13 9.2
8/14/2021 11:00:00 AM 16.63 61.934 0.056 7.19 3.23 9.23
8/14/2021 11:15:00 AM 16.72 62.096 0.056 7.21 2.8 9.24
8/14/2021 11:30:00 AM 16.89 62.402 0.056 7.26 2.86 9.29
8/14/2021 11:45:00 AM 17.15 62.87 0.055 7.3 2.98 9.31
8/14/2021 12:00:00 PM 17.41 63.338 0.055 7.32 2.74 9.28
8/14/2021 12:15:00 PM 17.67 63.806 0.055 7.33 2.72 9.23
8/14/2021 12:30:00 PM 17.94 64.292 0.055 7.34 2.77 9.19
8/14/2021 12:45:00 PM 18.2 64.76 0.055 7.34 2.55 9.14
8/14/2021 1:00:00 PM 18.42 65.156 0.055 7.35 2.9 9.1
8/14/2021 1:15:00 PM 18.6 65.48 0.055 7.35 2.8 9.06
8/14/2021 1:30:00 PM 18.77 65.786 0.055 7.35 2.84 9.04
8/14/2021 1:45:00 PM 18.96 66.128 0.055 7.36 2.58 8.99
8/14/2021 2:00:00 PM 19.12 66.416 0.055 7.36 2.62 8.95
8/14/2021 2:15:00 PM 19.28 66.704 0.055 7.36 2.58 8.91
8/14/2021 2:30:00 PM 19.43 66.974 0.055 7.37 2.95 8.88
8/14/2021 2:45:00 PM 19.57 67.226 0.055 7.36 2.78 8.84
8/14/2021 3:00:00 PM 19.73 67.514 0.055 7.36 2.67 8.81
8/14/2021 3:15:00 PM 19.86 67.748 0.056 7.37 2.42 8.77
8/14/2021 3:30:00 PM 19.95 67.91 0.056 7.36 2.77 8.72
8/14/2021 3:45:00 PM 20.05 68.09 0.056 7.35 3.16 8.7
8/14/2021 4:00:00 PM 20.05 68.09 0.056 7.32 2.73 8.65
8/14/2021 4:15:00 PM 20.06 68.108 0.056 7.32 3.17 8.65
8/14/2021 4:30:00 PM 20.03 68.054 0.056 7.32 2.54 8.62
8/14/2021 4:45:00 PM 20.02 68.036 0.056 7.3 2.49 8.6
8/14/2021 5:00:00 PM 19.97 67.946 0.056 7.29 3.21 8.57
8/14/2021 5:15:00 PM 19.88 67.784 0.056 7.27 16.19 8.55
8/14/2021 5:30:00 PM 19.77 67.586 0.056 7.25 3.58 8.55
8/14/2021 5:45:00 PM 19.67 67.406 0.056 7.23 2.34 8.52
8/14/2021 6:00:00 PM 19.59 67.262 0.057 7.23 2.92 8.53
8/14/2021 6:15:00 PM 19.43 66.974 0.057 7.2 3.05 8.5
8/14/2021 6:30:00 PM 19.29 66.722 0.057 7.18 2.47 8.5
8/14/2021 6:45:00 PM 19.13 66.434 0.057 7.16 2.53 8.47
8/14/2021 7:00:00 PM 18.97 66.146 0.057 7.14 2.36 8.44
8/14/2021 7:15:00 PM 18.79 65.82201 0.057 7.11 2.74 8.42
8/14/2021 7:30:00 PM 18.61 65.498 0.058 7.09 2.58 8.41
8/14/2021 7:45:00 PM 18.44 65.192 0.058 7.07 2.59 8.4
8/14/2021 8:00:00 PM 18.28 64.904 0.058 7.06 2.4 8.4
8/14/2021 8:15:00 PM 18.11 64.598 0.058 7.05 2.5 8.39
8/14/2021 8:30:00 PM 17.95 64.31 0.058 7.04 4.91 8.38
8/14/2021 8:45:00 PM 17.8 64.04 0.059 7.03 3.04 8.39
8/14/2021 9:00:00 PM 17.65 63.77 0.059 7.01 3.49 8.39
8/14/2021 9:15:00 PM 17.5 63.5 0.059 7.01 2.86 8.43
8/14/2021 9:30:00 PM 17.36 63.248 0.059 7 3.05 8.44
8/14/2021 9:45:00 PM 17.22 62.996 0.059 7 3.42 8.46
8/14/2021 10:00:00 PM 17.08 62.744 0.059 7 3.99 8.49
8/14/2021 10:15:00 PM 16.95 62.51 0.059 6.99 3.08 8.52
8/14/2021 10:30:00 PM 16.82 62.276 0.059 6.99 2.89 8.55
8/14/2021 10:45:00 PM 16.69 62.042 0.059 6.99 2.75 8.58
8/14/2021 11:00:00 PM 16.57 61.826 0.059 6.99 2.71 8.59
8/14/2021 11:15:00 PM 16.45 61.61 0.059 6.99 2.77 8.63
8/14/2021 11:30:00 PM 16.33 61.394 0.059 6.99 3.1 8.65
8/14/2021 11:45:00 PM 16.22 61.196 0.059 6.99 3.28 8.67
8/15/2021 12:00:00 AM 16.11 60.998 0.06 6.98 3.44 8.68
8/15/2021 12:15:00 AM 16 60.8 0.06 6.98 3.67 8.72
8/15/2021 12:30:00 AM 15.9 60.62 0.06 6.98 2.72 8.74
8/15/2021 12:45:00 AM 15.8 60.44 0.06 6.99 2.95 8.75
8/15/2021 1:00:00 AM 15.7 60.26 0.06 6.98 2.87 8.78
8/15/2021 1:15:00 AM 15.61 60.098 0.06 6.98 2.69 8.8
8/15/2021 1:30:00 AM 15.51 59.918 0.06 6.99 2.58 8.82
8/15/2021 1:45:00 AM 15.42 59.756 0.06 6.98 2.85 8.84
8/15/2021 2:00:00 AM 15.33 59.594 0.06 6.98 2.66 8.86
8/15/2021 2:15:00 AM 15.23 59.414 0.06 6.98 3.08 8.85
8/15/2021 2:30:00 AM 15.14 59.252 0.06 6.98 2.69 8.89
8/15/2021 2:45:00 AM 15.06 59.108 0.06 6.98 2.76 8.91
8/15/2021 3:00:00 AM 14.97 58.946 0.06 6.98 2.81 8.93
8/15/2021 3:15:00 AM 14.88 58.784 0.06 6.98 2.62 8.95
8/15/2021 3:30:00 AM 14.8 58.64 0.06 6.98 2.49 8.98
8/15/2021 3:45:00 AM 14.71 58.478 0.06 6.98 2.94 9
8/15/2021 4:00:00 AM 14.63 58.334 0.06 6.98 2.72 9.01
8/15/2021 4:15:00 AM 14.55 58.19 0.06 6.98 2.83 9.03
8/15/2021 4:30:00 AM 14.48 58.064 0.06 6.98 2.92 9.05
8/15/2021 4:45:00 AM 14.41 57.938 0.06 6.98 3.06 9.07
8/15/2021 5:00:00 AM 14.34 57.812 0.06 6.98 2.74 9.09
8/15/2021 5:15:00 AM 14.28 57.704 0.06 6.99 3.5 9.11
8/15/2021 5:30:00 AM 14.22 57.596 0.06 6.99 2.61 9.13
8/15/2021 5:45:00 AM 14.17 57.506 0.06 6.99 2.61 9.13
8/15/2021 6:00:00 AM 14.12 57.416 0.06 7 3.02 9.15
8/15/2021 6:15:00 AM 14.07 57.326 0.06 7 3.9 9.16
8/15/2021 6:30:00 AM 14.04 57.272 0.06 7 3.53 9.18
8/15/2021 6:45:00 AM 14 57.2 0.06 7.01 3 9.21
8/15/2021 7:00:00 AM 13.96 57.128 0.06 7.02 2.93 9.25
8/15/2021 7:15:00 AM 13.92 57.056 0.06 7.04 3.26 9.3
8/15/2021 7:30:00 AM 13.89 57.002 0.06 7.05 2.75 9.35
8/15/2021 7:45:00 AM 13.85 56.93 0.06 7.06 2.69 9.41
8/15/2021 8:00:00 AM 13.84 56.912 0.06 7.08 2.59 9.48
8/15/2021 8:15:00 AM 13.85 56.93 0.059 7.1 2.62 9.54
8/15/2021 8:30:00 AM 13.84 56.912 0.059 7.11 2.65 9.58
8/15/2021 8:45:00 AM 13.87 56.966 0.059 7.13 2.55 9.56
8/15/2021 9:00:00 AM 13.95 57.11 0.059 7.16 2.57 9.61
8/15/2021 9:15:00 AM 14.08 57.344 0.059 7.19 2.74 9.68
8/15/2021 9:30:00 AM 14.21 57.578 0.059 7.21 2.46 9.7
8/15/2021 9:45:00 AM 14.38 57.884 0.059 7.24 2.48 9.72
8/15/2021 10:00:00 AM 14.54 58.172 0.058 7.26 2.34 9.72
8/15/2021 10:15:00 AM 14.68 58.424 0.058 7.28 2.57 9.73
8/15/2021 10:30:00 AM 14.83 58.694 0.058 7.3 2.59 9.73
8/15/2021 10:45:00 AM 15.05 59.09 0.058 7.33 4.31 9.73
8/15/2021 11:00:00 AM 15.28 59.504 0.058 7.35 2.63 9.7
8/15/2021 11:15:00 AM 15.48 59.864 0.058 7.36 2.76 9.65
8/15/2021 11:30:00 AM 15.62 60.116 0.058 7.36 2.64 9.64
8/15/2021 11:45:00 AM 15.79 60.422 0.058 7.38 2.56 9.61
8/15/2021 12:00:00 PM 15.96 60.728 0.058 7.39 2.51 9.59
8/15/2021 12:15:00 PM 16.17 61.106 0.058 7.4 2.48 9.54
8/15/2021 12:30:00 PM 16.48 61.664 0.058 7.43 2.5 9.52
8/15/2021 12:45:00 PM 16.63 61.934 0.058 7.43 2.33 9.5
8/15/2021 1:00:00 PM 16.92 62.456 0.057 7.44 2.52 9.46
8/15/2021 1:15:00 PM 17.13 62.834 0.057 7.45 2.42 9.41
8/15/2021 1:30:00 PM 17.31 63.158 0.057 7.45 2.56 9.36
8/15/2021 1:45:00 PM 17.42 63.356 0.057 7.45 2.52 9.34
8/15/2021 2:00:00 PM 17.53 63.554 0.057 7.45 2.4 9.3
8/15/2021 2:15:00 PM 17.72 63.896 0.057 7.47 2.42 9.28
8/15/2021 2:30:00 PM 17.87 64.166 0.057 7.47 2.5 9.25
8/15/2021 2:45:00 PM 17.91 64.238 0.057 7.44 2.44 9.19
8/15/2021 3:00:00 PM 17.91 64.238 0.057 7.43 2.39 9.16
8/15/2021 3:15:00 PM 17.96 64.328 0.057 7.43 2.72 9.16
8/15/2021 3:30:00 PM 18.05 64.49 0.057 7.45 2.42 9.14
8/15/2021 3:45:00 PM 18.15 64.67 0.057 7.45 2.48 9.12
8/15/2021 4:00:00 PM 18.2 64.76 0.057 7.44 2.53 9.08
8/15/2021 4:15:00 PM 18.14 64.652 0.057 7.42 2.47 9.01
8/15/2021 4:30:00 PM 18.13 64.634 0.057 7.41 2.61 9.05
8/15/2021 4:45:00 PM 18.13 64.634 0.057 7.41 2.53 9.02
8/15/2021 5:00:00 PM 18.16 64.688 0.057 7.41 2.58 9.01
8/15/2021 5:15:00 PM 18.15 64.67 0.057 7.39 2.57 8.97
8/15/2021 5:30:00 PM 18.1 64.58 0.057 7.37 2.62 8.93
8/15/2021 5:45:00 PM 18.01 64.418 0.057 7.35 2.76 8.92
8/15/2021 6:00:00 PM 17.9 64.22 0.057 7.33 3.1 8.9
8/15/2021 6:15:00 PM 17.81 64.058 0.057 7.31 2.73 8.87
8/15/2021 6:30:00 PM 17.68 63.824 0.058 7.28 2.72 8.84
8/15/2021 6:45:00 PM 17.58 63.644 0.058 7.27 3.42 8.85
8/15/2021 7:00:00 PM 17.48 63.464 0.058 7.26 2.69 8.84
8/15/2021 7:15:00 PM 17.38 63.284 0.058 7.24 2.99 8.82
8/15/2021 7:30:00 PM 17.3 63.14 0.058 7.23 2.83 8.79
8/15/2021 7:45:00 PM 17.19 62.942 0.058 7.2 2.73 8.75
8/15/2021 8:00:00 PM 17.08 62.744 0.058 7.18 3.04 8.7
8/15/2021 8:15:00 PM 16.96 62.528 0.059 7.15 2.6 8.67
8/15/2021 8:30:00 PM 16.83 62.294 0.059 7.13 3.06 8.64
8/15/2021 8:45:00 PM 16.71 62.078 0.059 7.11 3.14 8.63
8/15/2021 9:00:00 PM 16.59 61.862 0.059 7.1 3.56 8.63
8/15/2021 9:15:00 PM 16.47 61.646 0.059 7.09 3.19 8.64
8/15/2021 9:30:00 PM 16.35 61.43 0.059 7.08 3.16 8.66
8/15/2021 9:45:00 PM 16.25 61.25 0.06 7.08 3.04 8.67
8/15/2021 10:00:00 PM 16.15 61.07 0.06 7.08 2.55 8.68
8/15/2021 10:15:00 PM 16.06 60.908 0.06 7.08 2.88 8.7
8/15/2021 10:30:00 PM 15.97 60.746 0.06 7.07 2.76 8.71
8/15/2021 10:45:00 PM 15.88 60.584 0.06 7.07 2.67 8.73
8/15/2021 11:00:00 PM 15.81 60.458 0.06 7.07 2.94 8.75
8/15/2021 11:15:00 PM 15.73 60.314 0.06 7.07 2.8 8.76
8/15/2021 11:30:00 PM 15.64 60.152 0.06 7.06 2.75 8.79
8/15/2021 11:45:00 PM 15.57 60.026 0.06 7.07 2.75 8.8
8/16/2021 12:00:00 AM 15.49 59.882 0.06 7.06 3.05 8.82
8/16/2021 12:15:00 AM 15.41 59.738 0.06 7.06 2.82 8.83
8/16/2021 12:30:00 AM 15.32 59.576 0.06 7.06 2.84 8.85
8/16/2021 12:45:00 AM 15.24 59.432 0.06 7.06 2.7 8.86
8/16/2021 1:00:00 AM 15.16 59.288 0.06 7.06 2.55 8.88
8/16/2021 1:15:00 AM 15.08 59.144 0.06 7.06 2.58 8.89
8/16/2021 1:30:00 AM 15 59 0.061 7.05 2.83 8.91
8/16/2021 1:45:00 AM 14.92 58.856 0.06 7.05 2.82 8.93
8/16/2021 2:00:00 AM 14.84 58.712 0.061 7.05 2.81 8.95
8/16/2021 2:15:00 AM 14.77 58.586 0.061 7.05 2.84 8.97
8/16/2021 2:30:00 AM 14.7 58.46 0.061 7.06 2.61 8.98
8/16/2021 2:45:00 AM 14.63 58.334 0.061 7.04 2.92 9
8/16/2021 3:00:00 AM 14.57 58.226 0.061 7.05 2.97 9.01
8/16/2021 3:15:00 AM 14.51 58.118 0.061 7.04 3.05 9.02
8/16/2021 3:30:00 AM 14.47 58.046 0.061 7.05 2.75 9.04
8/16/2021 3:45:00 AM 14.44 57.992 0.061 7.06 2.93 9.05
8/16/2021 4:00:00 AM 14.4 57.92 0.061 7.06 2.61 9.06
8/16/2021 4:15:00 AM 14.36 57.848 0.061 7.06 2.83 9.07
8/16/2021 4:30:00 AM 14.33 57.794 0.061 7.05 3.2 9.08
8/16/2021 4:45:00 AM 14.3 57.74 0.061 7.06 2.79 9.08
8/16/2021 5:00:00 AM 14.27 57.686 0.061 7.06 2.62 9.09
8/16/2021 5:15:00 AM 14.23 57.614 0.061 7.06 2.73 9.11
8/16/2021 5:30:00 AM 14.2 57.56 0.061 7.07 2.91 9.11
8/16/2021 5:45:00 AM 14.18 57.524 0.061 7.07 2.55 9.11
8/16/2021 6:00:00 AM 14.16 57.488 0.061 7.06 3.28 9.13
8/16/2021 6:15:00 AM 14.13 57.434 0.061 7.06 2.88 9.13
8/16/2021 6:30:00 AM 14.11 57.398 0.061 7.07 3.87 9.14
8/16/2021 6:45:00 AM 14.1 57.38 0.061 7.07 3.1 9.15
8/16/2021 7:00:00 AM 14.08 57.344 0.061 7.07 2.63 9.17
8/16/2021 7:15:00 AM 14.07 57.326 0.061 7.07 2.9 9.18
8/16/2021 7:30:00 AM 14.06 57.308 0.061 7.08 3.03 9.2
8/16/2021 7:45:00 AM 14.06 57.308 0.061 7.09 3.07 9.24
8/16/2021 8:00:00 AM 14.07 57.326 0.061 7.1 2.61 9.28
8/16/2021 8:15:00 AM 14.08 57.344 0.06 7.12 3 9.32
8/16/2021 8:30:00 AM 14.1 57.38 0.06 7.14 2.56 9.36
8/16/2021 8:45:00 AM 14.13 57.434 0.06 7.15 2.61 9.42
8/16/2021 9:00:00 AM 14.17 57.506 0.06 7.17 2.57 9.45
8/16/2021 9:15:00 AM 14.21 57.578 0.06 7.18 2.73 9.47
8/16/2021 9:30:00 AM 14.26 57.668 0.06 7.19 2.68 9.51
8/16/2021 9:45:00 AM 14.32 57.776 0.06 7.21 2.61 9.55
8/16/2021 10:00:00 AM 14.41 57.938 0.059 7.24 2.51 9.6
8/16/2021 10:15:00 AM 14.49 58.082 0.059 7.27 2.46 9.63
8/16/2021 10:30:00 AM 14.61 58.298 0.059 7.29 2.71 9.66
8/16/2021 10:45:00 AM 14.75 58.55 0.059 7.33 2.6 9.68
8/16/2021 11:00:00 AM 14.88 58.784 0.059 7.34 2.74 9.67
8/16/2021 11:15:00 AM 15 59 0.059 7.36 2.58 9.67
8/16/2021 11:30:00 AM 15.12 59.216 0.058 7.37 3.6 9.65
8/16/2021 11:45:00 AM 15.23 59.414 0.058 7.39 2.69 9.65
8/16/2021 12:00:00 PM 15.38 59.684 0.058 7.4 2.58 9.64
8/16/2021 12:15:00 PM 15.43 59.774 0.058 7.39 2.57 9.57
8/16/2021 12:30:00 PM 15.46 59.828 0.058 7.36 2.64 9.5
8/16/2021 12:45:00 PM 15.47 59.846 0.058 7.34 2.7 9.45
8/16/2021 1:00:00 PM 15.48 59.864 0.058 7.33 3.18 9.41
8/16/2021 1:15:00 PM 15.51 59.918 0.058 7.34 2.52 9.44
8/16/2021 1:30:00 PM 15.52 59.936 0.058 7.33 3.06 9.43
8/16/2021 1:45:00 PM 15.56 60.008 0.058 7.35 2.82 9.43
8/16/2021 2:00:00 PM 15.58 60.044 0.058 7.34 11.3 9.39
8/16/2021 2:15:00 PM 15.58 60.044 0.058 7.32 2.56 9.34
8/16/2021 2:30:00 PM 15.58 60.044 0.058 7.3 2.65 9.29
8/16/2021 2:45:00 PM 15.57 60.026 0.058 7.28 2.9 9.25
8/16/2021 3:00:00 PM 15.57 60.026 0.058 7.27 2.46 9.25
8/16/2021 3:15:00 PM 15.57 60.026 0.058 7.26 2.56 9.22
8/16/2021 3:30:00 PM 15.55 59.99 0.058 7.25 3.57 9.17
8/16/2021 3:45:00 PM 15.54 59.972 0.058 7.24 3.11 9.19
8/16/2021 4:00:00 PM 15.53 59.954 0.058 7.24 2.63 9.2
8/16/2021 4:15:00 PM 15.52 59.936 0.058 7.24 2.44 9.22
8/16/2021 4:30:00 PM 15.54 59.972 0.058 7.26 2.54 9.25
8/16/2021 4:45:00 PM 15.53 59.954 0.058 7.25 2.74 9.23
8/16/2021 5:00:00 PM 15.54 59.972 0.058 7.25 2.75 9.23
8/16/2021 5:15:00 PM 15.54 59.972 0.059 7.24 2.62 9.22
8/16/2021 5:30:00 PM 15.54 59.972 0.059 7.23 2.69 9.2
8/16/2021 5:45:00 PM 15.53 59.954 0.059 7.22 2.76 9.17
8/16/2021 6:00:00 PM 15.52 59.936 0.059 7.21 2.61 9.15
8/16/2021 6:15:00 PM 15.51 59.918 0.059 7.2 4.79 9.14
8/16/2021 6:30:00 PM 15.5 59.9 0.059 7.2 4.37 9.13
8/16/2021 6:45:00 PM 15.49 59.882 0.059 7.19 2.75 9.1
8/16/2021 7:00:00 PM 15.47 59.846 0.059 7.18 2.64 9.06
8/16/2021 7:15:00 PM 15.44 59.792 0.059 7.18 2.62 9.01
8/16/2021 7:30:00 PM 15.41 59.738 0.059 7.16 3.25 8.99
8/16/2021 7:45:00 PM 15.38 59.684 0.059 7.15 2.55 8.97
8/16/2021 8:00:00 PM 15.35 59.63 0.06 7.13 2.7 8.95
8/16/2021 8:15:00 PM 15.32 59.576 0.06 7.11 3.09 8.93
8/16/2021 8:30:00 PM 15.3 59.54 0.06 7.09 3.1 8.91
8/16/2021 8:45:00 PM 15.28 59.504 0.06 7.09 2.9 8.9
8/16/2021 9:00:00 PM 15.26 59.468 0.06 7.08 2.86 8.9
8/16/2021 9:15:00 PM 15.24 59.432 0.06 7.08 2.88 8.88
8/16/2021 9:30:00 PM 15.23 59.414 0.06 7.07 2.54 8.89
8/16/2021 9:45:00 PM 15.21 59.378 0.06 7.06 2.56 8.88
8/16/2021 10:00:00 PM 15.2 59.36 0.061 7.05 3.14 8.89
8/16/2021 10:15:00 PM 15.18 59.324 0.061 7.04 3.06 8.89
8/16/2021 10:30:00 PM 15.17 59.306 0.061 7.03 2.69 8.87
8/16/2021 10:45:00 PM 15.16 59.288 0.061 7.02 3.08 8.89
8/16/2021 11:00:00 PM 15.14 59.252 0.061 7.02 2.72 8.89
8/16/2021 11:15:00 PM 15.13 59.234 0.061 7.02 2.64 8.9
8/16/2021 11:30:00 PM 15.11 59.198 0.061 7.03 2.75 8.9
8/16/2021 11:45:00 PM 15.1 59.18 0.061 7.02 2.62 8.9
8/17/2021 12:00:00 AM 15.09 59.162 0.061 7.02 3.02 8.9
8/17/2021 12:15:00 AM 15.09 59.162 0.061 7.02 2.99 8.9
8/17/2021 12:30:00 AM 15.08 59.144 0.061 7.02 2.74 8.91
8/17/2021 12:45:00 AM 15.07 59.126 0.061 7.02 2.76 8.9
8/17/2021 1:00:00 AM 15.06 59.108 0.061 7.02 2.65 8.91
8/17/2021 1:15:00 AM 15.06 59.108 0.061 7.02 2.85 8.91
8/17/2021 1:30:00 AM 15.07 59.126 0.061 7.01 3.16 8.91
8/17/2021 1:45:00 AM 15.05 59.09 0.061 7 3.4 8.89
8/17/2021 2:00:00 AM 15.04 59.072 0.061 7 2.74 8.9
8/17/2021 2:15:00 AM 15.03 59.054 0.061 7 2.74 8.89
8/17/2021 2:30:00 AM 15.02 59.036 0.061 7 2.83 8.9
8/17/2021 2:45:00 AM 15.01 59.018 0.061 6.99 2.75 8.91
8/17/2021 3:00:00 AM 15 59 0.061 7 2.87 8.91
8/17/2021 3:15:00 AM 14.99 58.982 0.061 6.99 3.09 8.91
8/17/2021 3:30:00 AM 14.98 58.964 0.061 6.98 3.03 8.91
8/17/2021 3:45:00 AM 14.97 58.946 0.061 6.98 2.94 8.91
8/17/2021 4:00:00 AM 14.97 58.946 0.061 6.97 2.81 8.92
8/17/2021 4:15:00 AM 14.96 58.928 0.061 6.97 2.73 8.9
8/17/2021 4:30:00 AM 14.95 58.91 0.061 6.97 3.31 8.9
8/17/2021 4:45:00 AM 14.94 58.892 0.061 6.96 3.02 8.91
8/17/2021 5:00:00 AM 14.94 58.892 0.061 6.96 3.48 8.91
8/17/2021 5:15:00 AM 14.94 58.892 0.061 6.96 3.14 8.89
8/17/2021 5:30:00 AM 14.93 58.874 0.061 6.95 3.08 8.92
8/17/2021 5:45:00 AM 14.93 58.874 0.061 6.94 2.83 8.91
8/17/2021 6:00:00 AM 14.93 58.874 0.061 6.94 3.16 8.9
8/17/2021 6:15:00 AM 14.92 58.856 0.061 6.93 2.89 8.9
8/17/2021 6:30:00 AM 14.92 58.856 0.061 6.92 3.3 8.9
8/17/2021 6:45:00 AM 14.91 58.838 0.061 6.92 3.79 8.92
8/17/2021 7:00:00 AM 14.91 58.838 0.061 6.92 4.05 8.93
8/17/2021 7:15:00 AM 14.91 58.838 0.061 6.91 3.69 8.94
8/17/2021 7:30:00 AM 14.92 58.856 0.061 6.92 3.26 8.96
8/17/2021 7:45:00 AM 14.93 58.874 0.061 6.92 3.1 8.96
8/17/2021 8:00:00 AM 14.94 58.892 0.061 6.93 2.93 8.99
8/17/2021 8:15:00 AM 14.95 58.91 0.061 6.93 2.9 8.99
8/17/2021 8:30:00 AM 14.97 58.946 0.061 6.95 3.18 9.04
8/17/2021 8:45:00 AM 15 59 0.061 6.97 2.82 9.09
8/17/2021 9:00:00 AM 15.03 59.054 0.061 6.99 2.73 9.15
8/17/2021 9:15:00 AM 15.06 59.108 0.061 7.02 2.68 9.18
8/17/2021 9:30:00 AM 15.11 59.198 0.061 7.05 3 9.23
8/17/2021 9:45:00 AM 15.14 59.252 0.061 7.07 2.81 9.23
8/17/2021 10:00:00 AM 15.17 59.306 0.061 7.09 2.72 9.18
8/17/2021 10:15:00 AM 15.22 59.396 0.061 7.11 3.42 9.25
8/17/2021 10:30:00 AM 15.28 59.504 0.061 7.15 2.78 9.3
8/17/2021 10:45:00 AM 15.33 59.594 0.061 7.17 2.76 9.32
8/17/2021 11:00:00 AM 15.41 59.738 0.06 7.2 2.98 9.35
8/17/2021 11:15:00 AM 15.47 59.846 0.06 7.22 2.8 9.35
8/17/2021 11:30:00 AM 15.55 59.99 0.06 7.25 2.81 9.39
8/17/2021 11:45:00 AM 15.69 60.242 0.06 7.28 2.64 9.42
8/17/2021 12:00:00 PM 15.78 60.404 0.06 7.29 2.79 9.39
8/17/2021 12:15:00 PM 16 60.8 0.06 7.34 2.74 9.44
8/17/2021 12:30:00 PM 16.12 61.016 0.06 7.35 2.78 9.42
8/17/2021 12:45:00 PM 16.32 61.376 0.06 7.39 2.74 9.41
8/17/2021 1:00:00 PM 16.45 61.61 0.059 7.39 2.79 9.39
8/17/2021 1:15:00 PM 16.56 61.808 0.06 7.38 2.68 9.33
8/17/2021 1:30:00 PM 16.63 61.934 0.059 7.39 2.71 9.32
8/17/2021 1:45:00 PM 16.7 62.06 0.059 7.39 2.67 9.29
8/17/2021 2:00:00 PM 16.73 62.114 0.059 7.36 2.9 9.19
8/17/2021 2:15:00 PM 16.77 62.186 0.059 7.36 2.84 9.2
8/17/2021 2:30:00 PM 16.86 62.348 0.059 7.39 2.74 9.22
8/17/2021 2:45:00 PM 16.94 62.492 0.059 7.41 2.74 9.23
8/17/2021 3:00:00 PM 16.95 62.51 0.059 7.39 2.73 9.18
8/17/2021 3:15:00 PM 16.97 62.546 0.059 7.37 2.69 9.14
8/17/2021 3:30:00 PM 16.93 62.474 0.059 7.34 2.87 9.04
8/17/2021 3:45:00 PM 16.9 62.42 0.059 7.31 2.85 8.97
8/17/2021 4:00:00 PM 16.87 62.366 0.059 7.3 7.01 8.99
8/17/2021 4:15:00 PM 16.86 62.348 0.059 7.31 2.94 9.05
8/17/2021 4:30:00 PM 16.83 62.294 0.059 7.31 2.78 9.04
8/17/2021 4:45:00 PM 16.79 62.222 0.059 7.28 3.23 8.97
8/17/2021 5:00:00 PM 16.77 62.186 0.059 7.25 2.96 8.84
8/17/2021 5:15:00 PM 16.74 62.132 0.059 7.22 3.22 8.85
8/17/2021 5:30:00 PM 16.7 62.06 0.059 7.2 3.29 8.82
8/17/2021 5:45:00 PM 16.63 61.934 0.06 7.17 4.15 8.82
8/17/2021 6:00:00 PM 16.53 61.754 0.06 7.11 14.24 8.79
8/17/2021 6:15:00 PM 16.45 61.61 0.06 7.08 15.16 8.78
8/17/2021 6:30:00 PM 16.38 61.484 0.06 7.09 11.09 8.81
8/17/2021 6:45:00 PM 16.36 61.448 0.059 7.09 7.49 8.83
8/17/2021 7:00:00 PM 16.36 61.448 0.059 7.08 6.59 8.82
8/17/2021 7:15:00 PM 16.38 61.484 0.059 7.07 6.38 8.81
8/17/2021 7:30:00 PM 16.39 61.502 0.059 7.05 5.26 8.79
8/17/2021 7:45:00 PM 16.39 61.502 0.059 7.04 4.51 8.77
8/17/2021 8:00:00 PM 16.36 61.448 0.059 7.02 4.65 8.76
8/17/2021 8:15:00 PM 16.33 61.394 0.059 7 4.52 8.75
8/17/2021 8:30:00 PM 16.29 61.322 0.059 6.99 4.62 8.74
8/17/2021 8:45:00 PM 16.24 61.232 0.059 6.98 5.16 8.73
8/17/2021 9:00:00 PM 16.19 61.142 0.059 6.96 5.17 8.73
8/17/2021 9:15:00 PM 16.15 61.07 0.059 6.95 4.44 8.74
8/17/2021 9:30:00 PM 16.1 60.98 0.059 6.94 4.71 8.74
8/17/2021 9:45:00 PM 16.06 60.908 0.059 6.93 4.35 8.75
8/17/2021 10:00:00 PM 16.02 60.836 0.06 6.92 3.9 8.75
8/17/2021 10:15:00 PM 15.98 60.764 0.06 6.91 4.34 8.76
8/17/2021 10:30:00 PM 15.94 60.692 0.06 6.9 4.07 8.76
8/17/2021 10:45:00 PM 15.91 60.638 0.06 6.9 4.37 8.77
8/17/2021 11:00:00 PM 15.88 60.584 0.061 6.9 4.09 8.77
8/17/2021 11:15:00 PM 15.85 60.53 0.062 6.9 3.57 8.78
8/17/2021 11:30:00 PM 15.83 60.494 0.062 6.9 3.7 8.78
8/17/2021 11:45:00 PM 15.81 60.458 0.063 6.9 3.97 8.78
8/18/2021 12:00:00 AM 15.78 60.404 0.063 6.9 3.68 8.79
8/18/2021 12:15:00 AM 15.77 60.386 0.064 6.9 3.62 8.78
8/18/2021 12:30:00 AM 15.76 60.368 0.064 6.9 3.55 8.79
8/18/2021 12:45:00 AM 15.78 60.404 0.064 6.91 4.14 8.8
8/18/2021 1:00:00 AM 15.8 60.44 0.064 6.91 4.01 8.79
8/18/2021 1:15:00 AM 15.98 60.764 0.061 6.96 6.21 8.8
8/18/2021 1:30:00 AM 16.03 60.854 0.061 6.95 6.48 8.77
8/18/2021 1:45:00 AM 16.03 60.854 0.061 6.94 7.33 8.75
8/18/2021 2:00:00 AM 16.04 60.872 0.061 6.93 9.23 8.72
8/18/2021 2:15:00 AM 16.06 60.908 0.062 6.9 12.31 8.69
8/18/2021 2:30:00 AM 16.05 60.89 0.062 6.9 11.98 8.68
8/18/2021 2:45:00 AM 16.03 60.854 0.065 6.9 13.1 8.67
8/18/2021 3:00:00 AM 16.07 60.926 0.069 6.93 13.81 8.65
8/18/2021 3:15:00 AM 16.15 61.07 0.072 6.95 13.9 8.64
8/18/2021 3:30:00 AM 16.18 61.124 0.073 6.95 12.66 8.64
8/18/2021 3:45:00 AM 16.2 61.16 0.073 6.95 11.58 8.65
8/18/2021 4:00:00 AM 16.19 61.142 0.072 6.94 10.95 8.66
8/18/2021 4:15:00 AM 16.18 61.124 0.071 6.93 10.43 8.67
8/18/2021 4:30:00 AM 16.16 61.088 0.071 6.93 11.4 8.67
8/18/2021 4:45:00 AM 16.15 61.07 0.072 6.93 12.15 8.68
8/18/2021 5:00:00 AM 16.13 61.034 0.073 6.95 11.74 8.68
8/18/2021 5:15:00 AM 16.12 61.016 0.074 6.95 11.57 8.69
8/18/2021 5:30:00 AM 16.11 60.998 0.074 6.96 10.75 8.7
8/18/2021 5:45:00 AM 16.1 60.98 0.074 6.97 9.3 8.71
8/18/2021 6:00:00 AM 16.12 61.016 0.074 6.97 8.77 8.72
8/18/2021 6:15:00 AM 16.13 61.034 0.073 6.97 8.51 8.72
8/18/2021 6:30:00 AM 16.13 61.034 0.073 6.98 8.48 8.72
8/18/2021 6:45:00 AM 16.11 60.998 0.073 6.96 8.98 8.72
8/18/2021 7:00:00 AM 16.09 60.962 0.073 6.96 7.89 8.72
8/18/2021 7:15:00 AM 16.06 60.908 0.073 6.96 7.51 8.74
8/18/2021 7:30:00 AM 16.02 60.836 0.073 6.95 7.8 8.76
8/18/2021 7:45:00 AM 15.98 60.764 0.074 6.94 8.09 8.77
8/18/2021 8:00:00 AM 15.94 60.692 0.075 6.96 9.95 8.8
8/18/2021 8:15:00 AM 15.89 60.602 0.076 6.96 14.21 8.82
8/18/2021 8:30:00 AM 15.86 60.548 0.076 6.97 14.53 8.85
8/18/2021 8:45:00 AM 15.84 60.512 0.077 6.99 15.19 8.87
8/18/2021 9:00:00 AM 15.84 60.512 0.078 7 16.71 8.86
8/18/2021 9:15:00 AM 15.83 60.494 0.078 7.01 23.39 8.88
8/18/2021 9:30:00 AM 15.85 60.53 0.077 7.03 21.6 8.87
8/18/2021 9:45:00 AM 15.91 60.638 0.075 7.06 19.55 8.88
8/18/2021 10:00:00 AM 15.97 60.746 0.074 7.08 16.85 8.88
8/18/2021 10:15:00 AM 16.03 60.854 0.073 7.09 16.35 8.91
8/18/2021 10:30:00 AM 16.05 60.89 0.072 7.09 15.02 8.92
8/18/2021 10:45:00 AM 16.05 60.89 0.072 7.09 13.48 8.93
8/18/2021 11:00:00 AM 16.03 60.854 0.073 7.1 12.73 8.94
8/18/2021 11:15:00 AM 16.01 60.818 0.074 7.1 11.37 8.93
8/18/2021 11:30:00 AM 16 60.8 0.074 7.1 10.88 8.92
8/18/2021 11:45:00 AM 16.01 60.818 0.075 7.11 10.01 8.93
8/18/2021 12:00:00 PM 16.01 60.818 0.076 7.1 10.64 8.91
8/18/2021 12:15:00 PM 16.03 60.854 0.076 7.1 10.15 8.91
8/18/2021 12:30:00 PM 16.05 60.89 0.077 7.1 10.26 8.89
8/18/2021 12:45:00 PM 16.07 60.926 0.077 7.11 10.1 8.88
8/18/2021 1:00:00 PM 16.08 60.944 0.076 7.09 9.86 8.87
8/18/2021 1:15:00 PM 16.13 61.034 0.076 7.1 9.35 8.85
8/18/2021 1:30:00 PM 16.15 61.07 0.076 7.08 9 8.83
8/18/2021 1:45:00 PM 16.18 61.124 0.076 7.08 9.03 8.8
8/18/2021 2:00:00 PM 16.21 61.178 0.076 7.07 8.5 8.79
8/18/2021 2:15:00 PM 16.24 61.232 0.076 7.08 9.6 8.76
8/18/2021 2:30:00 PM 16.28 61.304 0.076 7.07 10.6 8.75
8/18/2021 2:45:00 PM 16.35 61.43 0.076 7.07 12.15 8.73
8/18/2021 3:00:00 PM 16.41 61.538 0.076 7.05 14.38 8.7
8/18/2021 3:15:00 PM 16.48 61.664 0.077 7.05 17 8.67
8/18/2021 3:30:00 PM 16.56 61.808 0.077 7.04 19.67 8.64
8/18/2021 3:45:00 PM 16.65 61.97 0.077 7.03 25.46 8.59
8/18/2021 4:00:00 PM 16.71 62.078 0.077 7.01 31.15 8.56
8/18/2021 4:15:00 PM 16.76 62.168 0.076 7 32.05 8.54
8/18/2021 4:30:00 PM 16.81 62.258 0.075 6.99 44.89 8.53
8/18/2021 4:45:00 PM 16.87 62.366 0.074 7 38.35 8.52
8/18/2021 5:00:00 PM 16.9 62.42 0.072 6.99 59.69 8.52
8/18/2021 5:15:00 PM 16.92 62.456 0.071 6.98 66.76 8.52
8/18/2021 5:30:00 PM 16.94 62.492 0.069 6.96 90.2 8.52
8/18/2021 5:45:00 PM 16.94 62.492 0.067 6.91 85.29 8.53
8/18/2021 6:00:00 PM 16.94 62.492 0.064 6.9 69.43 8.55
8/18/2021 6:15:00 PM 16.95 62.51 0.061 6.92 80.23 8.54
8/18/2021 6:30:00 PM 16.97 62.546 0.059 6.9 91.17 8.53
8/18/2021 6:45:00 PM 17.03 62.654 0.056 6.89 113.63 8.52
8/18/2021 7:00:00 PM 17.15 62.87 0.053 6.88 109.73 8.48
8/18/2021 7:15:00 PM 17.27 63.086 0.05 6.84 125.92 8.43
8/18/2021 7:30:00 PM 17.36 63.248 0.047 6.8 139.87 8.41
8/18/2021 7:45:00 PM 17.43 63.374 0.044 6.74 197.44 8.41
8/18/2021 8:00:00 PM 17.49 63.482 0.042 6.71 209.58 8.4
8/18/2021 8:15:00 PM 17.53 63.554 0.041 6.68 207.36 8.37
8/18/2021 8:30:00 PM 17.54 63.572 0.041 6.67 191.57 8.37
8/18/2021 8:45:00 PM 17.51 63.518 0.041 6.65 170.26 8.37
8/18/2021 9:00:00 PM 17.46 63.428 0.04 6.66 133.51 8.38
8/18/2021 9:15:00 PM 17.4 63.32 0.04 6.66 123 8.4
8/18/2021 9:30:00 PM 17.34 63.212 0.039 6.66 119.75 8.41
8/18/2021 9:45:00 PM 17.27 63.086 0.039 6.63 121.19 8.44
8/18/2021 10:00:00 PM 17.2 62.96 0.038 6.6 134.12 8.45
8/18/2021 10:15:00 PM 17.17 62.906 0.037 6.59 174.14 8.45
8/18/2021 10:30:00 PM 17.15 62.87 0.036 6.56 194.3 8.45
8/18/2021 10:45:00 PM 17.12 62.816 0.035 6.51 213.45 8.46
8/18/2021 11:00:00 PM 17.05 62.69 0.035 6.52 185.49 8.47
8/18/2021 11:15:00 PM 16.96 62.528 0.035 6.47 174.16 8.49
8/18/2021 11:30:00 PM 16.85 62.33 0.035 6.49 154.27 8.51
8/18/2021 11:45:00 PM 16.73 62.114 0.036 6.49 136.33 8.53
8/19/2021 12:00:00 AM 16.59 61.862 0.036 6.5 121.68 8.56
8/19/2021 12:15:00 AM 16.45 61.61 0.036 6.5 104.03 8.59
8/19/2021 12:30:00 AM 16.31 61.358 0.036 6.52 96.69 8.61
8/19/2021 12:45:00 AM 16.16 61.088 0.036 6.53 83.37 8.65
8/19/2021 1:00:00 AM 16.01 60.818 0.036 6.53 77.99 8.68
8/19/2021 1:15:00 AM 15.87 60.566 0.037 6.54 82.52 8.72
8/19/2021 1:30:00 AM 15.73 60.314 0.037 6.53 75.04 8.76
8/19/2021 1:45:00 AM 15.59 60.062 0.037 6.55 67.3 8.79
8/19/2021 2:00:00 AM 15.45 59.81 0.037 6.55 67.38 8.83
8/19/2021 2:15:00 AM 15.33 59.594 0.037 6.55 56.02 8.85
8/19/2021 2:30:00 AM 15.21 59.378 0.037 6.55 55.12 8.88
8/19/2021 2:45:00 AM 15.1 59.18 0.037 6.56 63.38 8.91
8/19/2021 3:00:00 AM 15 59 0.037 6.57 46.77 8.94
8/19/2021 3:15:00 AM 14.9 58.82 0.037 6.58 74.45 8.96
8/19/2021 3:30:00 AM 14.81 58.658 0.037 6.58 38.3 8.99
8/19/2021 3:45:00 AM 14.71 58.478 0.037 6.6 40.89 9.01
8/19/2021 4:00:00 AM 14.63 58.334 0.038 6.6 39.01 9.04
8/19/2021 4:15:00 AM 14.54 58.172 0.038 6.6 40.85 9.06
8/19/2021 4:30:00 AM 14.46 58.028 0.038 6.59 57.63 9.08
8/19/2021 4:45:00 AM 14.38 57.884 0.038 6.6 38.77 9.09
8/19/2021 5:00:00 AM 14.3 57.74 0.038 6.59 32.41 9.11
8/19/2021 5:15:00 AM 14.23 57.614 0.038 6.6 30.18 9.13
8/19/2021 5:30:00 AM 14.16 57.488 0.038 6.6 25.38 9.16
8/19/2021 5:45:00 AM 14.09 57.362 0.038 6.6 23.03 9.17
8/19/2021 6:00:00 AM 14.03 57.254 0.038 6.61 28.61 9.19
8/19/2021 6:15:00 AM 13.98 57.164 0.038 6.62 29.62 9.2
8/19/2021 6:30:00 AM 13.92 57.056 0.038 6.61 31.02 9.21
8/19/2021 6:45:00 AM 13.88 56.984 0.038 6.62 30.45 9.23
8/19/2021 7:00:00 AM 13.83 56.894 0.038 6.61 28.89 9.24
8/19/2021 7:15:00 AM 13.79 56.822 0.038 6.62 26.42 9.26
8/19/2021 7:30:00 AM 13.76 56.768 0.038 6.62 30.84 9.27
8/19/2021 7:45:00 AM 13.72 56.696 0.038 6.63 24.48 9.29
8/19/2021 8:00:00 AM 13.7 56.66 0.038 6.64 31.44 9.3
8/19/2021 8:15:00 AM 13.67 56.606 0.038 6.65 22.13 9.32
8/19/2021 8:30:00 AM 13.64 56.552 0.039 6.66 25.59 9.33
8/19/2021 8:45:00 AM 13.63 56.534 0.039 6.65 23.32 9.35
8/19/2021 9:00:00 AM 13.61 56.498 0.039 6.65 21.27 9.37
8/19/2021 9:15:00 AM 13.6 56.48 0.039 6.67 22.85 9.36
8/19/2021 9:30:00 AM 13.58 56.444 0.039 6.69 20.62 9.37
8/19/2021 9:45:00 AM 13.57 56.426 0.039 6.68 18.96 9.39
8/19/2021 10:00:00 AM 13.56 56.408 0.039 6.7 19.54 9.38
8/19/2021 10:15:00 AM 13.56 56.408 0.039 6.71 20.67 9.4
8/19/2021 10:30:00 AM 13.55 56.39 0.039 6.72 18.98 9.41
8/19/2021 10:45:00 AM 13.54 56.372 0.039 6.72 44.87 9.42
8/19/2021 11:00:00 AM 13.54 56.372 0.039 6.73 20.93 9.43
8/19/2021 11:15:00 AM 13.53 56.354 0.039 6.72 17.12 9.43
8/19/2021 11:30:00 AM 13.52 56.336 0.039 6.73 20.48 9.44
8/19/2021 11:45:00 AM 13.5 56.3 0.039 6.73 22.94 9.44
8/19/2021 12:00:00 PM 13.56 56.408 0.039 6.75 24.86 9.45
8/19/2021 12:15:00 PM 13.61 56.498 0.039 6.76 14.99 9.46
8/19/2021 12:30:00 PM 13.61 56.498 0.039 6.75 17.38 9.45
8/19/2021 12:45:00 PM 13.58 56.444 0.039 6.75 14.55 9.46
8/19/2021 1:00:00 PM 13.58 56.444 0.039 6.75 17.38 9.45
8/19/2021 1:15:00 PM 13.59 56.462 0.039 6.75 21.92 9.46
8/19/2021 1:30:00 PM 13.64 56.552 0.039 6.77 17.28 9.46
8/19/2021 1:45:00 PM 13.72 56.696 0.039 6.78 17.75 9.46
8/19/2021 2:00:00 PM 13.72 56.696 0.039 6.77 16.76 9.45
8/19/2021 2:15:00 PM 13.75 56.75 0.039 6.78 22.1 9.45
8/19/2021 2:30:00 PM 13.77 56.786 0.039 6.78 27.31 9.45
8/19/2021 2:45:00 PM 13.77 56.786 0.039 6.78 16.87 9.44
8/19/2021 3:00:00 PM 13.75 56.75 0.039 6.77 16.8 9.43
8/19/2021 3:15:00 PM 13.74 56.732 0.039 6.75 24.41 9.44
8/19/2021 3:30:00 PM 13.7 56.66 0.039 6.77 15.05 9.43
8/19/2021 3:45:00 PM 13.66 56.588 0.039 6.77 17.56 9.43
8/19/2021 4:00:00 PM 13.64 56.552 0.039 6.77 24.61 9.42
8/19/2021 4:15:00 PM 13.66 56.588 0.039 6.77 15.27 9.43
8/19/2021 4:30:00 PM 13.69 56.642 0.039 6.78 21.47 9.44
8/19/2021 4:45:00 PM 13.72 56.696 0.039 6.77 13.73 9.44
8/19/2021 5:00:00 PM 13.67 56.606 0.039 6.77 17.45 9.44
8/19/2021 5:15:00 PM 13.64 56.552 0.039 6.77 13.57 9.45
8/19/2021 5:30:00 PM 13.63 56.534 0.039 6.76 17.13 9.45
8/19/2021 5:45:00 PM 13.56 56.408 0.04 6.75 15.02 9.45
8/19/2021 6:00:00 PM 13.5 56.3 0.04 6.75 16.64 9.45
8/19/2021 6:15:00 PM 13.44 56.192 0.04 6.75 16.64 9.45
8/19/2021 6:30:00 PM 13.39 56.102 0.04 6.74 17.23 9.46
8/19/2021 6:45:00 PM 13.33 55.994 0.04 6.72 13.93 9.47
8/19/2021 7:00:00 PM 13.27 55.886 0.04 6.73 15.82 9.47
8/19/2021 7:15:00 PM 13.21 55.778 0.04 6.72 15.79 9.48
8/19/2021 7:30:00 PM 13.16 55.688 0.04 6.71 14.26 9.48
8/19/2021 7:45:00 PM 13.1 55.58 0.04 6.71 19.03 9.49
8/19/2021 8:00:00 PM 13.05 55.49 0.04 6.7 16.22 9.49
8/19/2021 8:15:00 PM 13 55.4 0.04 6.7 16.8 9.49
8/19/2021 8:30:00 PM 12.96 55.328 0.04 6.7 15.9 9.5
8/19/2021 8:45:00 PM 12.91 55.238 0.04 6.66 14.52 9.5
8/19/2021 9:00:00 PM 12.86 55.148 0.04 6.68 16.61 9.51
8/19/2021 9:15:00 PM 12.82 55.076 0.04 6.68 14.54 9.53
8/19/2021 9:30:00 PM 12.78 55.004 0.04 6.66 16.22 9.53
8/19/2021 9:45:00 PM 12.75 54.95 0.04 6.66 16.21 9.55
8/19/2021 10:00:00 PM 12.71 54.878 0.04 6.66 16.44 9.55
8/19/2021 10:15:00 PM 12.67 54.806 0.04 6.64 11.78 9.56
8/19/2021 10:30:00 PM 12.64 54.752 0.04 6.67 14.05 9.57
8/19/2021 10:45:00 PM 12.61 54.698 0.04 6.63 15.79 9.58
8/19/2021 11:00:00 PM 12.58 54.644 0.04 6.65 14.47 9.59
8/19/2021 11:15:00 PM 12.55 54.59 0.04 6.66 13.24 9.59
8/19/2021 11:30:00 PM 12.52 54.536 0.041 6.67 14.76 9.6
8/19/2021 11:45:00 PM 12.49 54.482 0.04 6.67 13.51 9.61
8/20/2021 12:00:00 AM 12.47 54.446 0.041 6.67 12.79 9.61
8/20/2021 12:15:00 AM 12.44 54.392 0.041 6.67 14.9 9.62
8/20/2021 12:30:00 AM 12.42 54.356 0.041 6.62 12.98 9.63
8/20/2021 12:45:00 AM 12.39 54.302 0.041 6.67 12.37 9.63
8/20/2021 1:00:00 AM 12.37 54.266 0.041 6.68 13.32 9.64
8/20/2021 1:15:00 AM 12.34 54.212 0.041 6.62 13.77 9.64
8/20/2021 1:30:00 AM 12.32 54.176 0.041 6.67 13.07 9.65
8/20/2021 1:45:00 AM 12.3 54.14 0.041 6.63 12.49 9.66
8/20/2021 2:00:00 AM 12.27 54.086 0.041 6.66 13.92 9.66
8/20/2021 2:15:00 AM 12.25 54.05 0.041 6.67 12.25 9.67
8/20/2021 2:30:00 AM 12.23 54.014 0.041 6.65 12.38 9.67
8/20/2021 2:45:00 AM 12.21 53.978 0.041 6.67 12.62 9.67
8/20/2021 3:00:00 AM 12.19 53.942 0.041 6.66 13.18 9.68
8/20/2021 3:15:00 AM 12.17 53.906 0.041 6.64 14.71 9.68
8/20/2021 3:30:00 AM 12.15 53.87 0.041 6.65 12.96 9.69
8/20/2021 3:45:00 AM 12.13 53.834 0.041 6.66 13.19 9.69
8/20/2021 4:00:00 AM 12.12 53.816 0.041 6.64 12.88 9.69
8/20/2021 4:15:00 AM 12.1 53.78 0.041 6.67 12.79 9.7
8/20/2021 4:30:00 AM 12.09 53.762 0.041 6.64 12.97 9.71
8/20/2021 4:45:00 AM 12.07 53.726 0.041 6.67 13.01 9.71
8/20/2021 5:00:00 AM 12.05 53.69 0.041 6.66 12.27 9.72
8/20/2021 5:15:00 AM 12.03 53.654 0.041 6.66 12.88 9.71
8/20/2021 5:30:00 AM 12.02 53.636 0.041 6.68 11.97 9.72
8/20/2021 5:45:00 AM 12 53.6 0.041 6.66 12.8 9.72
8/20/2021 6:00:00 AM 11.99 53.582 0.041 6.67 12.26 9.72
8/20/2021 6:15:00 AM 11.97 53.546 0.041 6.66 12.89 9.73
8/20/2021 6:30:00 AM 11.96 53.528 0.041 6.65 12.4 9.73
8/20/2021 6:45:00 AM 11.95 53.51 0.041 6.66 12.15 9.74
8/20/2021 7:00:00 AM 11.94 53.492 0.041 6.67 11.31 9.74
8/20/2021 7:15:00 AM 11.93 53.474 0.041 6.66 11.48 9.75
8/20/2021 7:30:00 AM 11.91 53.438 0.041 6.65 11.29 9.76
8/20/2021 7:45:00 AM 11.9 53.42 0.041 6.68 11.8 9.76
8/20/2021 8:00:00 AM 11.89 53.402 0.041 6.67 10.43 9.78
8/20/2021 8:15:00 AM 11.89 53.402 0.041 6.67 11.63 9.78
8/20/2021 8:30:00 AM 11.88 53.384 0.041 6.7 10.02 9.79
8/20/2021 8:45:00 AM 11.89 53.402 0.041 6.72 9.91 9.81
8/20/2021 9:00:00 AM 11.9 53.42 0.041 6.73 11.08 9.82
8/20/2021 9:15:00 AM 11.91 53.438 0.041 6.73 10.77 9.83
8/20/2021 9:30:00 AM 11.92 53.456 0.041 6.75 10.55 9.84
8/20/2021 9:45:00 AM 11.97 53.546 0.041 6.75 10.38 9.85
8/20/2021 10:00:00 AM 12.02 53.636 0.041 6.76 10.21 9.85
8/20/2021 10:15:00 AM 12.06 53.708 0.041 6.78 10.25 9.85
8/20/2021 10:30:00 AM 12.09 53.762 0.041 6.76 11.05 9.85
8/20/2021 10:45:00 AM 12.12 53.816 0.041 6.79 10.37 9.85
8/20/2021 11:00:00 AM 12.16 53.888 0.041 6.8 9.44 9.84
8/20/2021 11:15:00 AM 12.19 53.942 0.041 6.79 10.38 9.83
8/20/2021 11:30:00 AM 12.22 53.996 0.041 6.8 11.3 9.82
8/20/2021 11:45:00 AM 12.25 54.05 0.041 6.81 9.17 9.82
8/20/2021 12:00:00 PM 12.32 54.176 0.041 6.8 10.49 9.81
8/20/2021 12:15:00 PM 12.4 54.32 0.041 6.83 9.29 9.8
8/20/2021 12:30:00 PM 12.46 54.428 0.041 6.83 13.19 9.78
8/20/2021 12:45:00 PM 12.48 54.464 0.041 6.83 9.95 9.77
8/20/2021 1:00:00 PM 12.56 54.608 0.041 6.84 9.09 9.76
8/20/2021 1:15:00 PM 12.67 54.806 0.041 6.85 9.8 9.75
8/20/2021 1:30:00 PM 12.75 54.95 0.041 6.85 9.69 9.72
8/20/2021 1:45:00 PM 12.89 55.202 0.041 6.84 9.26 9.7
8/20/2021 2:00:00 PM 12.9 55.22 0.041 6.84 9.98 9.68
8/20/2021 2:15:00 PM 12.93 55.274 0.041 6.84 9.26 9.68
8/20/2021 2:30:00 PM 13.05 55.49 0.041 6.86 9.48 9.65
8/20/2021 2:45:00 PM 13.05 55.49 0.041 6.85 9.43 9.64
8/20/2021 3:00:00 PM 13.08 55.544 0.041 6.85 9.35 9.61
8/20/2021 3:15:00 PM 13.04 55.472 0.041 6.82 9.36 9.61
8/20/2021 3:30:00 PM 13.04 55.472 0.041 6.82 9.47 9.61
8/20/2021 3:45:00 PM 13.04 55.472 0.041 6.85 9.62 9.61
8/20/2021 4:00:00 PM 13.07 55.526 0.041 6.85 9.65 9.62
8/20/2021 4:15:00 PM 13.13 55.634 0.041 6.86 11.03 9.63
8/20/2021 4:30:00 PM 13.12 55.616 0.041 6.86 8.86 9.63
8/20/2021 4:45:00 PM 13.07 55.526 0.041 6.85 9.7 9.61
8/20/2021 5:00:00 PM 13 55.4 0.041 6.86 9.74 9.62
8/20/2021 5:15:00 PM 12.98 55.364 0.041 6.85 9.47 9.63
8/20/2021 5:30:00 PM 12.94 55.292 0.041 6.84 9.11 9.63
8/20/2021 5:45:00 PM 12.9 55.22 0.041 6.84 8.96 9.64
8/20/2021 6:00:00 PM 12.87 55.166 0.041 6.83 9.15 9.64
8/20/2021 6:15:00 PM 12.83 55.094 0.041 6.82 8.95 9.64
8/20/2021 6:30:00 PM 12.78 55.004 0.041 6.82 8.44 9.63
8/20/2021 6:45:00 PM 12.72 54.896 0.041 6.83 8.68 9.62
8/20/2021 7:00:00 PM 12.67 54.806 0.041 6.81 8.81 9.62
8/20/2021 7:15:00 PM 12.62 54.716 0.041 6.81 8.57 9.62
8/20/2021 7:30:00 PM 12.57 54.626 0.041 6.79 8.47 9.62
8/20/2021 7:45:00 PM 12.53 54.554 0.041 6.79 9.19 9.63
8/20/2021 8:00:00 PM 12.48 54.464 0.041 6.79 8.56 9.63
8/20/2021 8:15:00 PM 12.44 54.392 0.041 6.77 8.93 9.63
8/20/2021 8:30:00 PM 12.4 54.32 0.041 6.77 8.44 9.63
8/20/2021 8:45:00 PM 12.36 54.248 0.041 6.74 9.03 9.64
8/20/2021 9:00:00 PM 12.32 54.176 0.041 6.76 8.67 9.65
8/20/2021 9:15:00 PM 12.29 54.122 0.041 6.76 8.14 9.65
8/20/2021 9:30:00 PM 12.25 54.05 0.042 6.76 7.84 9.66
8/20/2021 9:45:00 PM 12.22 53.996 0.041 6.75 8.94 9.67
8/20/2021 10:00:00 PM 12.2 53.96 0.041 6.73 8.71 9.67
8/20/2021 10:15:00 PM 12.18 53.924 0.041 6.74 8.83 9.68
8/20/2021 10:30:00 PM 12.16 53.888 0.041 6.74 8.97 9.68
8/20/2021 10:45:00 PM 12.14 53.852 0.042 6.75 8.21 9.69
8/20/2021 11:00:00 PM 12.12 53.816 0.042 6.75 8.11 9.69
8/20/2021 11:15:00 PM 12.11 53.798 0.042 6.75 8.68 9.7
8/20/2021 11:30:00 PM 12.1 53.78 0.041 6.73 9.02 9.7
8/20/2021 11:45:00 PM 12.09 53.762 0.041 6.76 8.01 9.7
8/21/2021 12:00:00 AM 12.08 53.744 0.042 6.76 8.04 9.7
8/21/2021 12:15:00 AM 12.06 53.708 0.041 6.77 7.84 9.71
8/21/2021 12:30:00 AM 12.05 53.69 0.041 6.75 8.69 9.71
8/21/2021 12:45:00 AM 12.04 53.672 0.041 6.76 7.7 9.72
8/21/2021 1:00:00 AM 12.03 53.654 0.041 6.78 7.26 9.72
8/21/2021 1:15:00 AM 12.02 53.636 0.042 6.79 7.84 9.72
8/21/2021 1:30:00 AM 12.01 53.618 0.041 6.75 7.71 9.72
8/21/2021 1:45:00 AM 12 53.6 0.041 6.78 7.92 9.72
8/21/2021 2:00:00 AM 12 53.6 0.041 6.78 7.78 9.72
8/21/2021 2:15:00 AM 11.99 53.582 0.041 6.78 7.58 9.72
8/21/2021 2:30:00 AM 11.98 53.564 0.042 6.77 8.18 9.72
8/21/2021 2:45:00 AM 11.98 53.564 0.042 6.78 7.37 9.72
8/21/2021 3:00:00 AM 11.97 53.546 0.042 6.77 9.09 9.72
8/21/2021 3:15:00 AM 11.96 53.528 0.042 6.76 8.69 9.73
8/21/2021 3:30:00 AM 11.95 53.51 0.042 6.76 8.04 9.73
8/21/2021 3:45:00 AM 11.94 53.492 0.042 6.78 8.41 9.73
8/21/2021 4:00:00 AM 11.92 53.456 0.042 6.77 9.23 9.74
8/21/2021 4:15:00 AM 11.91 53.438 0.042 6.76 8.24 9.74
8/21/2021 4:30:00 AM 11.89 53.402 0.042 6.76 8.33 9.74
8/21/2021 4:45:00 AM 11.88 53.384 0.042 6.77 8.46 9.74
8/21/2021 5:00:00 AM 11.86 53.348 0.042 6.75 8.83 9.75
8/21/2021 5:15:00 AM 11.85 53.33 0.042 6.76 8 9.75
8/21/2021 5:30:00 AM 11.84 53.312 0.042 6.75 8.15 9.75
8/21/2021 5:45:00 AM 11.83 53.294 0.042 6.77 7.72 9.76
8/21/2021 6:00:00 AM 11.82 53.276 0.042 6.76 7.46 9.76
8/21/2021 6:15:00 AM 11.81 53.258 0.042 6.76 7.63 9.76
8/21/2021 6:30:00 AM 11.79 53.222 0.042 6.76 7.36 9.77
8/21/2021 6:45:00 AM 11.79 53.222 0.042 6.77 7.32 9.77
8/21/2021 7:00:00 AM 11.78 53.204 0.042 6.78 7.43 9.78
8/21/2021 7:15:00 AM 11.78 53.204 0.042 6.77 7.7 9.78
8/21/2021 7:30:00 AM 11.78 53.204 0.042 6.77 7.13 9.79
8/21/2021 7:45:00 AM 11.78 53.204 0.042 6.75 7.98 9.79
8/21/2021 8:00:00 AM 11.78 53.204 0.042 6.79 7.42 9.81
8/21/2021 8:15:00 AM 11.8 53.24 0.042 6.8 7.28 9.83
8/21/2021 8:30:00 AM 11.81 53.258 0.042 6.8 6.62 9.84
8/21/2021 8:45:00 AM 11.83 53.294 0.042 6.79 7.62 9.85
8/21/2021 9:00:00 AM 11.86 53.348 0.042 6.81 6.41 9.86
8/21/2021 9:15:00 AM 11.89 53.402 0.042 6.82 6.67 9.87
8/21/2021 9:30:00 AM 11.94 53.492 0.042 6.85 6.59 9.87
8/21/2021 9:45:00 AM 11.98 53.564 0.042 6.86 7.25 9.87
8/21/2021 10:00:00 AM 12.03 53.654 0.042 6.88 8.03 9.87
8/21/2021 10:15:00 AM 12.08 53.744 0.042 6.86 6.85 9.86
8/21/2021 10:30:00 AM 12.14 53.852 0.042 6.9 7.01 9.86
8/21/2021 10:45:00 AM 12.26 54.068 0.042 6.91 6.97 9.85
8/21/2021 11:00:00 AM 12.36 54.248 0.042 6.92 6.96 9.83
8/21/2021 11:15:00 AM 12.42 54.356 0.042 6.92 7.4 9.82
8/21/2021 11:30:00 AM 12.47 54.446 0.042 6.93 6.93 9.81
8/21/2021 11:45:00 AM 12.56 54.608 0.042 6.92 7.28 9.8
8/21/2021 12:00:00 PM 12.67 54.806 0.042 6.94 6.67 9.78
8/21/2021 12:15:00 PM 12.77 54.986 0.042 6.97 7.6 9.77
8/21/2021 12:30:00 PM 12.87 55.166 0.042 6.96 6.84 9.75
8/21/2021 12:45:00 PM 12.95 55.31 0.042 6.98 6.44 9.73
8/21/2021 1:00:00 PM 12.99 55.382 0.042 6.95 7.04 9.72
8/21/2021 1:15:00 PM 13.06 55.508 0.042 6.98 6.72 9.7
8/21/2021 1:30:00 PM 13.17 55.706 0.042 6.97 6.7 9.68
8/21/2021 1:45:00 PM 13.21 55.778 0.042 6.98 7.14 9.67
8/21/2021 2:00:00 PM 13.25 55.85 0.042 6.98 6.84 9.65
8/21/2021 2:15:00 PM 13.27 55.886 0.042 6.97 7.21 9.63
8/21/2021 2:30:00 PM 13.25 55.85 0.042 6.96 7.11 9.63
8/21/2021 2:45:00 PM 13.23 55.814 0.042 6.95 6.78 9.62
8/21/2021 3:00:00 PM 13.25 55.85 0.042 6.95 7.16 9.62
8/21/2021 3:15:00 PM 13.29 55.922 0.042 6.96 7.66 9.63
8/21/2021 3:30:00 PM 13.35 56.03 0.042 6.98 6.7 9.62
8/21/2021 3:45:00 PM 13.36 56.048 0.042 6.94 7.49 9.61
8/21/2021 4:00:00 PM 13.45 56.21 0.042 6.99 8.1 9.6
8/21/2021 4:15:00 PM 13.45 56.21 0.042 6.96 7.21 9.59
8/21/2021 4:30:00 PM 13.39 56.102 0.042 6.96 6.9 9.58
8/21/2021 4:45:00 PM 13.34 56.012 0.042 6.95 7.18 9.59
8/21/2021 5:00:00 PM 13.31 55.958 0.042 6.92 6.67 9.58
8/21/2021 5:15:00 PM 13.28 55.904 0.042 6.94 6.85 9.56
8/21/2021 5:30:00 PM 13.28 55.904 0.042 6.94 7.15 9.55
8/21/2021 5:45:00 PM 13.35 56.03 0.042 6.95 6.79 9.54
8/21/2021 6:00:00 PM 13.34 56.012 0.042 6.93 7.35 9.52
8/21/2021 6:15:00 PM 13.29 55.922 0.042 6.93 7.91 9.53
8/21/2021 6:30:00 PM 13.24 55.832 0.042 6.92 7.2 9.54
8/21/2021 6:45:00 PM 13.17 55.706 0.042 6.89 6.7 9.54
8/21/2021 7:00:00 PM 13.1 55.58 0.042 6.91 8.23 9.53
8/21/2021 7:15:00 PM 13.04 55.472 0.042 6.88 6.86 9.54
8/21/2021 7:30:00 PM 12.96 55.328 0.042 6.89 7.91 9.55
8/21/2021 7:45:00 PM 12.88 55.184 0.042 6.87 7.41 9.56
8/21/2021 8:00:00 PM 12.82 55.076 0.042 6.86 6.95 9.55
8/21/2021 8:15:00 PM 12.77 54.986 0.043 6.86 7.32 9.55
8/21/2021 8:30:00 PM 12.73 54.914 0.043 6.86 6.75 9.55
8/21/2021 8:45:00 PM 12.69 54.842 0.043 6.82 7.7 9.56
8/21/2021 9:00:00 PM 12.64 54.752 0.043 6.82 6.77 9.57
8/21/2021 9:15:00 PM 12.6 54.68 0.043 6.83 7.66 9.58
8/21/2021 9:30:00 PM 12.56 54.608 0.043 6.82 6.89 9.58
8/21/2021 9:45:00 PM 12.53 54.554 0.043 6.82 7.24 9.59
8/21/2021 10:00:00 PM 12.49 54.482 0.043 6.79 7.58 9.6
8/21/2021 10:15:00 PM 12.46 54.428 0.043 6.79 6.95 9.6
8/21/2021 10:30:00 PM 12.44 54.392 0.043 6.79 7.6 9.61
8/21/2021 10:45:00 PM 12.41 54.338 0.043 6.79 7.28 9.61
8/21/2021 11:00:00 PM 12.39 54.302 0.043 6.79 7.8 9.62
8/21/2021 11:15:00 PM 12.36 54.248 0.043 6.77 8.02 9.63
8/21/2021 11:30:00 PM 12.34 54.212 0.043 6.79 6.59 9.63
8/21/2021 11:45:00 PM 12.32 54.176 0.043 6.78 6.91 9.64
8/22/2021 12:00:00 AM 12.29 54.122 0.043 6.79 8.03 9.64
8/22/2021 12:15:00 AM 12.27 54.086 0.043 6.79 7.36 9.65
8/22/2021 12:30:00 AM 12.24 54.032 0.043 6.79 6.54 9.66
8/22/2021 12:45:00 AM 12.22 53.996 0.043 6.77 7.63 9.66
8/22/2021 1:00:00 AM 12.2 53.96 0.043 6.8 7.9 9.67
8/22/2021 1:15:00 AM 12.18 53.924 0.043 6.81 8.32 9.67
8/22/2021 1:30:00 AM 12.16 53.888 0.043 6.8 7.17 9.67
8/22/2021 1:45:00 AM 12.15 53.87 0.043 6.8 7.88 9.68
8/22/2021 2:00:00 AM 12.13 53.834 0.043 6.77 6.85 9.68
8/22/2021 2:15:00 AM 12.12 53.816 0.043 6.81 7.31 9.69
8/22/2021 2:30:00 AM 12.11 53.798 0.043 6.79 8.54 9.69
8/22/2021 2:45:00 AM 12.1 53.78 0.043 6.8 6.52 9.69
8/22/2021 3:00:00 AM 12.09 53.762 0.043 6.82 7.93 9.69
8/22/2021 3:15:00 AM 12.08 53.744 0.043 6.83 8.6 9.7
8/22/2021 3:30:00 AM 12.07 53.726 0.043 6.82 7.52 9.7
8/22/2021 3:45:00 AM 12.05 53.69 0.043 6.84 7.72 9.7
8/22/2021 4:00:00 AM 12.03 53.654 0.043 6.82 6.66 9.71
8/22/2021 4:15:00 AM 12 53.6 0.043 6.83 8.57 9.71
8/22/2021 4:30:00 AM 11.99 53.582 0.043 6.85 8.18 9.71
8/22/2021 4:45:00 AM 11.97 53.546 0.043 6.82 7.31 9.72
8/22/2021 5:00:00 AM 11.95 53.51 0.043 6.82 8.85 9.73
8/22/2021 5:15:00 AM 11.93 53.474 0.043 6.82 7.74 9.73
8/22/2021 5:30:00 AM 11.91 53.438 0.043 6.79 7.48 9.74
8/22/2021 5:45:00 AM 11.89 53.402 0.043 6.82 8.1 9.74
8/22/2021 6:00:00 AM 11.87 53.366 0.043 6.8 10.71 9.75
8/22/2021 6:15:00 AM 11.86 53.348 0.043 6.79 8.25 9.75
8/22/2021 6:30:00 AM 11.84 53.312 0.043 6.79 8.5 9.75
8/22/2021 6:45:00 AM 11.83 53.294 0.043 6.78 7.74 9.76
8/22/2021 7:00:00 AM 11.83 53.294 0.043 6.83 6.95 9.77
8/22/2021 7:15:00 AM 11.83 53.294 0.043 6.79 7.65 9.79
8/22/2021 7:30:00 AM 11.83 53.294 0.043 6.83 7.39 9.8
8/22/2021 7:45:00 AM 11.84 53.312 0.043 6.81 7.71 9.82
8/22/2021 8:00:00 AM 11.87 53.366 0.043 6.83 8.14 9.84
8/22/2021 8:15:00 AM 11.9 53.42 0.043 6.85 8.61 9.84
8/22/2021 8:30:00 AM 11.91 53.438 0.043 6.84 7.91 9.85
8/22/2021 8:45:00 AM 11.94 53.492 0.043 6.86 7.91 9.85
8/22/2021 9:00:00 AM 11.95 53.51 0.043 6.85 6.84 9.85
8/22/2021 9:15:00 AM 11.98 53.564 0.043 6.86 5.5 9.85
8/22/2021 9:30:00 AM 12.05 53.69 0.043 6.88 7.36 9.86
8/22/2021 9:45:00 AM 12.11 53.798 0.043 6.9 7.86 9.86
8/22/2021 10:00:00 AM 12.16 53.888 0.043 6.88 8.77 9.85
8/22/2021 10:15:00 AM 12.22 53.996 0.043 6.92 8.5 9.85
8/22/2021 10:30:00 AM 12.33 54.194 0.043 6.94 9.46 9.85
8/22/2021 10:45:00 AM 12.39 54.302 0.043 6.94 7.31 9.83
8/22/2021 11:00:00 AM 12.44 54.392 0.043 6.96 5.97 9.83
8/22/2021 11:15:00 AM 12.58 54.644 0.043 6.97 6.22 9.81
8/22/2021 11:30:00 AM 12.74 54.932 0.043 6.99 8.19 9.78
8/22/2021 11:45:00 AM 12.88 55.184 0.043 6.98 9.01 9.76
8/22/2021 12:00:00 PM 12.96 55.328 0.043 6.99 8.08 9.74
8/22/2021 12:15:00 PM 13.06 55.508 0.043 7 7.8 9.71
8/22/2021 12:30:00 PM 13.15 55.67 0.043 7 8.07 9.69
8/22/2021 12:45:00 PM 13.33 55.994 0.043 7.02 6.14 9.66
8/22/2021 1:00:00 PM 13.42 56.156 0.043 7.01 8.13 9.64
8/22/2021 1:15:00 PM 13.44 56.192 0.043 7.02 6.23 9.63
8/22/2021 1:30:00 PM 13.51 56.318 0.043 7 5.86 9.63
8/22/2021 1:45:00 PM 13.6 56.48 0.043 7.04 6.05 9.6
8/22/2021 2:00:00 PM 13.62 56.516 0.043 7 8.81 9.59
8/22/2021 2:15:00 PM 13.61 56.498 0.043 7 7.67 9.57
8/22/2021 2:30:00 PM 13.61 56.498 0.043 7.01 7.33 9.56
8/22/2021 2:45:00 PM 13.58 56.444 0.043 7 9.18 9.55
8/22/2021 3:00:00 PM 13.53 56.354 0.043 6.99 8.55 9.56
8/22/2021 3:15:00 PM 13.51 56.318 0.043 6.96 7.06 9.55
8/22/2021 3:30:00 PM 13.47 56.246 0.043 6.99 8.41 9.54
8/22/2021 3:45:00 PM 13.42 56.156 0.043 6.96 9.17 9.53
8/22/2021 4:00:00 PM 13.35 56.03 0.043 6.95 5.36 9.54
8/22/2021 4:15:00 PM 13.29 55.922 0.043 6.95 7.92 9.54
8/22/2021 4:30:00 PM 13.26 55.868 0.043 6.93 5.34 9.56
8/22/2021 4:45:00 PM 13.24 55.832 0.043 6.94 5.82 9.56
8/22/2021 5:00:00 PM 13.22 55.796 0.043 6.94 6.87 9.57
8/22/2021 5:15:00 PM 13.18 55.724 0.043 6.92 6.14 9.58
8/22/2021 5:30:00 PM 13.16 55.688 0.043 6.91 7.87 9.59
8/22/2021 5:45:00 PM 13.13 55.634 0.043 6.93 8.12 9.6
8/22/2021 6:00:00 PM 13.09 55.562 0.043 6.93 5.05 9.6
8/22/2021 6:15:00 PM 13.05 55.49 0.043 6.93 8.24 9.6
8/22/2021 6:30:00 PM 13.01 55.418 0.043 6.94 6.9 9.59
8/22/2021 6:45:00 PM 12.97 55.346 0.043 6.9 6.58 9.58
8/22/2021 7:00:00 PM 12.96 55.328 0.043 6.93 6.87 9.56
8/22/2021 7:15:00 PM 12.94 55.292 0.043 6.91 7.45 9.55
8/22/2021 7:30:00 PM 12.9 55.22 0.043 6.9 7.96 9.55
8/22/2021 7:45:00 PM 12.88 55.184 0.043 6.9 8.31 9.54
8/22/2021 8:00:00 PM 12.85 55.13 0.043 6.92 8.88 9.54
8/22/2021 8:15:00 PM 12.82 55.076 0.043 6.92 6.67 9.54
8/22/2021 8:30:00 PM 12.79 55.022 0.043 6.89 7.4 9.54
8/22/2021 8:45:00 PM 12.77 54.986 0.043 6.89 6.2 9.53
8/22/2021 9:00:00 PM 12.78 55.004 0.043 6.86 8.17 9.53
8/22/2021 9:15:00 PM 12.79 55.022 0.043 6.88 7.94 9.52
8/22/2021 9:30:00 PM 12.79 55.022 0.043 6.88 8.1 9.52
8/22/2021 9:45:00 PM 12.78 55.004 0.043 6.85 7.62 9.52
8/22/2021 10:00:00 PM 12.75 54.95 0.044 6.83 6.43 9.52
8/22/2021 10:15:00 PM 12.72 54.896 0.044 6.87 7.31 9.53
8/22/2021 10:30:00 PM 12.69 54.842 0.044 6.85 6.76 9.54
8/22/2021 10:45:00 PM 12.65 54.77 0.044 6.83 7.71 9.55
8/22/2021 11:00:00 PM 12.62 54.716 0.044 6.82 7.53 9.55
8/22/2021 11:15:00 PM 12.59 54.662 0.044 6.84 5.29 9.56
8/22/2021 11:30:00 PM 12.57 54.626 0.044 6.83 6.25 9.56
8/22/2021 11:45:00 PM 12.55 54.59 0.044 6.82 6.7 9.57
8/23/2021 12:00:00 AM 12.54 54.572 0.044 6.81 7.3 9.57
8/23/2021 12:15:00 AM 12.52 54.536 0.044 6.81 6.46 9.57
8/23/2021 12:30:00 AM 12.51 54.518 0.044 6.83 8.35 9.57
8/23/2021 12:45:00 AM 12.49 54.482 0.044 6.83 8.92 9.57
8/23/2021 1:00:00 AM 12.48 54.464 0.044 6.84 6.85 9.58
8/23/2021 1:15:00 AM 12.47 54.446 0.044 6.83 6.69 9.58
8/23/2021 1:30:00 AM 12.46 54.428 0.044 6.85 7.13 9.59
8/23/2021 1:45:00 AM 12.44 54.392 0.044 6.84 7.22 9.59
8/23/2021 2:00:00 AM 12.42 54.356 0.044 6.86 7.68 9.6
8/23/2021 2:15:00 AM 12.4 54.32 0.044 6.87 6.87 9.59
8/23/2021 2:30:00 AM 12.38 54.284 0.044 6.87 7.65 9.6
8/23/2021 2:45:00 AM 12.37 54.266 0.044 6.86 6.7 9.6
8/23/2021 3:00:00 AM 12.35 54.23 0.044 6.85 6.86 9.6
8/23/2021 3:15:00 AM 12.34 54.212 0.044 6.86 7.15 9.61
8/23/2021 3:30:00 AM 12.34 54.212 0.044 6.86 7.06 9.61
8/23/2021 3:45:00 AM 12.33 54.194 0.044 6.86 7.86 9.61
8/23/2021 4:00:00 AM 12.33 54.194 0.044 6.85 6.07 9.61
8/23/2021 4:15:00 AM 12.33 54.194 0.044 6.84 6.81 9.61
8/23/2021 4:30:00 AM 12.33 54.194 0.044 6.86 6.72 9.61
8/23/2021 4:45:00 AM 12.33 54.194 0.044 6.86 6.08 9.62
8/23/2021 5:00:00 AM 12.33 54.194 0.044 6.85 6.01 9.61
8/23/2021 5:15:00 AM 12.33 54.194 0.044 6.86 6.36 9.61
8/23/2021 5:30:00 AM 12.32 54.176 0.044 6.85 5.81 9.61
8/23/2021 5:45:00 AM 12.31 54.158 0.044 6.84 5.37 9.62
8/23/2021 6:00:00 AM 12.32 54.176 0.044 6.86 6.43 9.61
8/23/2021 6:15:00 AM 12.32 54.176 0.044 6.87 5.98 9.61
8/23/2021 6:30:00 AM 12.32 54.176 0.044 6.84 5.32 9.62
8/23/2021 6:45:00 AM 12.32 54.176 0.044 6.84 5.93 9.62
8/23/2021 7:00:00 AM 12.32 54.176 0.044 6.85 5.17 9.63
8/23/2021 7:15:00 AM 12.33 54.194 0.044 6.84 5.12 9.63
8/23/2021 7:30:00 AM 12.34 54.212 0.044 6.85 5.4 9.63
8/23/2021 7:45:00 AM 12.36 54.248 0.044 6.86 5.19 9.64
8/23/2021 8:00:00 AM 12.37 54.266 0.044 6.87 4.66 9.64
8/23/2021 8:15:00 AM 12.39 54.302 0.044 6.87 5.74 9.66
8/23/2021 8:30:00 AM 12.43 54.374 0.044 6.89 5.53 9.68
8/23/2021 8:45:00 AM 12.46 54.428 0.044 6.88 5.46 9.7
8/23/2021 9:00:00 AM 12.48 54.464 0.044 6.91 5.22 9.69
8/23/2021 9:15:00 AM 12.49 54.482 0.044 6.9 5.89 9.69
8/23/2021 9:30:00 AM 12.49 54.482 0.044 6.91 5.03 9.69
8/23/2021 9:45:00 AM 12.51 54.518 0.044 6.91 5.56 9.69
8/23/2021 10:00:00 AM 12.52 54.536 0.044 6.91 5.08 9.68
8/23/2021 10:15:00 AM 12.54 54.572 0.044 6.91 4.9 9.68
8/23/2021 10:30:00 AM 12.57 54.626 0.044 6.93 4.72 9.7
8/23/2021 10:45:00 AM 12.6 54.68 0.044 6.93 5.25 9.68
8/23/2021 11:00:00 AM 12.67 54.806 0.043 6.96 4.73 9.69
8/23/2021 11:15:00 AM 12.78 55.004 0.043 6.98 5.07 9.68
8/23/2021 11:30:00 AM 12.84 55.112 0.043 7 5.51 9.69
8/23/2021 11:45:00 AM 12.94 55.292 0.043 6.98 5.23 9.68
8/23/2021 12:00:00 PM 13.14 55.652 0.044 7.01 5.01 9.68
8/23/2021 12:15:00 PM 13.31 55.958 0.044 7.03 4.63 9.65
8/23/2021 12:30:00 PM 13.46 56.228 0.044 7.07 4.88 9.64
8/23/2021 12:45:00 PM 13.64 56.552 0.044 7.08 4.86 9.62
8/23/2021 1:00:00 PM 13.74 56.732 0.044 7.08 4.74 9.58
8/23/2021 1:15:00 PM 13.86 56.948 0.044 7.07 4.96 9.55
8/23/2021 1:30:00 PM 13.88 56.984 0.044 7.05 4.81 9.51
8/23/2021 1:45:00 PM 13.93 57.074 0.044 7.08 5.44 9.51
8/23/2021 2:00:00 PM 14.13 57.434 0.044 7.13 4.92 9.49
8/23/2021 2:15:00 PM 14.36 57.848 0.044 7.13 4.98 9.47
8/23/2021 2:30:00 PM 14.41 57.938 0.044 7.11 5.45 9.44
8/23/2021 2:45:00 PM 14.53 58.154 0.044 7.1 4.74 9.42
8/23/2021 3:00:00 PM 14.67 58.406 0.044 7.12 5.09 9.4
8/23/2021 3:15:00 PM 14.79 58.622 0.044 7.14 5.53 9.38
8/23/2021 3:30:00 PM 14.86 58.748 0.044 7.11 4.44 9.35
8/23/2021 3:45:00 PM 14.88 58.784 0.044 7.14 5.23 9.34
8/23/2021 4:00:00 PM 14.97 58.946 0.044 7.14 4.63 9.32
8/23/2021 4:15:00 PM 14.99 58.982 0.044 7.13 4.61 9.29
8/23/2021 4:30:00 PM 15.04 59.072 0.044 7.12 5.09 9.29
8/23/2021 4:45:00 PM 15.11 59.198 0.044 7.11 4.66 9.27
8/23/2021 5:00:00 PM 15.12 59.216 0.044 7.13 4.79 9.25
8/23/2021 5:15:00 PM 15.1 59.18 0.044 7.12 4.89 9.24
8/23/2021 5:30:00 PM 15.06 59.108 0.044 7.07 5.1 9.23
8/23/2021 5:45:00 PM 15 59 0.044 7.1 4.61 9.23
8/23/2021 6:00:00 PM 14.94 58.892 0.044 7.08 5 9.23
8/23/2021 6:15:00 PM 14.86 58.748 0.044 7.08 5.28 9.22
8/23/2021 6:30:00 PM 14.77 58.586 0.044 7.07 4.87 9.22
8/23/2021 6:45:00 PM 14.66 58.388 0.044 7.05 4.82 9.22
8/23/2021 7:00:00 PM 14.55 58.19 0.044 7.04 5.51 9.22
8/23/2021 7:15:00 PM 14.44 57.992 0.044 7.01 4.37 9.23
8/23/2021 7:30:00 PM 14.34 57.812 0.044 6.99 4.65 9.24
8/23/2021 7:45:00 PM 14.24 57.632 0.044 6.98 4.31 9.25
8/23/2021 8:00:00 PM 14.13 57.434 0.044 6.98 4.38 9.26
8/23/2021 8:15:00 PM 14.03 57.254 0.044 6.97 4.58 9.27
8/23/2021 8:30:00 PM 13.92 57.056 0.044 6.96 4.53 9.28
8/23/2021 8:45:00 PM 13.82 56.876 0.044 6.93 5.42 9.3
8/23/2021 9:00:00 PM 13.72 56.696 0.044 6.94 4.74 9.32
8/23/2021 9:15:00 PM 13.62 56.516 0.044 6.94 4.81 9.34
8/23/2021 9:30:00 PM 13.54 56.372 0.044 6.93 5.01 9.36
8/23/2021 9:45:00 PM 13.46 56.228 0.044 6.9 4.65 9.37
8/23/2021 10:00:00 PM 13.38 56.084 0.044 6.92 5.35 9.39
8/23/2021 10:15:00 PM 13.31 55.958 0.044 6.92 4.91 9.41
8/23/2021 10:30:00 PM 13.24 55.832 0.044 6.92 4.51 9.43
8/23/2021 10:45:00 PM 13.18 55.724 0.044 6.93 4.78 9.44
8/23/2021 11:00:00 PM 13.12 55.616 0.044 6.91 4.55 9.45
8/23/2021 11:15:00 PM 13.07 55.526 0.044 6.93 4.49 9.46
8/23/2021 11:30:00 PM 13.02 55.436 0.044 6.92 4.57 9.48
8/23/2021 11:45:00 PM 12.98 55.364 0.044 6.92 4.72 9.49
8/24/2021 12:00:00 AM 12.94 55.292 0.044 6.92 4.88 9.5
8/24/2021 12:15:00 AM 12.89 55.202 0.044 6.92 4.47 9.51
8/24/2021 12:30:00 AM 12.85 55.13 0.044 6.91 4.68 9.52
8/24/2021 12:45:00 AM 12.81 55.058 0.044 6.92 4.92 9.52
8/24/2021 1:00:00 AM 12.77 54.986 0.044 6.92 4.62 9.53
8/24/2021 1:15:00 AM 12.73 54.914 0.044 6.92 4.9 9.54
8/24/2021 1:30:00 AM 12.7 54.86 0.044 6.92 5.63 9.55
8/24/2021 1:45:00 AM 12.67 54.806 0.044 6.92 4.89 9.56
8/24/2021 2:00:00 AM 12.64 54.752 0.044 6.92 4.5 9.57
8/24/2021 2:15:00 AM 12.6 54.68 0.045 6.93 4.51 9.57
8/24/2021 2:30:00 AM 12.58 54.644 0.045 6.93 4.39 9.58
8/24/2021 2:45:00 AM 12.55 54.59 0.044 6.93 4.67 9.59
8/24/2021 3:00:00 AM 12.52 54.536 0.044 6.93 4.86 9.59
8/24/2021 3:15:00 AM 12.5 54.5 0.045 6.93 4.92 9.6
8/24/2021 3:30:00 AM 12.47 54.446 0.045 6.93 4.82 9.6
8/24/2021 3:45:00 AM 12.45 54.41 0.045 6.93 4.51 9.61
8/24/2021 4:00:00 AM 12.43 54.374 0.045 6.93 4.22 9.61
8/24/2021 4:15:00 AM 12.42 54.356 0.045 6.92 4.56 9.62
8/24/2021 4:30:00 AM 12.4 54.32 0.045 6.93 4.59 9.62
8/24/2021 4:45:00 AM 12.38 54.284 0.045 6.94 4.04 9.63
8/24/2021 5:00:00 AM 12.36 54.248 0.045 6.93 3.95 9.64
8/24/2021 5:15:00 AM 12.35 54.23 0.045 6.92 4.29 9.64
8/24/2021 5:30:00 AM 12.33 54.194 0.044 6.92 4.35 9.64
8/24/2021 5:45:00 AM 12.32 54.176 0.045 6.93 4.01 9.65
8/24/2021 6:00:00 AM 12.3 54.14 0.045 6.93 4.53 9.65
8/24/2021 6:15:00 AM 12.28 54.104 0.045 6.92 4.46 9.65
8/24/2021 6:30:00 AM 12.27 54.086 0.045 6.92 4.28 9.66
8/24/2021 6:45:00 AM 12.26 54.068 0.045 6.92 4.17 9.66
8/24/2021 7:00:00 AM 12.25 54.05 0.045 6.92 5.23 9.68
8/24/2021 7:15:00 AM 12.25 54.05 0.045 6.94 4.51 9.69
8/24/2021 7:30:00 AM 12.26 54.068 0.044 6.95 4.25 9.72
8/24/2021 7:45:00 AM 12.27 54.086 0.045 6.94 4.14 9.74
8/24/2021 8:00:00 AM 12.28 54.104 0.045 6.96 3.89 9.75
8/24/2021 8:15:00 AM 12.29 54.122 0.045 6.97 4.14 9.77
8/24/2021 8:30:00 AM 12.32 54.176 0.045 6.99 4.13 9.79
8/24/2021 8:45:00 AM 12.35 54.23 0.045 6.98 3.64 9.79
8/24/2021 9:00:00 AM 12.4 54.32 0.044 7.02 4.4 9.8
8/24/2021 9:15:00 AM 12.49 54.482 0.045 7.03 4.09 9.8
8/24/2021 9:30:00 AM 12.59 54.662 0.044 7.04 4.22 9.8
8/24/2021 9:45:00 AM 12.69 54.842 0.044 7.08 3.96 9.8
8/24/2021 10:00:00 AM 12.78 55.004 0.044 7.1 3.85 9.79
8/24/2021 10:15:00 AM 12.87 55.166 0.044 7.11 3.78 9.78
8/24/2021 10:30:00 AM 12.98 55.364 0.044 7.12 3.71 9.77
8/24/2021 10:45:00 AM 13.11 55.598 0.044 7.14 4.04 9.75
8/24/2021 11:00:00 AM 13.24 55.832 0.044 7.14 4.15 9.73
8/24/2021 11:15:00 AM 13.38 56.084 0.044 7.15 3.77 9.71
8/24/2021 11:30:00 AM 13.51 56.318 0.044 7.18 3.85 9.69
8/24/2021 11:45:00 AM 13.64 56.552 0.044 7.17 3.99 9.67
8/24/2021 12:00:00 PM 13.76 56.768 0.044 7.17 4.05 9.65
8/24/2021 12:15:00 PM 13.89 57.002 0.044 7.18 3.69 9.63
8/24/2021 12:30:00 PM 14.02 57.236 0.044 7.19 3.97 9.61
8/24/2021 12:45:00 PM 14.16 57.488 0.044 7.2 3.96 9.58
8/24/2021 1:00:00 PM 14.29 57.722 0.044 7.2 3.68 9.55
8/24/2021 1:15:00 PM 14.42 57.956 0.044 7.21 4.14 9.53
8/24/2021 1:30:00 PM 14.56 58.208 0.044 7.22 3.99 9.5
8/24/2021 1:45:00 PM 14.71 58.478 0.044 7.22 4.37 9.47
8/24/2021 2:00:00 PM 14.84 58.712 0.044 7.23 3.81 9.44
8/24/2021 2:15:00 PM 14.96 58.928 0.044 7.23 4.2 9.42
8/24/2021 2:30:00 PM 15.06 59.108 0.044 7.24 4.03 9.39
8/24/2021 2:45:00 PM 15.15 59.27 0.044 7.23 4.09 9.37
8/24/2021 3:00:00 PM 15.24 59.432 0.044 7.23 4.03 9.35
8/24/2021 3:15:00 PM 15.31 59.558 0.044 7.23 3.85 9.33
8/24/2021 3:30:00 PM 15.37 59.666 0.044 7.23 4.21 9.32
8/24/2021 3:45:00 PM 15.41 59.738 0.044 7.22 4.29 9.3
8/24/2021 4:00:00 PM 15.45 59.81 0.044 7.23 4 9.29
8/24/2021 4:15:00 PM 15.47 59.846 0.044 7.22 3.99 9.28
8/24/2021 4:30:00 PM 15.46 59.828 0.044 7.21 3.89 9.27
8/24/2021 4:45:00 PM 15.45 59.81 0.044 7.2 3.97 9.27
8/24/2021 5:00:00 PM 15.42 59.756 0.044 7.2 3.78 9.26
8/24/2021 5:15:00 PM 15.39 59.702 0.044 7.2 4.03 9.26
8/24/2021 5:30:00 PM 15.32 59.576 0.044 7.19 4.06 9.24
8/24/2021 5:45:00 PM 15.23 59.414 0.044 7.17 4.04 9.24
8/24/2021 6:00:00 PM 15.15 59.27 0.044 7.16 3.8 9.24
8/24/2021 6:15:00 PM 15.07 59.126 0.044 7.14 4.04 9.24
8/24/2021 6:30:00 PM 14.97 58.946 0.044 7.13 3.82 9.23
8/24/2021 6:45:00 PM 14.87 58.766 0.044 7.11 3.94 9.24
8/24/2021 7:00:00 PM 14.76 58.568 0.045 7.09 4.21 9.24
8/24/2021 7:15:00 PM 14.66 58.388 0.045 7.07 3.75 9.24
8/24/2021 7:30:00 PM 14.55 58.19 0.045 7.05 3.77 9.25
8/24/2021 7:45:00 PM 14.45 58.01 0.045 7.05 4.75 9.25
8/24/2021 8:00:00 PM 14.33 57.794 0.045 7.03 3.76 9.26
8/24/2021 8:15:00 PM 14.23 57.614 0.045 7.01 4.23 9.27
8/24/2021 8:30:00 PM 14.13 57.434 0.045 7 4.26 9.28
8/24/2021 8:45:00 PM 14.05 57.29 0.045 7 3.9 9.29
8/24/2021 9:00:00 PM 13.97 57.146 0.045 6.99 4.48 9.31
8/24/2021 9:15:00 PM 13.89 57.002 0.045 6.98 4.53 9.32
8/24/2021 9:30:00 PM 13.81 56.858 0.045 6.97 3.82 9.34
8/24/2021 9:45:00 PM 13.74 56.732 0.045 6.97 4.03 9.36
8/24/2021 10:00:00 PM 13.67 56.606 0.045 6.98 4.2 9.37
8/24/2021 10:15:00 PM 13.6 56.48 0.045 6.96 4.15 9.39
8/24/2021 10:30:00 PM 13.53 56.354 0.045 6.97 3.86 9.4
8/24/2021 10:45:00 PM 13.47 56.246 0.045 6.97 4.38 9.42
8/24/2021 11:00:00 PM 13.41 56.138 0.045 6.97 4.07 9.43
8/24/2021 11:15:00 PM 13.35 56.03 0.045 6.96 3.9 9.45
8/24/2021 11:30:00 PM 13.3 55.94 0.045 6.97 3.97 9.46
8/24/2021 11:45:00 PM 13.25 55.85 0.045 6.96 3.76 9.47
8/25/2021 12:00:00 AM 13.21 55.778 0.045 6.97 4.11 9.48
8/25/2021 12:15:00 AM 13.16 55.688 0.045 6.97 3.99 9.49
8/25/2021 12:30:00 AM 13.12 55.616 0.045 6.97 4.31 9.5
8/25/2021 12:45:00 AM 13.08 55.544 0.045 6.97 3.74 9.51
8/25/2021 1:00:00 AM 13.03 55.454 0.045 6.97 4.47 9.52
8/25/2021 1:15:00 AM 12.99 55.382 0.045 6.97 4.19 9.53
8/25/2021 1:30:00 AM 12.96 55.328 0.045 6.96 4.26 9.54
8/25/2021 1:45:00 AM 12.92 55.256 0.045 6.98 3.94 9.54
8/25/2021 2:00:00 AM 12.89 55.202 0.045 6.97 4.13 9.55
8/25/2021 2:15:00 AM 12.85 55.13 0.045 6.97 4.04 9.56
8/25/2021 2:30:00 AM 12.82 55.076 0.045 6.98 4.75 9.57
8/25/2021 2:45:00 AM 12.78 55.004 0.045 6.97 3.54 9.58
8/25/2021 3:00:00 AM 12.75 54.95 0.045 6.98 3.67 9.59
8/25/2021 3:15:00 AM 12.72 54.896 0.045 6.98 3.56 9.59
8/25/2021 3:30:00 AM 12.69 54.842 0.045 6.98 3.75 9.6
8/25/2021 3:45:00 AM 12.66 54.788 0.045 6.97 3.72 9.61
8/25/2021 4:00:00 AM 12.63 54.734 0.045 6.98 3.81 9.62
8/25/2021 4:15:00 AM 12.61 54.698 0.045 6.98 3.39 9.62
8/25/2021 4:30:00 AM 12.58 54.644 0.045 6.97 3.7 9.63
8/25/2021 4:45:00 AM 12.55 54.59 0.045 6.97 3.74 9.64
8/25/2021 5:00:00 AM 12.53 54.554 0.045 6.98 4.27 9.64
8/25/2021 5:15:00 AM 12.51 54.518 0.045 6.98 3.82 9.64
8/25/2021 5:30:00 AM 12.5 54.5 0.045 6.97 3.75 9.65
8/25/2021 5:45:00 AM 12.49 54.482 0.045 6.98 3.69 9.65
8/25/2021 6:00:00 AM 12.48 54.464 0.045 6.98 3.9 9.66
8/25/2021 6:15:00 AM 12.47 54.446 0.045 6.99 3.76 9.66
8/25/2021 6:30:00 AM 12.46 54.428 0.045 6.98 3.9 9.67
8/25/2021 6:45:00 AM 12.45 54.41 0.045 6.99 3.97 9.67
8/25/2021 7:00:00 AM 12.45 54.41 0.045 6.99 3.62 9.69
8/25/2021 7:15:00 AM 12.44 54.392 0.045 7 3.96 9.71
8/25/2021 7:30:00 AM 12.45 54.41 0.045 7.02 4.17 9.74
8/25/2021 7:45:00 AM 12.46 54.428 0.045 7.03 3.77 9.76
8/25/2021 8:00:00 AM 12.47 54.446 0.045 7.04 3.63 9.79
8/25/2021 8:15:00 AM 12.48 54.464 0.045 7.05 3.78 9.81
8/25/2021 8:30:00 AM 12.5 54.5 0.045 7.06 3.94 9.82
8/25/2021 8:45:00 AM 12.55 54.59 0.045 7.08 4.12 9.84
8/25/2021 9:00:00 AM 12.6 54.68 0.045 7.1 3.4 9.85
8/25/2021 9:15:00 AM 12.65 54.77 0.045 7.1 4.03 9.86
8/25/2021 9:30:00 AM 12.71 54.878 0.045 7.12 3.31 9.86
8/25/2021 9:45:00 AM 12.78 55.004 0.045 7.14 3.42 9.86
8/25/2021 10:00:00 AM 12.87 55.166 0.045 7.14 3.5 9.86
8/25/2021 10:15:00 AM 12.98 55.364 0.045 7.15 3.22 9.85
8/25/2021 10:30:00 AM 13.1 55.58 0.045 7.17 3.24 9.84
8/25/2021 10:45:00 AM 13.21 55.778 0.045 7.18 3.36 9.82
8/25/2021 11:00:00 AM 13.32 55.976 0.045 7.19 3.27 9.8
8/25/2021 11:15:00 AM 13.43 56.174 0.045 7.2 3.76 9.79
8/25/2021 11:30:00 AM 13.58 56.444 0.045 7.22 3.69 9.76
8/25/2021 11:45:00 AM 13.75 56.75 0.045 7.24 3.68 9.74
8/25/2021 12:00:00 PM 13.88 56.984 0.045 7.25 3.5 9.71
8/25/2021 12:15:00 PM 14.03 57.254 0.045 7.26 3.45 9.68
8/25/2021 12:30:00 PM 14.1 57.38 0.045 7.27 3.33 9.65
8/25/2021 12:45:00 PM 14.29 57.722 0.045 7.28 3.53 9.64
8/25/2021 1:00:00 PM 14.5 58.1 0.045 7.3 3.36 9.61
8/25/2021 1:15:00 PM 14.58 58.244 0.045 7.28 3.1 9.57
8/25/2021 1:30:00 PM 14.67 58.406 0.045 7.29 3.47 9.55
8/25/2021 1:45:00 PM 14.9 58.82 0.045 7.33 3.14 9.53
8/25/2021 2:00:00 PM 15.09 59.162 0.045 7.33 3.3 9.48
8/25/2021 2:15:00 PM 15.09 59.162 0.045 7.28 3.78 9.44
8/25/2021 2:30:00 PM 15.05 59.09 0.045 7.28 3.36 9.44
8/25/2021 2:45:00 PM 15.19 59.342 0.045 7.3 3.38 9.42
8/25/2021 3:00:00 PM 15.37 59.666 0.045 7.32 3.69 9.4
8/25/2021 3:15:00 PM 15.47 59.846 0.045 7.32 3.28 9.38
8/25/2021 3:30:00 PM 15.48 59.864 0.045 7.29 3.64 9.36
8/25/2021 3:45:00 PM 15.49 59.882 0.045 7.28 3.24 9.34
8/25/2021 4:00:00 PM 15.55 59.99 0.045 7.3 3.32 9.34
8/25/2021 4:15:00 PM 15.53 59.954 0.045 7.28 3.2 9.33
8/25/2021 4:30:00 PM 15.48 59.864 0.045 7.27 3.31 9.32
8/25/2021 4:45:00 PM 15.54 59.972 0.045 7.29 3.3 9.31
8/25/2021 5:00:00 PM 15.62 60.116 0.045 7.31 3.81 9.31
8/25/2021 5:15:00 PM 15.6 60.08 0.045 7.27 3.13 9.29
8/25/2021 5:30:00 PM 15.58 60.044 0.045 7.27 3.39 9.28
8/25/2021 5:45:00 PM 15.58 60.044 0.045 7.27 4.13 9.28
8/25/2021 6:00:00 PM 15.54 59.972 0.045 7.25 3.44 9.27
8/25/2021 6:15:00 PM 15.44 59.792 0.045 7.24 3.29 9.26
8/25/2021 6:30:00 PM 15.32 59.576 0.045 7.21 3.27 9.24
8/25/2021 6:45:00 PM 15.23 59.414 0.045 7.2 3.23 9.22
8/25/2021 7:00:00 PM 15.15 59.27 0.045 7.17 3.46 9.21
8/25/2021 7:15:00 PM 15.06 59.108 0.045 7.15 3.25 9.19
8/25/2021 7:30:00 PM 14.97 58.946 0.045 7.13 3.25 9.18
8/25/2021 7:45:00 PM 14.88 58.784 0.045 7.11 3.51 9.18
8/25/2021 8:00:00 PM 14.79 58.622 0.046 7.1 3.39 9.17
8/25/2021 8:15:00 PM 14.69 58.442 0.046 7.08 3.31 9.18
8/25/2021 8:30:00 PM 14.59 58.262 0.046 7.06 3.31 9.19
8/25/2021 8:45:00 PM 14.51 58.118 0.046 7.05 3.58 9.21
8/25/2021 9:00:00 PM 14.42 57.956 0.046 7.04 3.57 9.22
8/25/2021 9:15:00 PM 14.35 57.83 0.046 7.03 5.33 9.23
8/25/2021 9:30:00 PM 14.27 57.686 0.046 7.02 3.76 9.25
8/25/2021 9:45:00 PM 14.2 57.56 0.046 7.01 3.55 9.27
8/25/2021 10:00:00 PM 14.13 57.434 0.046 7.01 3.61 9.28
8/25/2021 10:15:00 PM 14.07 57.326 0.046 7 3.59 9.29
8/25/2021 10:30:00 PM 14.01 57.218 0.046 7 3.62 9.3
8/25/2021 10:45:00 PM 13.94 57.092 0.046 7 3.64 9.32
8/25/2021 11:00:00 PM 13.88 56.984 0.046 7 3.16 9.33
8/25/2021 11:15:00 PM 13.82 56.876 0.046 7 3.54 9.35
8/25/2021 11:30:00 PM 13.77 56.786 0.046 7 4.67 9.35
8/25/2021 11:45:00 PM 13.72 56.696 0.046 7 3.76 9.38
8/26/2021 12:00:00 AM 13.67 56.606 0.046 7 3.5 9.38
8/26/2021 12:15:00 AM 13.63 56.534 0.046 7 3.62 9.38
8/26/2021 12:30:00 AM 13.58 56.444 0.046 7 3.59 9.4
8/26/2021 12:45:00 AM 13.54 56.372 0.046 7 3.42 9.4
8/26/2021 1:00:00 AM 13.5 56.3 0.046 6.99 3.56 9.42
8/26/2021 1:15:00 AM 13.46 56.228 0.046 7 3.34 9.43
8/26/2021 1:30:00 AM 13.42 56.156 0.046 7 3.46 9.44
8/26/2021 1:45:00 AM 13.39 56.102 0.046 7 3.53 9.45
8/26/2021 2:00:00 AM 13.35 56.03 0.046 7 3.25 9.45
8/26/2021 2:15:00 AM 13.32 55.976 0.046 6.99 3.63 9.46
8/26/2021 2:30:00 AM 13.29 55.922 0.046 7 3.32 9.46
8/26/2021 2:45:00 AM 13.26 55.868 0.046 7 3.31 9.47
8/26/2021 3:00:00 AM 13.23 55.814 0.046 7 3.64 9.48
8/26/2021 3:15:00 AM 13.2 55.76 0.046 7 3.43 9.49
8/26/2021 3:30:00 AM 13.18 55.724 0.046 6.99 3.32 9.49
8/26/2021 3:45:00 AM 13.15 55.67 0.046 6.99 3.27 9.5
8/26/2021 4:00:00 AM 13.12 55.616 0.046 7 3.34 9.5
8/26/2021 4:15:00 AM 13.1 55.58 0.046 6.99 3 9.51
8/26/2021 4:30:00 AM 13.07 55.526 0.046 6.99 3.99 9.51
8/26/2021 4:45:00 AM 13.05 55.49 0.046 6.99 3.33 9.52
8/26/2021 5:00:00 AM 13.02 55.436 0.046 6.99 3.5 9.53
8/26/2021 5:15:00 AM 13 55.4 0.046 7 3.13 9.53
8/26/2021 5:30:00 AM 12.98 55.364 0.046 7 3.34 9.54
8/26/2021 5:45:00 AM 12.96 55.328 0.046 6.99 3.53 9.54
8/26/2021 6:00:00 AM 12.94 55.292 0.046 6.99 4.18 9.55
8/26/2021 6:15:00 AM 12.92 55.256 0.046 7 3.52 9.56
8/26/2021 6:30:00 AM 12.91 55.238 0.046 7 3.41 9.56
8/26/2021 6:45:00 AM 12.9 55.22 0.046 7 3.43 9.57
8/26/2021 7:00:00 AM 12.89 55.202 0.046 7 3.24 9.58
8/26/2021 7:15:00 AM 12.88 55.184 0.046 7 3.22 9.59
8/26/2021 7:30:00 AM 12.88 55.184 0.046 7.02 3.21 9.62
8/26/2021 7:45:00 AM 12.88 55.184 0.046 7.02 3.35 9.64
8/26/2021 8:00:00 AM 12.9 55.22 0.046 7.04 3.45 9.68
8/26/2021 8:15:00 AM 12.92 55.256 0.046 7.06 3.56 9.7
8/26/2021 8:30:00 AM 12.97 55.346 0.046 7.09 3.61 9.74
8/26/2021 8:45:00 AM 13.02 55.436 0.046 7.1 3.18 9.76
8/26/2021 9:00:00 AM 13.09 55.562 0.046 7.12 2.95 9.77
8/26/2021 9:15:00 AM 13.18 55.724 0.046 7.15 3.13 9.79
8/26/2021 9:30:00 AM 13.22 55.796 0.046 7.16 2.84 9.77
8/26/2021 9:45:00 AM 13.24 55.832 0.046 7.16 3.14 9.78
8/26/2021 10:00:00 AM 13.26 55.868 0.046 7.16 3.05 9.77
8/26/2021 10:15:00 AM 13.33 55.994 0.046 7.17 3.03 9.78
8/26/2021 10:30:00 AM 13.42 56.156 0.046 7.19 3.03 9.78
8/26/2021 10:45:00 AM 13.51 56.318 0.046 7.21 3.28 9.78
8/26/2021 11:00:00 AM 13.62 56.516 0.046 7.24 2.86 9.78
8/26/2021 11:15:00 AM 13.81 56.858 0.046 7.27 2.95 9.76
8/26/2021 11:30:00 AM 14.01 57.218 0.046 7.3 3.15 9.75
8/26/2021 11:45:00 AM 14.1 57.38 0.046 7.28 3.2 9.71
8/26/2021 12:00:00 PM 14.07 57.326 0.046 7.26 3.01 9.68
8/26/2021 12:15:00 PM 14.05 57.29 0.046 7.27 3.48 9.67
8/26/2021 12:30:00 PM 14.09 57.362 0.046 7.28 2.9 9.66
8/26/2021 12:45:00 PM 14.18 57.524 0.046 7.31 2.78 9.66
8/26/2021 1:00:00 PM 14.29 57.722 0.046 7.32 3.06 9.64
8/26/2021 1:15:00 PM 14.4 57.92 0.046 7.33 3.18 9.63
8/26/2021 1:30:00 PM 14.49 58.082 0.045 7.33 2.93 9.61
8/26/2021 1:45:00 PM 14.72 58.496 0.046 7.38 3.08 9.6
8/26/2021 2:00:00 PM 14.87 58.766 0.045 7.37 2.91 9.57
8/26/2021 2:15:00 PM 15.05 59.09 0.045 7.38 2.95 9.53
8/26/2021 2:30:00 PM 15.08 59.144 0.045 7.36 3.24 9.51
8/26/2021 2:45:00 PM 15.09 59.162 0.046 7.36 2.98 9.48
8/26/2021 3:00:00 PM 15.14 59.252 0.045 7.36 3.01 9.47
8/26/2021 3:15:00 PM 15.29 59.522 0.045 7.39 3.05 9.45
8/26/2021 3:30:00 PM 15.3 59.54 0.045 7.36 3.17 9.42
8/26/2021 3:45:00 PM 15.28 59.504 0.045 7.34 3.34 9.42
8/26/2021 4:00:00 PM 15.24 59.432 0.045 7.33 3.14 9.4
8/26/2021 4:15:00 PM 15.21 59.378 0.045 7.32 3.65 9.38
8/26/2021 4:30:00 PM 15.2 59.36 0.046 7.31 3.64 9.37
8/26/2021 4:45:00 PM 15.18 59.324 0.046 7.3 3.19 9.35
8/26/2021 5:00:00 PM 15.15 59.27 0.046 7.29 3.29 9.34
8/26/2021 5:15:00 PM 15.12 59.216 0.046 7.28 3.04 9.34
8/26/2021 5:30:00 PM 15.09 59.162 0.046 7.27 3.67 9.34
8/26/2021 5:45:00 PM 15.06 59.108 0.046 7.26 3.76 9.33
8/26/2021 6:00:00 PM 15.02 59.036 0.046 7.25 3.12 9.32
8/26/2021 6:15:00 PM 14.97 58.946 0.046 7.24 3.01 9.32
8/26/2021 6:30:00 PM 14.92 58.856 0.046 7.23 2.99 9.32
8/26/2021 6:45:00 PM 14.86 58.748 0.046 7.21 3.15 9.31
8/26/2021 7:00:00 PM 14.81 58.658 0.046 7.2 2.79 9.31
8/26/2021 7:15:00 PM 14.75 58.55 0.046 7.19 2.91 9.28
8/26/2021 7:30:00 PM 14.68 58.424 0.046 7.17 2.94 9.27
8/26/2021 7:45:00 PM 14.62 58.316 0.046 7.15 3.05 9.25
8/26/2021 8:00:00 PM 14.56 58.208 0.046 7.13 2.93 9.24
8/26/2021 8:15:00 PM 14.5 58.1 0.046 7.11 2.83 9.23
8/26/2021 8:30:00 PM 14.45 58.01 0.046 7.11 3 9.22
8/26/2021 8:45:00 PM 14.4 57.92 0.046 7.08 3.33 9.23
8/26/2021 9:00:00 PM 14.35 57.83 0.047 7.07 3.17 9.23
8/26/2021 9:15:00 PM 14.3 57.74 0.047 7.07 3.05 9.25
8/26/2021 9:30:00 PM 14.25 57.65 0.047 7.06 3.17 9.25
8/26/2021 9:45:00 PM 14.21 57.578 0.047 7.05 3.17 9.26
8/26/2021 10:00:00 PM 14.18 57.524 0.047 7.05 3.01 9.27
8/26/2021 10:15:00 PM 14.15 57.47 0.047 7.06 3.18 9.28
8/26/2021 10:30:00 PM 14.12 57.416 0.047 7.06 3.2 9.28
8/26/2021 10:45:00 PM 14.1 57.38 0.047 7.06 3.16 9.29
8/26/2021 11:00:00 PM 14.08 57.344 0.047 7.1 3.23 9.3
8/26/2021 11:15:00 PM 14.06 57.308 0.047 7.11 2.93 9.3
8/26/2021 11:30:00 PM 14.03 57.254 0.047 7.11 2.99 9.31
8/26/2021 11:45:00 PM 14.01 57.218 0.047 7.12 3.11 9.31
8/27/2021 12:00:00 AM 13.99 57.182 0.047 7.13 3.11 9.32
8/27/2021 12:15:00 AM 13.95 57.11 0.047 7.13 3.02 9.32
8/27/2021 12:30:00 AM 13.93 57.074 0.047 7.13 3.15 9.33
8/27/2021 12:45:00 AM 13.91 57.038 0.047 7.13 3.19 9.33
8/27/2021 1:00:00 AM 13.89 57.002 0.047 7.13 2.9 9.34
8/27/2021 1:15:00 AM 13.87 56.966 0.047 7.12 4.55 9.34
8/27/2021 1:30:00 AM 13.84 56.912 0.047 7.11 3.27 9.34
8/27/2021 1:45:00 AM 13.81 56.858 0.047 7.11 3.32 9.34
8/27/2021 2:00:00 AM 13.78 56.804 0.047 7.1 3.5 9.35
8/27/2021 2:15:00 AM 13.75 56.75 0.047 7.1 3.35 9.35
8/27/2021 2:30:00 AM 13.73 56.714 0.047 7.08 3.48 9.36
8/27/2021 2:45:00 AM 13.7 56.66 0.047 7.08 3.35 9.36
8/27/2021 3:00:00 AM 13.68 56.624 0.047 7.07 3.06 9.37
8/27/2021 3:15:00 AM 13.65 56.57 0.047 7.07 3.03 9.37
8/27/2021 3:30:00 AM 13.62 56.516 0.047 7.06 3.17 9.38
8/27/2021 3:45:00 AM 13.59 56.462 0.047 7.07 3.01 9.38
8/27/2021 4:00:00 AM 13.57 56.426 0.047 7.06 3.2 9.39
8/27/2021 4:15:00 AM 13.55 56.39 0.047 7.06 3.18 9.38
8/27/2021 4:30:00 AM 13.52 56.336 0.047 7.05 3.11 9.4
8/27/2021 4:45:00 AM 13.5 56.3 0.047 7.05 3.3 9.4
8/27/2021 5:00:00 AM 13.48 56.264 0.047 7.05 3.59 9.4
8/27/2021 5:15:00 AM 13.46 56.228 0.047 7.06 3.15 9.41
8/27/2021 5:30:00 AM 13.45 56.21 0.048 7.05 3.12 9.41
8/27/2021 5:45:00 AM 13.44 56.192 0.048 7.05 3.1 9.42
8/27/2021 6:00:00 AM 13.42 56.156 0.048 7.04 3.55 9.42
8/27/2021 6:15:00 AM 13.42 56.156 0.048 7.06 3.58 9.43
8/27/2021 6:30:00 AM 13.4 56.12 0.048 7.08 3.15 9.43
8/27/2021 6:45:00 AM 13.39 56.102 0.048 7.08 3.15 9.44
8/27/2021 7:00:00 AM 13.37 56.066 0.048 7.08 3 9.45
8/27/2021 7:15:00 AM 13.36 56.048 0.048 7.09 2.89 9.47
8/27/2021 7:30:00 AM 13.35 56.03 0.048 7.09 3.12 9.49
8/27/2021 7:45:00 AM 13.35 56.03 0.048 7.1 3.06 9.52
8/27/2021 8:00:00 AM 13.35 56.03 0.048 7.12 2.8 9.55
8/27/2021 8:15:00 AM 13.36 56.048 0.048 7.14 2.77 9.58
8/27/2021 8:30:00 AM 13.37 56.066 0.048 7.15 2.88 9.61
8/27/2021 8:45:00 AM 13.39 56.102 0.048 7.16 2.99 9.63
8/27/2021 9:00:00 AM 13.41 56.138 0.048 7.17 2.88 9.66
8/27/2021 9:15:00 AM 13.45 56.21 0.048 7.2 3.13 9.68
8/27/2021 9:30:00 AM 13.49 56.282 0.048 7.21 2.86 9.7
8/27/2021 9:45:00 AM 13.56 56.408 0.048 7.23 3.07 9.72
8/27/2021 10:00:00 AM 13.63 56.534 0.047 7.25 3.08 9.73
8/27/2021 10:15:00 AM 13.7 56.66 0.047 7.26 2.58 9.73
8/27/2021 10:30:00 AM 13.74 56.732 0.047 7.27 2.79 9.71
8/27/2021 10:45:00 AM 13.82 56.876 0.047 7.28 2.85 9.71
8/27/2021 11:00:00 AM 13.9 57.02 0.047 7.3 2.95 9.72
8/27/2021 11:15:00 AM 13.98 57.164 0.047 7.31 2.69 9.7
8/27/2021 11:30:00 AM 14.15 57.47 0.047 7.33 3.07 9.69
8/27/2021 11:45:00 AM 14.28 57.704 0.047 7.35 2.68 9.67
8/27/2021 12:00:00 PM 14.49 58.082 0.047 7.37 2.87 9.64
8/27/2021 12:15:00 PM 14.64 58.352 0.047 7.38 2.65 9.6
8/27/2021 12:30:00 PM 14.79 58.622 0.047 7.39 2.64 9.57
8/27/2021 12:45:00 PM 14.95 58.91 0.047 7.41 2.98 9.54
8/27/2021 1:00:00 PM 15.06 59.108 0.047 7.4 2.7 9.52
8/27/2021 1:15:00 PM 15.19 59.342 0.047 7.4 2.75 9.49
8/27/2021 1:30:00 PM 15.39 59.702 0.047 7.44 3.09 9.46
8/27/2021 1:45:00 PM 15.52 59.936 0.047 7.42 2.73 9.42
8/27/2021 2:00:00 PM 15.47 59.846 0.047 7.39 2.68 9.39
8/27/2021 2:15:00 PM 15.4 59.72 0.047 7.39 2.76 9.4
8/27/2021 2:30:00 PM 15.36 59.648 0.047 7.38 2.76 9.37
8/27/2021 2:45:00 PM 15.33 59.594 0.047 7.35 2.55 9.28
8/27/2021 3:00:00 PM 15.4 59.72 0.046 7.34 3.39 9.21
8/27/2021 3:15:00 PM 15.5 59.9 0.045 7.29 4.46 9.14
8/27/2021 3:30:00 PM 15.46 59.828 0.046 7.23 5.87 9.11
8/27/2021 3:45:00 PM 15.52 59.936 0.046 7.23 5.86 9.11
8/27/2021 4:00:00 PM 15.63 60.134 0.048 7.25 6.62 9.12
8/27/2021 4:15:00 PM 15.7 60.26 0.048 7.25 6.32 9.14
8/27/2021 4:30:00 PM 15.77 60.386 0.049 7.25 5.98 9.16
8/27/2021 4:45:00 PM 15.77 60.386 0.049 7.24 5.19 9.17
8/27/2021 5:00:00 PM 15.71 60.278 0.05 7.24 6.44 9.16
8/27/2021 5:15:00 PM 15.61 60.098 0.05 7.22 8.23 9.14
8/27/2021 5:30:00 PM 15.58 60.044 0.049 7.23 8.74 9.13
8/27/2021 5:45:00 PM 15.61 60.098 0.049 7.22 8.48 9.09
8/27/2021 6:00:00 PM 15.63 60.134 0.049 7.21 8.28 9.05
8/27/2021 6:15:00 PM 15.62 60.116 0.049 7.19 7.65 9.04
8/27/2021 6:30:00 PM 15.59 60.062 0.049 7.19 7.26 9.04
8/27/2021 6:45:00 PM 15.56 60.008 0.049 7.19 6.49 9.04
8/27/2021 7:00:00 PM 15.54 59.972 0.05 7.19 6.78 9.03
8/27/2021 7:15:00 PM 15.52 59.936 0.05 7.19 6.97 9.02
8/27/2021 7:30:00 PM 15.48 59.864 0.05 7.19 6.87 9.01
8/27/2021 7:45:00 PM 15.42 59.756 0.05 7.17 6.51 9.01
8/27/2021 8:00:00 PM 15.35 59.63 0.049 7.16 6.05 9
8/27/2021 8:15:00 PM 15.28 59.504 0.049 7.15 6.42 9
8/27/2021 8:30:00 PM 15.21 59.378 0.049 7.13 6.07 9.01
8/27/2021 8:45:00 PM 15.14 59.252 0.049 7.13 5.46 9.02
8/27/2021 9:00:00 PM 15.07 59.126 0.049 7.12 5.13 9.04
8/27/2021 9:15:00 PM 14.99 58.982 0.049 7.1 4.95 9.06
8/27/2021 9:30:00 PM 14.92 58.856 0.049 7.1 4.41 9.07
8/27/2021 9:45:00 PM 14.85 58.73 0.05 7.09 4.19 9.09
8/27/2021 10:00:00 PM 14.79 58.622 0.05 7.09 4.4 9.1
8/27/2021 10:15:00 PM 14.72 58.496 0.05 7.08 4.06 9.11
8/27/2021 10:30:00 PM 14.67 58.406 0.05 7.08 4.32 9.13
8/27/2021 10:45:00 PM 14.61 58.298 0.051 7.08 4.25 9.15
8/27/2021 11:00:00 PM 14.56 58.208 0.051 7.07 4.22 9.16
8/27/2021 11:15:00 PM 14.51 58.118 0.051 7.07 4.05 9.17
8/27/2021 11:30:00 PM 14.46 58.028 0.051 7.06 3.83 9.18
8/27/2021 11:45:00 PM 14.42 57.956 0.051 7.06 3.51 9.18
8/28/2021 12:00:00 AM 14.37 57.866 0.051 7.06 3.9 9.19
8/28/2021 12:15:00 AM 14.33 57.794 0.051 7.05 4.01 9.2
8/28/2021 12:30:00 AM 14.3 57.74 0.051 7.05 3.85 9.21
8/28/2021 12:45:00 AM 14.27 57.686 0.051 7.05 3.53 9.21
8/28/2021 1:00:00 AM 14.24 57.632 0.051 7.04 3.47 9.22
8/28/2021 1:15:00 AM 14.21 57.578 0.052 7.04 3.45 9.23
8/28/2021 1:30:00 AM 14.18 57.524 0.051 7.04 3.55 9.24
8/28/2021 1:45:00 AM 14.15 57.47 0.051 7.04 3.62 9.24
8/28/2021 2:00:00 AM 14.13 57.434 0.052 7.04 3.39 9.24
8/28/2021 2:15:00 AM 14.11 57.398 0.052 7.04 3.26 9.25
8/28/2021 2:30:00 AM 14.08 57.344 0.051 7.04 3.6 9.25
8/28/2021 2:45:00 AM 14.06 57.308 0.051 7.03 3.33 9.26
8/28/2021 3:00:00 AM 14.04 57.272 0.051 7.03 3.4 9.26
8/28/2021 3:15:00 AM 14.02 57.236 0.051 7.04 3.75 9.27
8/28/2021 3:30:00 AM 14 57.2 0.051 7.03 3.24 9.27
8/28/2021 3:45:00 AM 13.98 57.164 0.051 7.03 3.24 9.28
8/28/2021 4:00:00 AM 13.96 57.128 0.051 7.02 3.17 9.28
8/28/2021 4:15:00 AM 13.93 57.074 0.051 7.03 3.41 9.28
8/28/2021 4:30:00 AM 13.91 57.038 0.051 7.02 3.13 9.29
8/28/2021 4:45:00 AM 13.9 57.02 0.051 7.03 3.23 9.29
8/28/2021 5:00:00 AM 13.88 56.984 0.051 7.02 3.15 9.3
8/28/2021 5:15:00 AM 13.87 56.966 0.051 7.03 3.12 9.3
8/28/2021 5:30:00 AM 13.86 56.948 0.051 7.03 3.28 9.31
8/28/2021 5:45:00 AM 13.84 56.912 0.051 7.03 3.63 9.31
8/28/2021 6:00:00 AM 13.83 56.894 0.051 7.02 3.29 9.31
8/28/2021 6:15:00 AM 13.81 56.858 0.051 7.02 3.2 9.32
8/28/2021 6:30:00 AM 13.8 56.84 0.051 7.02 3.61 9.33
8/28/2021 6:45:00 AM 13.79 56.822 0.051 7.02 3.23 9.33
8/28/2021 7:00:00 AM 13.78 56.804 0.051 7.03 3.35 9.34
8/28/2021 7:15:00 AM 13.77 56.786 0.051 7.03 2.98 9.36
8/28/2021 7:30:00 AM 13.77 56.786 0.051 7.03 2.91 9.37
8/28/2021 7:45:00 AM 13.77 56.786 0.051 7.03 3.08 9.39
8/28/2021 8:00:00 AM 13.77 56.786 0.051 7.04 3.12 9.42
8/28/2021 8:15:00 AM 13.77 56.786 0.051 7.05 2.97 9.43
8/28/2021 8:30:00 AM 13.79 56.822 0.051 7.08 2.81 9.46
8/28/2021 8:45:00 AM 13.8 56.84 0.051 7.11 2.73 9.49
8/28/2021 9:00:00 AM 13.81 56.858 0.051 7.13 2.8 9.5
8/28/2021 9:15:00 AM 13.83 56.894 0.051 7.15 3.66 9.54
8/28/2021 9:30:00 AM 13.85 56.93 0.051 7.17 3.01 9.55
8/28/2021 9:45:00 AM 13.92 57.056 0.051 7.21 2.97 9.6
8/28/2021 10:00:00 AM 14.01 57.218 0.05 7.25 2.99 9.63
8/28/2021 10:15:00 AM 14.12 57.416 0.05 7.29 3.24 9.64
8/28/2021 10:30:00 AM 14.3 57.74 0.05 7.32 3.03 9.64
8/28/2021 10:45:00 AM 14.46 58.028 0.05 7.35 3.69 9.63
8/28/2021 11:00:00 AM 14.62 58.316 0.05 7.36 3.25 9.62
8/28/2021 11:15:00 AM 14.74 58.532 0.05 7.37 3.23 9.6
8/28/2021 11:30:00 AM 14.91 58.838 0.05 7.4 2.79 9.58
8/28/2021 11:45:00 AM 15.04 59.072 0.05 7.4 3.09 9.56
8/28/2021 12:00:00 PM 15.04 59.072 0.05 7.38 2.99 9.52
8/28/2021 12:15:00 PM 15.09 59.162 0.05 7.4 3.06 9.52
8/28/2021 12:30:00 PM 15.25 59.45 0.05 7.44 2.91 9.51
8/28/2021 12:45:00 PM 15.4 59.72 0.049 7.44 2.98 9.47
8/28/2021 1:00:00 PM 15.62 60.116 0.049 7.46 2.86 9.45
8/28/2021 1:15:00 PM 15.7 60.26 0.049 7.44 2.95 9.4
8/28/2021 1:30:00 PM 15.64 60.152 0.049 7.41 3.23 9.36
8/28/2021 1:45:00 PM 15.79 60.422 0.049 7.44 2.96 9.38
8/28/2021 2:00:00 PM 15.94 60.692 0.049 7.46 3.11 9.37
8/28/2021 2:15:00 PM 16.2 61.16 0.05 7.5 2.72 9.34
8/28/2021 2:30:00 PM 16.21 61.178 0.05 7.44 2.8 9.26
8/28/2021 2:45:00 PM 16.1 60.98 0.05 7.41 2.83 9.22
8/28/2021 3:00:00 PM 16.09 60.962 0.05 7.43 2.96 9.26
8/28/2021 3:15:00 PM 16.17 61.106 0.049 7.45 2.93 9.26
8/28/2021 3:30:00 PM 16.2 61.16 0.049 7.45 3.13 9.23
8/28/2021 3:45:00 PM 16.34 61.412 0.049 7.46 3.17 9.24
8/28/2021 4:00:00 PM 16.35 61.43 0.049 7.45 2.87 9.22
8/28/2021 4:15:00 PM 16.37 61.466 0.049 7.45 2.9 9.22
8/28/2021 4:30:00 PM 16.26 61.268 0.049 7.4 3.31 9.14
8/28/2021 4:45:00 PM 16.18 61.124 0.049 7.37 3.29 9.11
8/28/2021 5:00:00 PM 16.07 60.926 0.049 7.34 3.56 9.09
8/28/2021 5:15:00 PM 16.04 60.872 0.049 7.34 3.66 9.11
8/28/2021 5:30:00 PM 16.05 60.89 0.049 7.35 3.44 9.14
8/28/2021 5:45:00 PM 16.02 60.836 0.049 7.34 3.87 9.1
8/28/2021 6:00:00 PM 15.96 60.728 0.05 7.32 3.12 9.11
8/28/2021 6:15:00 PM 15.87 60.566 0.05 7.31 3.33 9.1
8/28/2021 6:30:00 PM 15.78 60.404 0.05 7.3 3.72 9.1
8/28/2021 6:45:00 PM 15.72 60.296 0.05 7.29 3.04 9.09
8/28/2021 7:00:00 PM 15.68 60.224 0.05 7.28 2.92 9.09
8/28/2021 7:15:00 PM 15.64 60.152 0.05 7.28 2.89 9.09
8/28/2021 7:30:00 PM 15.59 60.062 0.051 7.27 2.93 9.07
8/28/2021 7:45:00 PM 15.52 59.936 0.051 7.25 3.28 9.05
8/28/2021 8:00:00 PM 15.45 59.81 0.051 7.24 3.29 9.03
8/28/2021 8:15:00 PM 15.39 59.702 0.051 7.22 3.16 9.02
8/28/2021 8:30:00 PM 15.33 59.594 0.051 7.21 3.04 9.01
8/28/2021 8:45:00 PM 15.28 59.504 0.051 7.2 3.16 9.02
8/28/2021 9:00:00 PM 15.22 59.396 0.051 7.19 2.84 9.02
8/28/2021 9:15:00 PM 15.16 59.288 0.051 7.18 3.21 9.03
8/28/2021 9:30:00 PM 15.09 59.162 0.051 7.17 3.38 9.05
8/28/2021 9:45:00 PM 15.04 59.072 0.051 7.17 2.95 9.06
8/28/2021 10:00:00 PM 14.98 58.964 0.051 7.16 2.88 9.07
8/28/2021 10:15:00 PM 14.93 58.874 0.051 7.16 3.05 9.08
8/28/2021 10:30:00 PM 14.87 58.766 0.051 7.16 2.94 9.09
8/28/2021 10:45:00 PM 14.82 58.676 0.051 7.15 3.06 9.1
8/28/2021 11:00:00 PM 14.76 58.568 0.051 7.16 3.13 9.12
8/28/2021 11:15:00 PM 14.71 58.478 0.051 7.16 3.05 9.13
8/28/2021 11:30:00 PM 14.66 58.388 0.051 7.15 3.05 9.14
8/28/2021 11:45:00 PM 14.62 58.316 0.051 7.15 2.97 9.15
8/29/2021 12:00:00 AM 14.58 58.244 0.051 7.16 3.19 9.16
8/29/2021 12:15:00 AM 14.55 58.19 0.051 7.16 3.22 9.17
8/29/2021 12:30:00 AM 14.51 58.118 0.051 7.16 3.21 9.18
8/29/2021 12:45:00 AM 14.47 58.046 0.051 7.15 3.09 9.19
8/29/2021 1:00:00 AM 14.43 57.974 0.051 7.16 3.12 9.2
8/29/2021 1:15:00 AM 14.4 57.92 0.051 7.16 3.18 9.2
8/29/2021 1:30:00 AM 14.37 57.866 0.051 7.16 3.15 9.21
8/29/2021 1:45:00 AM 14.35 57.83 0.051 7.17 3.4 9.21
8/29/2021 2:00:00 AM 14.33 57.794 0.051 7.16 3.08 9.22
8/29/2021 2:15:00 AM 14.31 57.758 0.051 7.17 3.01 9.22
8/29/2021 2:30:00 AM 14.3 57.74 0.051 7.17 3.21 9.22
8/29/2021 2:45:00 AM 14.29 57.722 0.051 7.18 3.04 9.23
8/29/2021 3:00:00 AM 14.28 57.704 0.051 7.18 3.25 9.23
8/29/2021 3:15:00 AM 14.26 57.668 0.051 7.18 3.18 9.23
8/29/2021 3:30:00 AM 14.24 57.632 0.051 7.18 3.33 9.24
8/29/2021 3:45:00 AM 14.22 57.596 0.051 7.17 2.99 9.24
8/29/2021 4:00:00 AM 14.2 57.56 0.051 7.17 2.89 9.24
8/29/2021 4:15:00 AM 14.18 57.524 0.051 7.17 2.98 9.24
8/29/2021 4:30:00 AM 14.17 57.506 0.051 7.16 2.97 9.24
8/29/2021 4:45:00 AM 14.16 57.488 0.051 7.16 2.91 9.24
8/29/2021 5:00:00 AM 14.15 57.47 0.051 7.15 3.04 9.24
8/29/2021 5:15:00 AM 14.14 57.452 0.051 7.15 3.16 9.25
8/29/2021 5:30:00 AM 14.12 57.416 0.051 7.15 3.15 9.25
8/29/2021 5:45:00 AM 14.11 57.398 0.051 7.14 3.16 9.26
8/29/2021 6:00:00 AM 14.09 57.362 0.051 7.14 2.92 9.26
8/29/2021 6:15:00 AM 14.08 57.344 0.051 7.14 2.95 9.26
8/29/2021 6:30:00 AM 14.07 57.326 0.051 7.14 3.32 9.27
8/29/2021 6:45:00 AM 14.06 57.308 0.051 7.14 3.34 9.27
8/29/2021 7:00:00 AM 14.05 57.29 0.051 7.14 3.32 9.28
8/29/2021 7:15:00 AM 14.04 57.272 0.051 7.13 2.9 9.29
8/29/2021 7:30:00 AM 14.03 57.254 0.051 7.14 3.01 9.31
8/29/2021 7:45:00 AM 14.03 57.254 0.051 7.15 2.73 9.34
8/29/2021 8:00:00 AM 14.04 57.272 0.051 7.16 3.07 9.37
8/29/2021 8:15:00 AM 14.05 57.29 0.051 7.17 2.77 9.39
8/29/2021 8:30:00 AM 14.07 57.326 0.051 7.19 2.69 9.42
8/29/2021 8:45:00 AM 14.08 57.344 0.051 7.22 2.7 9.43
8/29/2021 9:00:00 AM 14.1 57.38 0.05 7.23 2.79 9.44
8/29/2021 9:15:00 AM 14.11 57.398 0.05 7.25 2.66 9.46
8/29/2021 9:30:00 AM 14.13 57.434 0.05 7.27 2.69 9.47
8/29/2021 9:45:00 AM 14.16 57.488 0.05 7.28 2.59 9.47
8/29/2021 10:00:00 AM 14.18 57.524 0.05 7.28 2.55 9.48
8/29/2021 10:15:00 AM 14.22 57.596 0.05 7.3 2.54 9.5
8/29/2021 10:30:00 AM 14.25 57.65 0.05 7.32 2.73 9.51
8/29/2021 10:45:00 AM 14.3 57.74 0.05 7.32 2.7 9.52
8/29/2021 11:00:00 AM 14.34 57.812 0.05 7.34 2.56 9.52
8/29/2021 11:15:00 AM 14.38 57.884 0.05 7.34 2.55 9.52
8/29/2021 11:30:00 AM 14.41 57.938 0.05 7.35 2.69 9.53
8/29/2021 11:45:00 AM 14.47 58.046 0.05 7.36 2.82 9.53
8/29/2021 12:00:00 PM 14.56 58.208 0.05 7.39 2.58 9.55
8/29/2021 12:15:00 PM 14.69 58.442 0.05 7.41 2.67 9.55
8/29/2021 12:30:00 PM 14.79 58.622 0.05 7.43 2.73 9.54
8/29/2021 12:45:00 PM 14.84 58.712 0.05 7.41 2.74 9.5
8/29/2021 1:00:00 PM 14.92 58.856 0.05 7.43 2.83 9.51
8/29/2021 1:15:00 PM 15 59 0.05 7.45 2.99 9.51
8/29/2021 1:30:00 PM 15.06 59.108 0.05 7.44 2.84 9.49
8/29/2021 1:45:00 PM 15.11 59.198 0.05 7.44 2.66 9.46
8/29/2021 2:00:00 PM 15.15 59.27 0.05 7.45 2.67 9.47
8/29/2021 2:15:00 PM 15.22 59.396 0.05 7.46 2.65 9.46
8/29/2021 2:30:00 PM 15.25 59.45 0.05 7.45 2.56 9.45
8/29/2021 2:45:00 PM 15.25 59.45 0.05 7.44 2.65 9.41
8/29/2021 3:00:00 PM 15.24 59.432 0.05 7.44 2.73 9.41
8/29/2021 3:15:00 PM 15.26 59.468 0.05 7.45 2.57 9.42
8/29/2021 3:30:00 PM 15.27 59.486 0.05 7.44 2.8 9.41
8/29/2021 3:45:00 PM 15.34 59.612 0.049 7.46 2.88 9.4
8/29/2021 4:00:00 PM 15.46 59.828 0.05 7.49 2.55 9.41
8/29/2021 4:15:00 PM 15.57 60.026 0.05 7.49 2.63 9.39
8/29/2021 4:30:00 PM 15.72 60.296 0.049 7.51 2.56 9.38
8/29/2021 4:45:00 PM 15.79 60.422 0.049 7.5 2.72 9.35
8/29/2021 5:00:00 PM 15.83 60.494 0.049 7.5 2.55 9.33
8/29/2021 5:15:00 PM 15.81 60.458 0.049 7.47 3.11 9.31
8/29/2021 5:30:00 PM 15.73 60.314 0.049 7.45 2.96 9.25
8/29/2021 5:45:00 PM 15.65 60.17 0.05 7.42 2.73 9.2
8/29/2021 6:00:00 PM 15.59 60.062 0.05 7.39 2.54 9.17
8/29/2021 6:15:00 PM 15.54 59.972 0.05 7.38 2.51 9.13
8/29/2021 6:30:00 PM 15.51 59.918 0.05 7.37 2.77 9.1
8/29/2021 6:45:00 PM 15.46 59.828 0.05 7.34 2.67 9.08
8/29/2021 7:00:00 PM 15.4 59.72 0.05 7.32 2.73 9.06
8/29/2021 7:15:00 PM 15.35 59.63 0.05 7.3 2.82 9.05
8/29/2021 7:30:00 PM 15.3 59.54 0.05 7.28 2.92 9.03
8/29/2021 7:45:00 PM 15.26 59.468 0.05 7.27 2.97 9.02
8/29/2021 8:00:00 PM 15.22 59.396 0.05 7.25 2.95 9.01
8/29/2021 8:15:00 PM 15.18 59.324 0.05 7.24 3.05 9.01
8/29/2021 8:30:00 PM 15.14 59.252 0.05 7.22 2.72 9.01
8/29/2021 8:45:00 PM 15.1 59.18 0.051 7.22 2.94 9.01
8/29/2021 9:00:00 PM 15.05 59.09 0.051 7.22 3.12 9.02
8/29/2021 9:15:00 PM 15.01 59.018 0.051 7.22 3.05 9.02
8/29/2021 9:30:00 PM 14.96 58.928 0.051 7.21 2.87 9.03
8/29/2021 9:45:00 PM 14.91 58.838 0.051 7.19 3.12 9.04
8/29/2021 10:00:00 PM 14.87 58.766 0.051 7.18 3.06 9.04
8/29/2021 10:15:00 PM 14.82 58.676 0.051 7.18 3.24 9.05
8/29/2021 10:30:00 PM 14.78 58.604 0.051 7.18 3.02 9.06
8/29/2021 10:45:00 PM 14.74 58.532 0.051 7.17 3.1 9.07
8/29/2021 11:00:00 PM 14.7 58.46 0.051 7.18 2.91 9.08
8/29/2021 11:15:00 PM 14.66 58.388 0.051 7.17 2.87 9.09
8/29/2021 11:30:00 PM 14.62 58.316 0.051 7.16 2.83 9.1
8/29/2021 11:45:00 PM 14.57 58.226 0.051 7.16 2.8 9.11
8/30/2021 12:00:00 AM 14.53 58.154 0.051 7.16 3.09 9.12
8/30/2021 12:15:00 AM 14.48 58.064 0.051 7.15 2.96 9.13
8/30/2021 12:30:00 AM 14.44 57.992 0.051 7.16 2.96 9.13
8/30/2021 12:45:00 AM 14.39 57.902 0.051 7.16 2.89 9.14
8/30/2021 1:00:00 AM 14.35 57.83 0.051 7.17 3.5 9.15
8/30/2021 1:15:00 AM 14.32 57.776 0.051 7.16 2.92 9.16
8/30/2021 1:30:00 AM 14.28 57.704 0.051 7.18 3.02 9.17
8/30/2021 1:45:00 AM 14.24 57.632 0.051 7.18 3.01 9.18
8/30/2021 2:00:00 AM 14.2 57.56 0.051 7.18 3.08 9.18
8/30/2021 2:15:00 AM 14.17 57.506 0.051 7.19 2.86 9.19
8/30/2021 2:30:00 AM 14.13 57.434 0.051 7.19 3.2 9.2
8/30/2021 2:45:00 AM 14.1 57.38 0.051 7.19 4.01 9.2
8/30/2021 3:00:00 AM 14.07 57.326 0.051 7.19 3.35 9.21
8/30/2021 3:15:00 AM 14.06 57.308 0.051 7.19 2.96 9.21
8/30/2021 3:30:00 AM 14.04 57.272 0.051 7.18 3.22 9.22
8/30/2021 3:45:00 AM 14.03 57.254 0.051 7.19 3.07 9.22
8/30/2021 4:00:00 AM 14.01 57.218 0.051 7.2 2.8 9.22
8/30/2021 4:15:00 AM 13.99 57.182 0.051 7.19 2.8 9.23
8/30/2021 4:30:00 AM 13.97 57.146 0.051 7.19 3.19 9.23
8/30/2021 4:45:00 AM 13.94 57.092 0.051 7.19 3 9.23
8/30/2021 5:00:00 AM 13.92 57.056 0.051 7.19 2.89 9.23
8/30/2021 5:15:00 AM 13.9 57.02 0.051 7.19 2.85 9.24
8/30/2021 5:30:00 AM 13.88 56.984 0.051 7.18 2.85 9.24
8/30/2021 5:45:00 AM 13.87 56.966 0.051 7.19 3.01 9.24
8/30/2021 6:00:00 AM 13.85 56.93 0.051 7.18 2.93 9.25
8/30/2021 6:15:00 AM 13.84 56.912 0.051 7.19 3.09 9.25
8/30/2021 6:30:00 AM 13.82 56.876 0.051 7.18 3.07 9.25
8/30/2021 6:45:00 AM 13.8 56.84 0.051 7.18 3.5 9.26
8/30/2021 7:00:00 AM 13.79 56.822 0.051 7.18 3.41 9.26
8/30/2021 7:15:00 AM 13.79 56.822 0.051 7.19 2.84 9.29
8/30/2021 7:30:00 AM 13.79 56.822 0.051 7.2 2.75 9.32
8/30/2021 7:45:00 AM 13.79 56.822 0.051 7.2 2.7 9.35
8/30/2021 8:00:00 AM 13.81 56.858 0.051 7.23 2.84 9.39
8/30/2021 8:15:00 AM 13.82 56.876 0.051 7.23 2.76 9.41
8/30/2021 8:30:00 AM 13.83 56.894 0.05 7.23 2.89 9.4
8/30/2021 8:45:00 AM 13.83 56.894 0.05 7.24 2.69 9.41
8/30/2021 9:00:00 AM 13.83 56.894 0.051 7.24 2.71 9.4
8/30/2021 9:15:00 AM 13.84 56.912 0.05 7.25 2.65 9.41
8/30/2021 9:30:00 AM 13.86 56.948 0.05 7.25 2.67 9.43
8/30/2021 9:45:00 AM 13.88 56.984 0.05 7.26 2.71 9.45
8/30/2021 10:00:00 AM 13.92 57.056 0.05 7.28 2.47 9.49
8/30/2021 10:15:00 AM 14 57.2 0.05 7.33 2.56 9.53
8/30/2021 10:30:00 AM 14.08 57.344 0.05 7.36 2.56 9.55
8/30/2021 10:45:00 AM 14.22 57.596 0.05 7.41 2.44 9.58
8/30/2021 11:00:00 AM 14.31 57.758 0.05 7.42 2.49 9.57
8/30/2021 11:15:00 AM 14.39 57.902 0.05 7.43 2.58 9.55
8/30/2021 11:30:00 AM 14.46 58.028 0.05 7.44 2.53 9.54
8/30/2021 11:45:00 AM 14.55 58.19 0.05 7.46 2.66 9.55
8/30/2021 12:00:00 PM 14.65 58.37 0.05 7.48 2.62 9.55
8/30/2021 12:15:00 PM 14.76 58.568 0.05 7.49 2.67 9.53
8/30/2021 12:30:00 PM 14.82 58.676 0.05 7.49 2.57 9.48
8/30/2021 12:45:00 PM 14.94 58.892 0.05 7.51 2.59 9.5
8/30/2021 1:00:00 PM 15.03 59.054 0.049 7.51 2.56 9.49
8/30/2021 1:15:00 PM 15.18 59.324 0.049 7.53 2.47 9.46
8/30/2021 1:30:00 PM 15.39 59.702 0.049 7.55 2.65 9.44
8/30/2021 1:45:00 PM 15.63 60.134 0.049 7.57 2.63 9.41
8/30/2021 2:00:00 PM 15.84 60.512 0.049 7.57 3.08 9.38
8/30/2021 2:15:00 PM 16.08 60.944 0.05 7.58 2.62 9.34
8/30/2021 2:30:00 PM 16.24 61.232 0.049 7.58 2.81 9.3
8/30/2021 2:45:00 PM 16.24 61.232 0.049 7.55 2.81 9.23
8/30/2021 3:00:00 PM 16.39 61.502 0.049 7.59 2.64 9.23
8/30/2021 3:15:00 PM 16.4 61.52 0.05 7.55 2.59 9.18
8/30/2021 3:30:00 PM 16.52 61.736 0.05 7.59 2.71 9.16
8/30/2021 3:45:00 PM 16.64 61.952 0.05 7.58 2.52 9.15
8/30/2021 4:00:00 PM 16.68 62.024 0.05 7.58 2.5 9.12
8/30/2021 4:15:00 PM 16.73 62.114 0.049 7.58 1.85 9.09
8/30/2021 4:30:00 PM 16.72 62.096 0.05 7.56 2.55 9.09
8/30/2021 4:45:00 PM 16.69 62.042 0.049 7.54 2.55 9.07
8/30/2021 5:00:00 PM 16.62 61.916 0.05 7.53 2.56 9.05
8/30/2021 5:15:00 PM 16.49 61.682 0.05 7.49 2.61 8.98
8/30/2021 5:30:00 PM 16.37 61.466 0.05 7.47 2.43 9.01
8/30/2021 5:45:00 PM 16.3 61.34 0.05 7.46 2.48 9.03
8/30/2021 6:00:00 PM 16.24 61.232 0.05 7.46 2.5 9.03
8/30/2021 6:15:00 PM 16.21 61.178 0.05 7.45 2.54 9.02
8/30/2021 6:30:00 PM 16.14 61.052 0.05 7.44 2.56 9
8/30/2021 6:45:00 PM 16.02 60.836 0.05 7.41 2.59 8.97
8/30/2021 7:00:00 PM 15.92 60.656 0.05 7.38 2.73 8.96
8/30/2021 7:15:00 PM 15.81 60.458 0.05 7.37 2.82 8.93
8/30/2021 7:30:00 PM 15.71 60.278 0.05 7.35 2.83 8.92
8/30/2021 7:45:00 PM 15.62 60.116 0.05 7.33 2.62 8.91
8/30/2021 8:00:00 PM 15.53 59.954 0.05 7.32 3.23 8.9
8/30/2021 8:15:00 PM 15.44 59.792 0.051 7.32 2.87 8.91
8/30/2021 8:30:00 PM 15.35 59.63 0.051 7.31 2.81 8.91
8/30/2021 8:45:00 PM 15.26 59.468 0.051 7.3 3.09 8.92
8/30/2021 9:00:00 PM 15.19 59.342 0.051 7.29 2.73 8.93
8/30/2021 9:15:00 PM 15.11 59.198 0.051 7.28 2.86 8.95
8/30/2021 9:30:00 PM 15.04 59.072 0.051 7.29 2.76 8.96
8/30/2021 9:45:00 PM 14.97 58.946 0.051 7.28 2.77 8.97
8/30/2021 10:00:00 PM 14.9 58.82 0.051 7.28 3.89 8.99
8/30/2021 10:15:00 PM 14.83 58.694 0.051 7.28 2.98 9
8/30/2021 10:30:00 PM 14.77 58.586 0.051 7.28 2.79 9.01
8/30/2021 10:45:00 PM 14.7 58.46 0.051 7.27 2.84 9.03
8/30/2021 11:00:00 PM 14.64 58.352 0.051 7.27 2.66 9.04
8/30/2021 11:15:00 PM 14.57 58.226 0.051 7.27 3.01 9.06
8/30/2021 11:30:00 PM 14.5 58.1 0.051 7.27 3.15 9.07
8/30/2021 11:45:00 PM 14.43 57.974 0.051 7.26 2.96 9.08
8/31/2021 12:00:00 AM 14.37 57.866 0.051 7.26 2.8 9.1
8/31/2021 12:15:00 AM 14.3 57.74 0.051 7.26 2.92 9.11
8/31/2021 12:30:00 AM 14.24 57.632 0.051 7.26 2.96 9.12
8/31/2021 12:45:00 AM 14.18 57.524 0.051 7.27 2.74 9.13
8/31/2021 1:00:00 AM 14.12 57.416 0.051 7.26 2.68 9.15
8/31/2021 1:15:00 AM 14.07 57.326 0.051 7.26 2.66 9.16
8/31/2021 1:30:00 AM 14.03 57.254 0.051 7.26 2.81 9.18
8/31/2021 1:45:00 AM 14 57.2 0.051 7.26 3.06 9.18
8/31/2021 2:00:00 AM 13.96 57.128 0.051 7.26 2.7 9.19
8/31/2021 2:15:00 AM 13.91 57.038 0.051 7.27 2.91 9.2
8/31/2021 2:30:00 AM 13.88 56.984 0.051 7.27 2.74 9.21
8/31/2021 2:45:00 AM 13.84 56.912 0.051 7.27 2.82 9.22
8/31/2021 3:00:00 AM 13.81 56.858 0.051 7.27 2.64 9.23
8/31/2021 3:15:00 AM 13.76 56.768 0.051 7.27 3.39 9.24
8/31/2021 3:30:00 AM 13.71 56.678 0.051 7.27 3.14 9.25
8/31/2021 3:45:00 AM 13.66 56.588 0.051 7.27 2.72 9.26
8/31/2021 4:00:00 AM 13.61 56.498 0.051 7.26 2.79 9.27
8/31/2021 4:15:00 AM 13.55 56.39 0.051 7.26 2.8 9.28
8/31/2021 4:30:00 AM 13.5 56.3 0.051 7.25 3.23 9.3
8/31/2021 4:45:00 AM 13.45 56.21 0.051 7.26 2.91 9.3
8/31/2021 5:00:00 AM 13.42 56.156 0.051 7.26 3.11 9.31
8/31/2021 5:15:00 AM 13.38 56.084 0.051 7.25 3.04 9.32
8/31/2021 5:30:00 AM 13.34 56.012 0.051 7.24 2.8 9.32
8/31/2021 5:45:00 AM 13.3 55.94 0.051 7.24 3.24 9.33
8/31/2021 6:00:00 AM 13.26 55.868 0.051 7.24 4.05 9.34
8/31/2021 6:15:00 AM 13.23 55.814 0.051 7.24 2.83 9.35
8/31/2021 6:30:00 AM 13.2 55.76 0.051 7.25 2.71 9.35
8/31/2021 6:45:00 AM 13.17 55.706 0.051 7.25 2.9 9.37
8/31/2021 7:00:00 AM 13.14 55.652 0.051 7.25 2.78 9.39
8/31/2021 7:15:00 AM 13.13 55.634 0.051 7.26 2.84 9.41
8/31/2021 7:30:00 AM 13.12 55.616 0.051 7.27 2.87 9.45
8/31/2021 7:45:00 AM 13.13 55.634 0.051 7.28 2.75 9.48
8/31/2021 8:00:00 AM 13.13 55.634 0.051 7.29 2.6 9.52
8/31/2021 8:15:00 AM 13.14 55.652 0.051 7.32 5.98 9.56
8/31/2021 8:30:00 AM 13.16 55.688 0.05 7.33 2.77 9.61
8/31/2021 8:45:00 AM 13.19 55.742 0.05 7.35 3.03 9.65
8/31/2021 9:00:00 AM 13.23 55.814 0.05 7.36 2.6 9.68
8/31/2021 9:15:00 AM 13.27 55.886 0.05 7.37 2.63 9.69
8/31/2021 9:30:00 AM 13.32 55.976 0.05 7.39 2.62 9.71
8/31/2021 9:45:00 AM 13.37 56.066 0.05 7.4 2.71 9.71
8/31/2021 10:00:00 AM 13.4 56.12 0.05 7.4 2.56 9.7
8/31/2021 10:15:00 AM 13.49 56.282 0.05 7.43 2.68 9.72
8/31/2021 10:30:00 AM 13.57 56.426 0.05 7.44 2.42 9.74
8/31/2021 10:45:00 AM 13.66 56.588 0.05 7.46 2.54 9.72
8/31/2021 11:00:00 AM 13.8 56.84 0.05 7.48 2.51 9.72
8/31/2021 11:15:00 AM 13.86 56.948 0.05 7.48 2.58 9.68
8/31/2021 11:30:00 AM 13.92 57.056 0.05 7.48 2.54 9.67
8/31/2021 11:45:00 AM 14.05 57.29 0.05 7.51 2.83 9.68
8/31/2021 12:00:00 PM 14.14 57.452 0.05 7.52 2.5 9.65
8/31/2021 12:15:00 PM 14.33 57.794 0.05 7.54 2.72 9.64
8/31/2021 12:30:00 PM 14.45 58.01 0.05 7.54 2.79 9.61
8/31/2021 12:45:00 PM 14.53 58.154 0.05 7.55 2.57 9.57
8/31/2021 1:00:00 PM 14.78 58.604 0.05 7.59 2.55 9.58
8/31/2021 1:15:00 PM 14.88 58.784 0.05 7.57 2.5 9.53
8/31/2021 1:30:00 PM 15.03 59.054 0.05 7.6 2.47 9.48
8/31/2021 1:45:00 PM 15.1 59.18 0.05 7.58 2.58 9.47
8/31/2021 2:00:00 PM 15.11 59.198 0.05 7.56 2.77 9.43
8/31/2021 2:15:00 PM 15.12 59.216 0.049 7.55 2.77 9.41
8/31/2021 2:30:00 PM 15.34 59.612 0.049 7.6 2.6 9.43
8/31/2021 2:45:00 PM 15.47 59.846 0.049 7.6 2.44 9.4
8/31/2021 3:00:00 PM 15.64 60.152 0.049 7.63 2.54 9.37
8/31/2021 3:15:00 PM 15.84 60.512 0.05 7.64 2.38 9.35
8/31/2021 3:30:00 PM 15.88 60.584 0.049 7.61 2.57 9.3
8/31/2021 3:45:00 PM 15.89 60.602 0.049 7.6 2.74 9.28
8/31/2021 4:00:00 PM 15.84 60.512 0.05 7.58 2.6 9.26
8/31/2021 4:15:00 PM 15.82 60.476 0.05 7.57 2.56 9.25
8/31/2021 4:30:00 PM 15.9 60.62 0.05 7.59 2.47 9.24
8/31/2021 4:45:00 PM 15.89 60.602 0.05 7.57 2.6 9.2
8/31/2021 5:00:00 PM 15.94 60.692 0.05 7.58 2.58 9.2
8/31/2021 5:15:00 PM 15.9 60.62 0.05 7.56 2.6 9.2
8/31/2021 5:30:00 PM 15.85 60.53 0.05 7.56 2.56 9.2
8/31/2021 5:45:00 PM 15.78 60.404 0.05 7.54 2.97 9.19
8/31/2021 6:00:00 PM 15.65 60.17 0.05 7.51 2.66 9.15
8/31/2021 6:15:00 PM 15.55 59.99 0.05 7.49 2.59 9.14
8/31/2021 6:30:00 PM 15.46 59.828 0.05 7.47 2.49 9.11
8/31/2021 6:45:00 PM 15.36 59.648 0.05 7.44 2.78 9.07
8/31/2021 7:00:00 PM 15.29 59.522 0.05 7.42 2.77 9.03
8/31/2021 7:15:00 PM 15.22 59.396 0.05 7.4 2.66 9.02
8/31/2021 7:30:00 PM 15.15 59.27 0.051 7.38 2.71 9
8/31/2021 7:45:00 PM 15.08 59.144 0.051 7.36 2.95 8.99
8/31/2021 8:00:00 PM 15 59 0.051 7.35 2.85 8.98
8/31/2021 8:15:00 PM 14.94 58.892 0.051 7.34 3.81 8.98
8/31/2021 8:30:00 PM 14.88 58.784 0.051 7.33 3.3 8.99
8/31/2021 8:45:00 PM 14.82 58.676 0.051 7.32 3.44 8.98
8/31/2021 9:00:00 PM 14.77 58.586 0.051 7.31 3.05 9
8/31/2021 9:15:00 PM 14.71 58.478 0.051 7.31 2.7 9.01
8/31/2021 9:30:00 PM 14.67 58.406 0.051 7.31 2.87 9.02
8/31/2021 9:45:00 PM 14.62 58.316 0.051 7.31 3.1 9.02
8/31/2021 10:00:00 PM 14.58 58.244 0.051 7.3 2.92 9.04
8/31/2021 10:15:00 PM 14.53 58.154 0.051 7.3 3.1 9.05
8/31/2021 10:30:00 PM 14.49 58.082 0.051 7.3 3.72 9.06
8/31/2021 10:45:00 PM 14.45 58.01 0.051 7.3 3.12 9.06
8/31/2021 11:00:00 PM 14.4 57.92 0.051 7.3 2.76 9.08
8/31/2021 11:15:00 PM 14.35 57.83 0.051 7.3 2.75 9.09
8/31/2021 11:30:00 PM 14.3 57.74 0.051 7.3 2.77 9.1
8/31/2021 11:45:00 PM 14.25 57.65 0.051 7.29 3.14 9.1
9/1/2021 12:00:00 AM 14.2 57.56 0.051 7.29 2.98 9.12
9/1/2021 12:15:00 AM 14.15 57.47 0.051 7.27 3.78 9.13
9/1/2021 12:30:00 AM 14.11 57.398 0.051 7.28 3.14 9.14
9/1/2021 12:45:00 AM 14.07 57.326 0.051 7.28 2.89 9.15
9/1/2021 1:00:00 AM 14.03 57.254 0.051 7.28 2.83 9.16
9/1/2021 1:15:00 AM 13.99 57.182 0.051 7.28 2.97 9.16
9/1/2021 1:30:00 AM 13.95 57.11 0.051 7.27 3.01 9.17
9/1/2021 1:45:00 AM 13.91 57.038 0.051 7.27 2.82 9.18
9/1/2021 2:00:00 AM 13.87 56.966 0.051 7.27 2.77 9.19
9/1/2021 2:15:00 AM 13.83 56.894 0.051 7.27 2.78 9.2
9/1/2021 2:30:00 AM 13.79 56.822 0.051 7.27 2.75 9.21
9/1/2021 2:45:00 AM 13.75 56.75 0.051 7.28 2.8 9.21
9/1/2021 3:00:00 AM 13.72 56.696 0.051 7.28 2.66 9.22
9/1/2021 3:15:00 AM 13.69 56.642 0.051 7.27 2.73 9.23
9/1/2021 3:30:00 AM 13.66 56.588 0.051 7.27 3.09 9.23
9/1/2021 3:45:00 AM 13.63 56.534 0.051 7.28 3.03 9.24
9/1/2021 4:00:00 AM 13.6 56.48 0.051 7.27 3.04 9.25
9/1/2021 4:15:00 AM 13.57 56.426 0.051 7.27 2.9 9.26
9/1/2021 4:30:00 AM 13.55 56.39 0.051 7.28 3.17 9.25
9/1/2021 4:45:00 AM 13.53 56.354 0.051 7.27 3.31 9.26
9/1/2021 5:00:00 AM 13.51 56.318 0.051 7.27 4.51 9.27
9/1/2021 5:15:00 AM 13.49 56.282 0.051 7.27 4.68 9.27
9/1/2021 5:30:00 AM 13.47 56.246 0.051 7.28 2.98 9.28
9/1/2021 5:45:00 AM 13.45 56.21 0.051 7.27 2.89 9.28
9/1/2021 6:00:00 AM 13.43 56.174 0.051 7.27 3.03 9.29
9/1/2021 6:15:00 AM 13.41 56.138 0.051 7.26 8.5 9.28
9/1/2021 6:30:00 AM 13.4 56.12 0.051 7.26 14.64 9.28
9/1/2021 6:45:00 AM 13.38 56.084 0.051 7.27 3.61 9.3
9/1/2021 7:00:00 AM 13.36 56.048 0.051 7.27 3.33 9.3
9/1/2021 7:15:00 AM 13.35 56.03 0.051 7.27 2.81 9.32
9/1/2021 7:30:00 AM 13.34 56.012 0.051 7.28 3.01 9.33
9/1/2021 7:45:00 AM 13.33 55.994 0.051 7.3 2.76 9.34
9/1/2021 8:00:00 AM 13.32 55.976 0.051 7.3 3.11 9.36
9/1/2021 8:15:00 AM 13.32 55.976 0.051 7.31 2.79 9.38
9/1/2021 8:30:00 AM 13.32 55.976 0.051 7.32 2.85 9.4
9/1/2021 8:45:00 AM 13.31 55.958 0.051 7.32 2.67 9.42
9/1/2021 9:00:00 AM 13.32 55.976 0.051 7.34 2.67 9.45
9/1/2021 9:15:00 AM 13.32 55.976 0.051 7.35 2.72 9.48
9/1/2021 9:30:00 AM 13.33 55.994 0.051 7.36 2.67 9.51
9/1/2021 9:45:00 AM 13.34 56.012 0.05 7.38 2.63 9.53
9/1/2021 10:00:00 AM 13.37 56.066 0.05 7.39 2.61 9.56
9/1/2021 10:15:00 AM 13.39 56.102 0.05 7.4 2.73 9.55
9/1/2021 10:30:00 AM 13.42 56.156 0.05 7.41 2.53 9.58
9/1/2021 10:45:00 AM 13.44 56.192 0.05 7.42 2.84 9.59
9/1/2021 11:00:00 AM 13.47 56.246 0.05 7.43 2.75 9.61
9/1/2021 11:15:00 AM 13.49 56.282 0.05 7.43 2.64 9.59
9/1/2021 11:30:00 AM 13.51 56.318 0.05 7.43 2.53 9.58
9/1/2021 11:45:00 AM 13.54 56.372 0.05 7.44 2.49 9.6
9/1/2021 12:00:00 PM 13.56 56.408 0.05 7.44 3.96 9.58
9/1/2021 12:15:00 PM 13.56 56.408 0.05 7.44 2.77 9.56
9/1/2021 12:30:00 PM 13.57 56.426 0.05 7.43 2.6 9.54
9/1/2021 12:45:00 PM 13.58 56.444 0.05 7.42 2.62 9.52
9/1/2021 1:00:00 PM 13.59 56.462 0.05 7.44 2.72 9.55
9/1/2021 1:15:00 PM 13.6 56.48 0.05 7.43 2.65 9.55
9/1/2021 1:30:00 PM 13.61 56.498 0.05 7.43 2.55 9.53
9/1/2021 1:45:00 PM 13.63 56.534 0.05 7.43 2.74 9.53
9/1/2021 2:00:00 PM 13.64 56.552 0.05 7.44 2.75 9.55
9/1/2021 2:15:00 PM 13.64 56.552 0.05 7.43 2.77 9.49
9/1/2021 2:30:00 PM 13.64 56.552 0.05 7.41 2.56 9.46
9/1/2021 2:45:00 PM 13.63 56.534 0.05 7.41 3.03 9.46
9/1/2021 3:00:00 PM 13.64 56.552 0.05 7.41 2.62 9.47
9/1/2021 3:15:00 PM 13.66 56.588 0.05 7.42 2.76 9.49
9/1/2021 3:30:00 PM 13.67 56.606 0.05 7.42 2.86 9.49
9/1/2021 3:45:00 PM 13.68 56.624 0.051 7.42 2.81 9.46
9/1/2021 4:00:00 PM 13.68 56.624 0.051 7.4 2.93 9.42
9/1/2021 4:15:00 PM 13.67 56.606 0.051 7.39 2.9 9.39
9/1/2021 4:30:00 PM 13.66 56.588 0.051 7.38 3.05 9.37
9/1/2021 4:45:00 PM 13.64 56.552 0.051 7.37 3.01 9.34
9/1/2021 5:00:00 PM 13.64 56.552 0.051 7.37 3.15 9.34
9/1/2021 5:15:00 PM 13.64 56.552 0.051 7.38 3.18 9.38
9/1/2021 5:30:00 PM 13.65 56.57 0.051 7.38 3.07 9.4
9/1/2021 5:45:00 PM 13.65 56.57 0.051 7.39 3.36 9.39
9/1/2021 6:00:00 PM 13.66 56.588 0.051 7.4 2.94 9.44
9/1/2021 6:15:00 PM 13.66 56.588 0.051 7.41 2.98 9.46
9/1/2021 6:30:00 PM 13.66 56.588 0.051 7.4 3.06 9.41
9/1/2021 6:45:00 PM 13.65 56.57 0.051 7.4 2.98 9.41
9/1/2021 7:00:00 PM 13.63 56.534 0.052 7.39 3.02 9.39
9/1/2021 7:15:00 PM 13.61 56.498 0.052 7.38 3 9.36
9/1/2021 7:30:00 PM 13.59 56.462 0.052 7.38 2.74 9.34
9/1/2021 7:45:00 PM 13.56 56.408 0.052 7.37 2.85 9.32
9/1/2021 8:00:00 PM 13.53 56.354 0.052 7.37 2.92 9.31
9/1/2021 8:15:00 PM 13.5 56.3 0.052 7.36 3.47 9.3
9/1/2021 8:30:00 PM 13.46 56.228 0.052 7.35 2.98 9.3
9/1/2021 8:45:00 PM 13.41 56.138 0.052 7.35 3.31 9.3
9/1/2021 9:00:00 PM 13.36 56.048 0.052 7.34 3.31 9.3
9/1/2021 9:15:00 PM 13.3 55.94 0.052 7.33 3.26 9.31
9/1/2021 9:30:00 PM 13.24 55.832 0.052 7.33 3.19 9.32
9/1/2021 9:45:00 PM 13.18 55.724 0.052 7.33 3.01 9.33
9/1/2021 10:00:00 PM 13.13 55.634 0.052 7.33 3.24 9.34
9/1/2021 10:15:00 PM 13.07 55.526 0.052 7.32 3.06 9.36
9/1/2021 10:30:00 PM 13.01 55.418 0.052 7.31 3.02 9.37
9/1/2021 10:45:00 PM 12.95 55.31 0.052 7.32 3.38 9.38
9/1/2021 11:00:00 PM 12.89 55.202 0.052 7.31 3.71 9.39
9/1/2021 11:15:00 PM 12.84 55.112 0.052 7.3 3.62 9.4
9/1/2021 11:30:00 PM 12.78 55.004 0.052 7.31 2.86 9.42
9/1/2021 11:45:00 PM 12.72 54.896 0.052 7.3 4.72 9.43
9/2/2021 12:00:00 AM 12.66 54.788 0.052 7.3 4.4 9.44
9/2/2021 12:15:00 AM 12.6 54.68 0.052 7.3 3.03 9.47
9/2/2021 12:30:00 AM 12.54 54.572 0.052 7.3 3.13 9.48
9/2/2021 12:45:00 AM 12.48 54.464 0.052 7.29 3.22 9.49
9/2/2021 1:00:00 AM 12.41 54.338 0.052 7.29 3.93 9.51
9/2/2021 1:15:00 AM 12.35 54.23 0.053 7.29 2.95 9.52
9/2/2021 1:30:00 AM 12.29 54.122 0.053 7.29 3.11 9.54
9/2/2021 1:45:00 AM 12.23 54.014 0.053 7.3 3.03 9.55
9/2/2021 2:00:00 AM 12.17 53.906 0.053 7.29 2.71 9.57
9/2/2021 2:15:00 AM 12.11 53.798 0.054 7.29 4.56 9.58
9/2/2021 2:30:00 AM 12.05 53.69 0.054 7.29 2.94 9.6
9/2/2021 2:45:00 AM 11.99 53.582 0.053 7.28 3.11 9.61
9/2/2021 3:00:00 AM 11.93 53.474 0.053 7.28 3.53 9.62
9/2/2021 3:15:00 AM 11.88 53.384 0.053 7.29 3.38 9.64
9/2/2021 3:30:00 AM 11.82 53.276 0.053 7.28 3.34 9.65
9/2/2021 3:45:00 AM 11.77 53.186 0.053 7.28 2.95 9.67
9/2/2021 4:00:00 AM 11.71 53.078 0.053 7.28 2.76 9.68
9/2/2021 4:15:00 AM 11.66 52.988 0.053 7.28 2.74 9.7
9/2/2021 4:30:00 AM 11.61 52.898 0.053 7.27 2.64 9.71
9/2/2021 4:45:00 AM 11.55 52.79 0.053 7.27 2.72 9.73
9/2/2021 5:00:00 AM 11.5 52.7 0.053 7.27 2.76 9.74
9/2/2021 5:15:00 AM 11.46 52.628 0.053 7.28 2.7 9.75
9/2/2021 5:30:00 AM 11.41 52.538 0.053 7.27 2.87 9.76
9/2/2021 5:45:00 AM 11.37 52.466 0.053 7.27 2.79 9.77
9/2/2021 6:00:00 AM 11.33 52.394 0.053 7.27 3.01 9.78
9/2/2021 6:15:00 AM 11.29 52.322 0.053 7.28 2.82 9.8
9/2/2021 6:30:00 AM 11.25 52.25 0.053 7.27 3.73 9.81
9/2/2021 6:45:00 AM 11.21 52.178 0.053 7.27 2.59 9.82
9/2/2021 7:00:00 AM 11.16 52.088 0.053 7.28 2.51 9.85
9/2/2021 7:15:00 AM 11.12 52.016 0.053 7.28 2.49 9.87
9/2/2021 7:30:00 AM 11.09 51.962 0.053 7.29 2.7 9.92
9/2/2021 7:45:00 AM 11.08 51.944 0.053 7.3 2.5 9.95
9/2/2021 8:00:00 AM 11.08 51.944 0.053 7.31 2.54 9.98
9/2/2021 8:15:00 AM 11.1 51.98 0.052 7.33 2.65 10.01
9/2/2021 8:30:00 AM 11.14 52.052 0.052 7.34 2.66 10.04
9/2/2021 8:45:00 AM 11.2 52.16 0.052 7.35 2.54 10.05
9/2/2021 9:00:00 AM 11.3 52.34 0.052 7.38 2.51 10.07
9/2/2021 9:15:00 AM 11.41 52.538 0.052 7.39 2.54 10.08
9/2/2021 9:30:00 AM 11.53 52.754 0.052 7.41 2.64 10.08
9/2/2021 9:45:00 AM 11.65 52.97 0.052 7.43 2.61 10.08
9/2/2021 10:00:00 AM 11.78 53.204 0.052 7.45 2.56 10.08
9/2/2021 10:15:00 AM 11.89 53.402 0.052 7.45 2.61 10.07
9/2/2021 10:30:00 AM 12.01 53.618 0.052 7.47 2.57